You are on page 1of 44

AT$INFO=?

$INFO=359551037902474,AT5,Rev.6.01,359551037902474,424021623540289,8997112212697
2887139,118,42,8,1,24,1,0
@P,EE1D,103,0,359551037902474,1437478621,1437478621,1437478621,55230938,25157268
,0,2,707,10,0,0,0,0,,-196,2000,
AT$GPOS=0
@P,EBB5,103,0,359551037902474,1437478643,1437478641,1437478641,55230926,25157274
,0,0,707,10,0,0,0,0,,-196,2000,
AT$GPR@P,7D5B,103,0,359551037902474,1437478651,1437478651,1437478651,55230926,25
157274,0,2,707,11,0,0,0,0,,-196,2000,
S=?
$GPRS=1,"etisalat.ae","","","asegts.dyndns.org",30178,0,10,10,0,1,"0.0.0.0",5408
8
AT$NMEA=255
$ERROR=102
AT$NMEA=255
$OK
$GPGGA,113801.000,2509.4352,N,05513.8540,E,2,7,1.13,-7.3,M,-26.7,M,0000,0000*53
$GPGSA,A,3,31,12,25,02,20,29,21,,,,,,1.42,1.13,0.87*07
$GPRMC,113801.000,A,2509.4352,N,05513.8540,E,0.09,91.50,210715,,,D*50
$GPGGA,113802.000,2509.4352,N,05513.8537,E,2,7,1.13,-7.1,M,-26.7,M,0000,0000*52
$GPGSA,A,3,31,12,25,02,20,29,21,,,,,,1.42,1.13,0.87*07
$GPGSV,3,1,11,12,77,122,20,25,59,323,39,05,51,099,21,39,45,233,38*78
$GPGSV,3,2,11,02,37,036,19,20,37,177,27,29,34,314,48,21,20,241,45*70
@P,4E3D,103,0,359551037902474,1437478681,1437478681,1437478681,55230900,25157253
,0,2,707,11,0,0,0,0,,-196,2000,
$GPGSV,3,3,11,24,19,197,19,31,06,316,29,06,01,046,*4E
$GPRMC,113802.000,A,2509.4352,N,05513.8537,E,0.09,91.50,210715,,,D*53
$GPGGA,113803.000,2509.4353,N,05513.8535,E,2,7,1.13,-6.9,M,-26.7,M,0000,0000*59
$GPGSA,A,3,31,12,25,02,20,29,21,,,,,,1.42,1.13,0.87*07
$GPRMC,113803.000,A,2509.4353,N,05513.8535,E,0.06,91.50,210715,,,D*5E
$GPGGA,113804.000,2509.4353,N,05513.8533,E,2,7,1.13,-6.8,M,-26.7,M,0000,0000*59
$GPGSA,A,3,31,12,25,02,20,29,21,,,,,,1.42,1.13,0.87*07
$GPRMC,113804.000,A,2509.4353,N,05513.8533,E,0.05,91.50,210715,,,D*5C
$GPGGA,113805.000,2509.4354,N,05513.8529,E,2,7,1.13,-6.7,M,-26.7,M,0000,0000*5B
$GPGSA,A,3,31,12,25,02,20,29,21,,,,,,1.42,1.13,0.87*07
$GPRMC,113805.000,A,2509.4354,N,05513.8529,E,0.06,91.50,210715,,,D*52
$GPGGA,113806.000,2509.4354,N,05513.8526,E,2,7,1.13,-6.6,M,-26.7,M,0000,0000*56
A$GPGSA,A,3,31,12,25,02,20,29,21,,,,,,1.42,1.13,0.87*07
$GPRMC,113806.000,A,2509.4354,N,05513.8526,E,0.06,91.50,210715,,,D*5E
T$GPGGA,113807.000,2509.4354,N,05513.8523,E,2,7,1.13,-6.5,M,-26.7,M,0000,0000*51
$GPGSA,A,3,31,12,25,02,20,29,21,,,,,,1.42,1.13,0.87*07
$GPGSV,3,1,10,12,77,122,20,25,59,323,39,05,51,099,23,39,45,233,38*7B
$$GPGSV,3,2,10,02,37,036,17,20,37,177,28,29,34,314,48,21,20,241,45*70
$GPGSV,3,3,10,24,19,197,18,31,06,316,29*7B
$GPRMC,113807.000,A,2509.4354,N,05513.8523,E,0.05,91.50,210715,,,D*59
D$GPGGA,113808.000,2509.4355,N,05513.8520,E,2,7,1.13,-6.4,M,-26.7,M,0000,0000*5D
$GPGSA,A,3,31,12,25,02,20,29,21,,,,,,1.42,1.13,0.87*07
$GPRMC,113808.000,A,2509.4355,N,05513.8520,E,0.05,91.50,210715,,,D*54
$GPGGA,113809.000,2509.4355,N,05513.8517,E,2,7,1.13,-6.3,M,-26.7,M,0000,0000*5F
B$GPGSA,A,3,31,12,25,02,20,29,21,,,,,,1.42,1.13,0.87*07
$GPRMC,113809.000,A,2509.4355,N,05513.8517,E,0.04,91.50,210715,,,D*50
UG$GPGGA,113810.000,2509.4356,N,05513.8513,E,2,8,1.01,-6.2,M,-26.7,M,0000,0000*5
D
$GPGSA,A,3,31,12,25,05,02,20,29,21,,,,,1.33,1.01,0.87*07
$GPRMC,113810.000,A,2509.4356,N,05513.8513,E,0.04,91.50,210715,,,D*5F
$OK
$GPGGA,113811.000,2509.4356,N,05513.8513,E,2,7,1.13,-6.2,M,-26.7,M,0000,0000*50
$GPGSA,A,3,31,12,25,02,20,29,21,,,,,,1.42,1.13,0.87*07

$GPRMC,113811.000,A,2509.4356,N,05513.8513,E,0.03,91.50,210715,,,D*59
$GPGGA,113812.000,2509.4356,N,05513.8513,E,2,7,1.13,-6.2,M,-26.7,M,0000,0000*53
$GPGSA,A,3,31,12,25,02,20,29,21,,,,,,1.42,1.13,0.87*07
$GPGSV,3,1,10,12,77,123,18,25,59,323,39,05,51,099,24,39,45,233,37*79
$GPGSV,3,2,10,02,37,036,20,20,37,177,29,29,34,314,48,21,20,241,45*75
$GPGSV,3,3,10,24,19,197,14,31,06,316,28*76
$GPRMC,113812.000,A,2509.4356,N,05513.8513,E,0.05,91.50,210715,,,D*5C
$GPGGA,113813.000,2509.4356,N,05513.8512,E,2,8,1.01,-6.2,M,-26.7,M,0000,0000*5F
$GPGSA,A,3,31,12,25,05,02,20,29,21,,,,,1.33,1.01,0.87*07
$GPRMC,113813.000,A,2509.4356,N,05513.8512,E,0.06,91.50,210715,,,D*5F
$GPGGA,113814.000,2509.4356,N,05513.8512,E,2,8,1.01,-6.2,M,-26.7,M,0000,0000*58
$GPGSA,A,3,31,12,25,05,02,20,29,21,,,,,1.33,1.01,0.87*07
$GPRMC,113814.000,A,2509.4356,N,05513.8512,E,0.07,91.50,210715,,,D*59
$GPGGA,113815.000,2509.4356,N,05513.8512,E,2,8,1.01,-6.2,M,-26.7,M,0000,0000*59
$GPGSA,A,3,31,12,25,05,02,20,29,21,,,,,1.33,1.01,0.87*07
$GPRMC,113815.000,A,2509.4356,N,05513.8512,E,0.06,91.50,210715,,,D*59
$GPGGA,113816.000,2509.4356,N,05513.8512,E,2,8,1.01,-6.2,M,-26.7,M,0000,0000*5A
$GPGSA,A,3,31,12,25,05,02,20,29,21,,,,,1.33,1.01,0.87*07
$GPRMC,113816.000,A,2509.4356,N,05513.8512,E,0.04,91.50,210715,,,D*58
$GPGGA,113817.000,2509.4356,N,05513.8512,E,2,8,1.01,-6.2,M,-26.7,M,0000,0000*5B
$GPGSA,A,3,31,12,25,05,02,20,29,21,,,,,1.33,1.01,0.87*07
$GPGSV,3,1,10,12,77,123,18,25,59,323,40,05,51,099,26,39,45,233,37*75
$GPGSV,3,2,10,02,37,036,21,20,37,177,30,29,34,314,48,21,20,241,45*7C
$GPGSV,3,3,10,24,19,197,16,31,06,316,29*75
$GPRMC,113817.000,A,2509.4356,N,05513.8512,E,0.03,91.50,210715,,,D*5E
$GPGGA,113818.000,2509.4356,N,05513.8512,E,2,8,1.01,-6.2,M,-26.7,M,0000,0000*54
$GPGSA,A,3,31,12,25,05,02,20,29,21,,,,,1.33,1.01,0.87*07
$GPRMC,113818.000,A,2509.4356,N,05513.8512,E,0.06,91.50,210715,,,D*54
$GPGGA,113819.000,2509.4356,N,05513.8509,E,2,8,1.01,-5.9,M,-26.7,M,0000,0000*57
$GPGSA,A,3,31,12,25,05,02,20,29,21,,,,,1.33,1.01,0.87*07
$GPRMC,113819.000,A,2509.4356,N,05513.8509,E,0.05,91.50,210715,,,D*5C
$GPGGA,113820.000,2509.4356,N,05513.8506,E,2,8,1.01,-5.6,M,-26.7,M,0000,0000*5D
$GPGSA,A,3,31,12,25,05,02,20,29,21,,,,,1.33,1.01,0.87*07
$GPRMC,113820.000,A,2509.4356,N,05513.8506,E,0.04,91.50,210715,,,D*58
$GPGGA,113821.000,2509.4356,N,05513.8505,E,2,7,1.13,-5.3,M,-26.7,M,0000,0000*56
$GPGSA,A,3,31,12,25,02,20,29,21,,,,,,1.42,1.13,0.87*07
$GPRMC,113821.000,A,2509.4356,N,05513.8505,E,0.02,91.50,210715,,,D*5C
$GPGGA,113822.000,2509.4356,N,05513.8503,E,2,7,1.13,-5.1,M,-26.7,M,0000,0000*51
$GPGSA,A,3,31,12,25,02,20,29,21,,,,,,1.42,1.13,0.87*07
$GPGSV,3,1,10,12,77,123,18,25,60,323,40,05,51,099,26,39,45,233,37*7F
$GPGSV,3,2,10,02,37,036,18,20,37,177,28,29,34,314,48,21,20,241,45*7F
$GPGSV,3,3,10,24,19,196,16,31,06,316,30*7C
$GPRMC,113822.000,A,2509.4356,N,05513.8503,E,0.03,91.50,210715,,,D*58
$GPGGA,113823.000,2509.4356,N,05513.8503,E,2,8,1.01,-5.1,M,-26.7,M,0000,0000*5C
$GPGSA,A,3,31,12,25,05,02,20,29,21,,,,,1.33,1.01,0.87*07
$GPRMC,113823.000,A,2509.4356,N,05513.8503,E,0.02,91.50,210715,,,D*58
$GPGGA,113824.000,2509.4356,N,05513.8503,E,2,7,1.13,-5.1,M,-26.7,M,0000,0000*57
$GPGSA,A,3,31,12,25,02,20,29,21,,,,,,1.42,1.13,0.87*07
$GPRMC,113824.000,A,2509.4356,N,05513.8503,E,0.01,91.50,210715,,,D*5C
$GPGGA,113825.000,2509.4356,N,05513.8503,E,2,7,1.13,-5.0,M,-26.7,M,0000,0000*57
$GPGSA,A,3,31,12,25,02,20,29,21,,,,,,1.42,1.13,0.87*07
$GPRMC,113825.000,A,2509.4356,N,05513.8503,E,0.01,91.50,210715,,,D*5D
$GPGGA,113826.000,2509.4356,N,05513.8503,E,2,7,1.13,-5.0,M,-26.7,M,0000,0000*54
$GPGSA,A,3,31,12,25,02,20,29,21,,,,,,1.42,1.13,0.87*07
$GPRMC,113826.000,A,2509.4356,N,05513.8503,E,0.01,91.50,210715,,,D*5E
1437478704-GSM_CMD : DAABFE7481229CDB668EA6D5ECEBFBE7DB759BA152122696B2E407735
8119C9F36B306D262D605933D7D26F7BB87A150
1437478704-GSM_CMD : 6EE374611BF17D6A601AB84CF02DCB2B
1437478704-GSM_CMD : 8FBC5E681E6612795151A2185DFB312E8A75452E8399F50BC1A047A0A
9778613

1437478704-GSM_CMD : 89AEF8759BEC683D378C919BD0F63020
1437478704-GSM_CMD : 82626DAA07F7E8CC3D8841A5C229E5345E59DF42BC8833040F0F3FAA1
095290D
1437478704-GSM_CMD : 4FC9642A6C9F2589BEE9F4C5D515558F9C371193F4DEFB2527833ED65
CAC591242C00188CC77A1047B107B5786BEE355747F604E47808CEB0733012F10E166A8931B12978
4CF3E2C56580D28C1BFC0F7
1437478705-GSM_CMD : D3028ACA6FA35E58A74A6D172B44A54481990FBA1E42826BD24A2D68C
3CFD7875F3F4C1816F1FE99A213FB0C9DD39377E545ACE4AAEB634E8AAE9BAC60C2F6EF08A6662EE
32D721199AF5A6EECDFF11AF0D49D9BCF8C3DEBD8643A8ACD41F652
1437478705-GSM_CMD : ACFFACECFED22AD218F705B02636F8F5BFD1845285D61003133515887
FEFAE43B25021AC57E7392A65BD0AFB9AC63FC67400DD634D70C62274DD2D0E2C9ADD2D
1437478705-GSM_CMD : 0A2241D8C540D921172F7EF41B5395CA6BE233373A5B3967938042689
E24634AB271E05EF76C5FCED5CD57CCE0BC68A37400DD634D70C62274DD2D0E2C9ADD2D
1437478705-GSM_CMD : 76FFDD92002BF9E2C19BDE811EC200429454AE04F6F793F87C9DDC076
65AD6D419D94C0A2D866BEDAC7301378B11EEB451D61EE00C50CEE48E8AF6D465C2A7D2
1437478705-GSM_CMD : 85CD5CC4CF99163925B27CDF2195C5A4BFD1845285D61003133515887
FEFAE4366A51072FEA9C760CEEF6E8C516DE07EBE8B7A59CFBEF40DB68A8371F2FAFB56
1437478705-GSM_CMD : 9918428F29B8ABAFED62B6581F14FD7B9AA0C2A3B351CE550CC72E4FF
9BC39CD0256146B4E5F7A58E7A862E9B1053903676257618763E79866D1AA24DF0AA311
1437478705-GSM_CMD : 39A1B70AE671CC4CC03C06B6A90712B8BFD1845285D61003133515887
FEFAE43649278CEF3BCEDB02565B1689B7AE8860A25D7998BB010B75358F79132E34BD0
1437478705-GSM_CMD : 55D9AEC36FB9FB31A1F1526C85B589BB
$GPGGA,113827.000,2509.4356,N,05513.8503,E,2,7,1.13,-5.0,M,-26.7,M,0000,0000*55
$GPGSA,A,3,31,12,25,02,20,29,21,,,,,,1.42,1.13,0.87*07
$GPGSV,3,1,10,12,77,123,18,25,60,323,40,05,51,099,25,39,45,233,37*7C
$GPGSV,3,2,10,02,37,036,09,20,37,177,27,29,34,314,48,21,20,241,45*70
$GPGSV,3,3,10,24,19,196,15,31,06,316,30*7F
$GPRMC,113827.000,A,2509.4356,N,05513.8503,E,0.01,91.50,210715,,,D*5F
$GPGGA,113828.000,2509.4356,N,05513.8503,E,2,7,1.13,-5.0,M,-26.7,M,0000,0000*5A
$GPGSA,A,3,31,12,25,02,20,29,21,,,,,,1.42,1.13,0.87*07
$GPRMC,113828.000,A,2509.4356,N,05513.8503,E,0.01,91.50,210715,,,D*50
$GPGGA,113829.000,2509.4356,N,05513.8503,E,2,7,1.13,-5.0,M,-26.7,M,0000,0000*5B
$GPGSA,A,3,31,12,25,02,20,29,21,,,,,,1.42,1.13,0.87*07
$GPRMC,113829.000,A,2509.4356,N,05513.8503,E,0.00,91.50,210715,,,D*50
$GPGGA,113830.000,2509.4356,N,05513.8503,E,2,7,1.13,-5.0,M,-26.7,M,0000,0000*53
$GPGSA,A,3,31,12,25,02,20,29,21,,,,,,1.42,1.13,0.87*07
$GPRMC,113830.000,A,2509.4356,N,05513.8503,E,0.02,91.50,210715,,,D*5A
$GPGGA,113831.000,2509.4356,N,05513.8503,E,2,7,1.13,-5.0,M,-26.7,M,0000,0000*52
$GPGSA,A,3,31,12,25,02,20,29,21,,,,,,1.42,1.13,0.87*07
$GPRMC,113831.000,A,2509.4356,N,05513.8503,E,0.02,91.50,210715,,,D*5B
$GPGGA,113832.000,2509.4356,N,05513.8503,E,2,7,1.13,-5.0,M,-26.7,M,0000,0000*51
$GPGSA,A,3,31,12,25,02,20,29,21,,,,,,1.42,1.13,0.87*07
$GPGSV,3,1,10,12,77,123,18,25,60,323,40,05,51,099,22,39,45,233,37*7B
$GPGSV,3,2,10,02,37,036,14,20,37,177,25,29,34,314,48,21,20,241,45*7E
1437478711-TRAC
: Add TRAC_GPRS = 1
@P,A148,103,0,359551037902474,1437478711,1437478711,1437478711,55230848,25157259
,0,2,707,11,0,0,0,0,,-196,2000,
$GPGSV,3,3,10,24,19,196,18,31,06,315,31*70
$GPRMC,113832.000,A,2509.4356,N,05513.8503,E,0.02,91.50,210715,,,D*58
$GPGGA,113833.000,2509.4356,N,05513.8503,E,2,7,1.13,-5.0,M,-26.7,M,0000,0000*50
1437478711-GSM_CMD : 2D887E11A09BCE0DBD48B471B4CD4607
$GPGSA,A,3,31,12,25,02,20,29,21,,,,,,1.42,1.13,0.87*07
$GPRMC,113833.000,A,2509.4356,N,05513.8503,E,0.01,91.50,210715,,,D*5A
1437478711-GSM_DATA : Send GPRS Data => 4050528800330B1C000147027FE48E8A55AE2F3
755AE2F3755AE2F37034AC180017FDE8B000002000002C3000B00000000000000FF3C07D000
1437478711-GSM_CMD : 55D9AEC36FB9FB31A1F1526C85B589BB
$GPGGA,113834.000,2509.4356,N,05513.8503,E,2,7,1.13,-5.0,M,-26.7,M,0000,0000*57
$GPGSA,A,3,31,12,25,02,20,29,21,,,,,,1.42,1.13,0.87*07
1437478712-GSM_CMD : 4BF2B0ED6A317BBF34FDFB8875080138
$GPRMC,113834.000,A,2509.4356,N,05513.8503,E,0.03,91.50,210715,,,D*5F

1437478713-GSM_CMD : 2081E4CDDC0EF27579842436C458D089
1437478713-GSM_CMD : F71EF9C7DDB536A9DE13A1994276C72D
1437478713-GSM_CMD : 1F57346402FE53B1D7D8DD2F6EEB91AE42B8816AECE1BAB378B799E71
D0E48D5
1437478713-GSM_DATA : Receive GPRS Data => 0x[FE02000147027FE48E8A0B1C]
1437478713-OUTGOING : [REPORT_QUEUEID] => receive SeqID=>2844
1437478713-GSM_CMD : 55D9AEC36FB9FB31A1F1526C85B589BB
$GPGGA,113835.000,2509.4356,N,05513.8503,E,2,7,1.13,-5.0,M,-26.7,M,0000,0000*56
$GPGSA,A,3,31,12,25,02,20,29,21,,,,,,1.42,1.13,0.87*07
$GPRMC,113835.000,A,2509.4356,N,05513.8503,E,0.02,91.50,210715,,,D*5F
$GPGGA,113836.000,2509.4356,N,05513.8503,E,2,7,1.13,-5.0,M,-26.7,M,0000,0000*55
$GPGSA,A,3,31,12,25,02,20,29,21,,,,,,1.42,1.13,0.87*07
$GPRMC,113836.000,A,2509.4356,N,05513.8503,E,0.01,91.50,210715,,,D*5F
$GPGGA,113837.000,2509.4356,N,05513.8503,E,2,7,1.13,-5.0,M,-26.7,M,0000,0000*54
$GPGSA,A,3,31,12,25,02,20,29,21,,,,,,1.42,1.13,0.87*07
$GPGSV,3,1,10,12,77,123,18,25,60,323,40,05,51,099,24,39,45,233,37*7D
$GPGSV,3,2,10,02,37,036,17,20,37,177,24,29,34,314,48,21,20,241,45*7C
$GPGSV,3,3,10,24,19,196,18,31,06,315,29*79
$GPRMC,113837.000,A,2509.4356,N,05513.8503,E,0.02,91.50,210715,,,D*5D
$GPGGA,113838.000,2509.4356,N,05513.8503,E,2,6,1.36,-5.0,M,-26.7,M,0000,0000*5D
$GPGSA,A,3,31,12,25,02,29,21,,,,,,,1.63,1.36,0.89*0F
$GPRMC,113838.000,A,2509.4356,N,05513.8503,E,0.01,91.50,210715,,,D*51
$GPGGA,113839.000,2509.4356,N,05513.8503,E,2,6,1.36,-5.0,M,-26.7,M,0000,0000*5C
$GPGSA,A,3,31,12,25,02,29,21,,,,,,,1.63,1.36,0.89*0F
$GPRMC,113839.000,A,2509.4356,N,05513.8503,E,0.01,91.50,210715,,,D*50
$GPGGA,113840.000,2509.4356,N,05513.8503,E,2,7,1.13,-5.0,M,-26.7,M,0000,0000*54
$GPGSA,A,3,31,12,25,02,20,29,21,,,,,,1.42,1.13,0.87*07
$GPRMC,113840.000,A,2509.4356,N,05513.8503,E,0.03,91.50,210715,,,D*5C
$GPGGA,113841.000,2509.4356,N,05513.8503,E,2,6,1.36,-5.0,M,-26.7,M,0000,0000*53
$GPGSA,A,3,31,12,25,02,29,21,,,,,,,1.63,1.36,0.89*0F
$GPRMC,113841.000,A,2509.4356,N,05513.8503,E,0.00,91.50,210715,,,D*5E
$GPGGA,113842.000,2509.4356,N,05513.8503,E,2,6,1.36,-5.0,M,-26.7,M,0000,0000*50
$GPGSA,A,3,31,12,25,02,29,21,,,,,,,1.63,1.36,0.89*0F
$GPGSV,3,1,10,12,77,123,13,25,60,323,40,05,51,099,19,39,45,233,37*78
$GPGSV,3,2,10,02,37,036,20,20,37,177,21,29,34,314,48,21,20,241,45*7D
$GPGSV,3,3,10,24,19,196,15,31,06,315,30*7C
$GPRMC,113842.000,A,2509.4356,N,05513.8503,E,0.02,91.50,210715,,,D*5F
$GPGGA,113843.000,2509.4355,N,05513.8503,E,2,6,1.36,-5.0,M,-26.7,M,0000,0000*52
$GPGSA,A,3,31,12,25,02,29,21,,,,,,,1.63,1.36,0.89*0F
$GPRMC,113843.000,A,2509.4355,N,05513.8503,E,0.01,91.50,210715,,,D*5E
$GPGGA,113844.000,2509.4355,N,05513.8503,E,2,6,1.36,-4.9,M,-26.7,M,0000,0000*5D
$GPGSA,A,3,31,12,25,02,29,21,,,,,,,1.63,1.36,0.89*0F
$GPRMC,113844.000,A,2509.4355,N,05513.8503,E,0.01,91.50,210715,,,D*59
$GPGGA,113845.000,2509.4355,N,05513.8503,E,2,6,1.36,-4.9,M,-26.7,M,0000,0000*5C
$GPGSA,A,3,31,12,25,02,29,21,,,,,,,1.63,1.36,0.89*0F
$GPRMC,113845.000,A,2509.4355,N,05513.8503,E,0.01,91.50,210715,,,D*58
$GPGGA,113846.000,2509.4355,N,05513.8503,E,2,7,1.13,-4.9,M,-26.7,M,0000,0000*59
$GPGSA,A,3,31,12,25,02,20,29,21,,,,,,1.42,1.13,0.87*07
$GPRMC,113846.000,A,2509.4355,N,05513.8503,E,0.03,91.50,210715,,,D*59
$GPGGA,113847.000,2509.4355,N,05513.8503,E,2,7,1.13,-4.9,M,-26.7,M,0000,0000*58
$GPGSA,A,3,31,12,25,02,20,29,21,,,,,,1.42,1.13,0.87*07
$GPGSV,3,1,10,12,77,124,18,25,60,323,40,05,51,099,20,39,45,233,37*7E
$GPGSV,3,2,10,02,37,036,19,20,37,177,21,29,34,314,48,21,20,241,46*74
$GPGSV,3,3,10,24,19,196,18,31,06,315,29*79
$GPRMC,113847.000,A,2509.4355,N,05513.8503,E,0.03,91.50,210715,,,D*58
$GPGGA,113848.000,2509.4355,N,05513.8503,E,2,6,1.36,-4.9,M,-26.7,M,0000,0000*51
$GPGSA,A,3,31,12,25,02,29,21,,,,,,,1.63,1.36,0.89*0F
$GPRMC,113848.000,A,2509.4355,N,05513.8503,E,0.02,91.50,210715,,,D*56
$GPGGA,113849.000,2509.4355,N,05513.8502,E,2,7,1.13,-4.9,M,-26.7,M,0000,0000*57
$GPGSA,A,3,31,12,25,02,20,29,21,,,,,,1.42,1.13,0.87*07

$GPRMC,113849.000,A,2509.4355,N,05513.8502,E,0.02,91.50,210715,,,D*56
$GPGGA,113850.000,2509.4355,N,05513.8502,E,2,7,1.13,-4.9,M,-26.7,M,0000,0000*5F
$GPGSA,A,3,31,12,25,02,20,29,21,,,,,,1.42,1.13,0.87*07
$GPRMC,113850.000,A,2509.4355,N,05513.8502,E,0.03,91.50,210715,,,D*5F
$GPGGA,113851.000,2509.4356,N,05513.8502,E,2,7,1.13,-4.9,M,-26.7,M,0000,0000*5D
$GPGSA,A,3,31,12,25,02,20,29,21,,,,,,1.42,1.13,0.87*07
$GPRMC,113851.000,A,2509.4356,N,05513.8502,E,0.03,91.50,210715,,,D*5D
$GPGGA,113852.000,2509.4356,N,05513.8502,E,2,7,1.13,-4.9,M,-26.7,M,0000,0000*5E
$GPGSA,A,3,31,12,25,02,20,29,21,,,,,,1.42,1.13,0.87*07
$GPGSV,3,1,10,12,77,124,21,25,60,323,40,05,51,099,21,39,45,233,37*75
$GPGSV,3,2,10,20,38,177,23,02,37,036,18,29,34,314,48,21,20,241,46*78
$GPGSV,3,3,10,24,19,196,17,31,06,315,26*79
$GPRMC,113852.000,A,2509.4356,N,05513.8502,E,0.01,91.50,210715,,,D*5C
$GPGGA,113853.000,2509.4356,N,05513.8502,E,2,7,1.13,-4.9,M,-26.7,M,0000,0000*5F
$GPGSA,A,3,31,12,25,02,20,29,21,,,,,,1.42,1.13,0.87*07
$GPRMC,113853.000,A,2509.4356,N,05513.8502,E,0.00,91.50,210715,,,D*5C
$GPGGA,113854.000,2509.4356,N,05513.8502,E,2,7,1.13,-4.9,M,-26.7,M,0000,0000*58
$GPGSA,A,3,31,12,25,02,20,29,21,,,,,,1.42,1.13,0.87*07
$GPRMC,113854.000,A,2509.4356,N,05513.8502,E,0.02,91.50,210715,,,D*59
$GPGGA,113855.000,2509.4356,N,05513.8502,E,2,7,1.13,-4.9,M,-26.7,M,0000,0000*59
$GPGSA,A,3,31,12,25,02,20,29,21,,,,,,1.42,1.13,0.87*07
$GPRMC,113855.000,A,2509.4356,N,05513.8502,E,0.01,91.50,210715,,,D*5B
$GPGGA,113856.000,2509.4356,N,05513.8502,E,2,7,1.13,-4.9,M,-26.7,M,0000,0000*5A
$GPGSA,A,3,31,12,25,02,20,29,21,,,,,,1.42,1.13,0.87*07
$GPRMC,113856.000,A,2509.4356,N,05513.8502,E,0.02,91.50,210715,,,D*5B
1437478735-GSM_CMD : DAABFE7481229CDB668EA6D5ECEBFBE7DB759BA152122696B2E407735
8119C9F36B306D262D605933D7D26F7BB87A150
1437478735-GSM_CMD : 9B509D41BAB92007AE84EFE43CA343E3
1437478735-GSM_CMD : 8FBC5E681E6612795151A2185DFB312E8A75452E8399F50BC1A047A0A
9778613
1437478735-GSM_CMD : 89AEF8759BEC683D378C919BD0F63020
1437478735-GSM_CMD : 82626DAA07F7E8CC3D8841A5C229E5345E59DF42BC8833040F0F3FAA1
095290D
1437478735-GSM_CMD : 4FC9642A6C9F2589BEE9F4C5D515558F9C371193F4DEFB2527833ED65
CAC591242C00188CC77A1047B107B5786BEE355747F604E47808CEB0733012F10E166A8931B12978
4CF3E2C56580D28C1BFC0F7
1437478735-GSM_CMD : D3028ACA6FA35E58A74A6D172B44A54481990FBA1E42826BD24A2D68C
3CFD787FA37D2604AAAF179A04092CCAA65A322F5BD486AA32302B5192B362BB137D03108A6662EE
32D721199AF5A6EECDFF11AF0D49D9BCF8C3DEBD8643A8ACD41F652
1437478735-GSM_CMD : ACFFACECFED22AD218F705B02636F8F5BFD1845285D61003133515887
FEFAE43B25021AC57E7392A65BD0AFB9AC63FC67400DD634D70C62274DD2D0E2C9ADD2D
1437478735-GSM_CMD : 0A2241D8C540D921172F7EF41B5395CA6BE233373A5B3967938042689
E24634AB271E05EF76C5FCED5CD57CCE0BC68A37400DD634D70C62274DD2D0E2C9ADD2D
1437478735-GSM_CMD : 76FFDD92002BF9E2C19BDE811EC200429454AE04F6F793F87C9DDC076
65AD6D4D65B14239BB67AC738ABF4C1B111C8CF5631D688643BF3FD558F0042F110D414
1437478735-GSM_CMD : 85CD5CC4CF99163925B27CDF2195C5A4BFD1845285D61003133515887
FEFAE43D69662EEB9FEAA97BD15E7234A641FDA51D61EE00C50CEE48E8AF6D465C2A7D2
1437478735-GSM_CMD : 9918428F29B8ABAFED62B6581F14FD7B9AA0C2A3B351CE550CC72E4FF
9BC39CD025145AB670F1DD7399037FEDC93E410F789FAFE88B3A597691717CB896166EF
1437478735-GSM_CMD : 39A1B70AE671CC4CC03C06B6A90712B8BFD1845285D61003133515887
FEFAE430F453258EF8EC3ACB33B8F7C59491E54676257618763E79866D1AA24DF0AA311
1437478735-GSM_CMD : 55D9AEC36FB9FB31A1F1526C85B589BB
$GPGGA,113857.000,2509.4356,N,05513.8502,E,2,7,1.13,-4.9,M,-26.7,M,0000,0000*5B
$GPGSA,A,3,31,12,25,02,20,29,21,,,,,,1.42,1.13,0.87*07
$GPGSV,3,1,10,12,77,124,25,25,60,323,40,05,51,099,22,39,45,233,37*72
$GPGSV,3,2,10,20,38,177,25,02,37,036,20,29,34,314,48,21,20,241,46*75
$GPGSV,3,3,10,24,18,196,20,31,06,315,25*7F
$GPRMC,113857.000,A,2509.4356,N,05513.8502,E,0.04,91.50,210715,,,D*5C
$GPGGA,113858.000,2509.4356,N,05513.8502,E,2,7,1.13,-4.9,M,-26.7,M,0000,0000*54
$GPGSA,A,3,31,12,25,02,20,29,21,,,,,,1.42,1.13,0.87*07

$GPRMC,113858.000,A,2509.4356,N,05513.8502,E,0.02,91.50,210715,,,D*55
$GPGGA,113859.000,2509.4356,N,05513.8502,E,2,7,1.13,-4.9,M,-26.7,M,0000,0000*55
$GPGSA,A,3,31,12,25,02,20,29,21,,,,,,1.42,1.13,0.87*07
$GPRMC,113859.000,A,2509.4356,N,05513.8502,E,0.03,91.50,210715,,,D*55
$GPGGA,113900.000,2509.4356,N,05513.8499,E,2,7,1.13,-4.7,M,-26.7,M,0000,0000*55
$GPGSA,A,3,31,12,25,02,20,29,21,,,,,,1.42,1.13,0.87*07
$GPRMC,113900.000,A,2509.4356,N,05513.8499,E,0.03,91.50,210715,,,D*5B
$GPGGA,113901.000,2509.4356,N,05513.8496,E,2,7,1.13,-4.5,M,-26.7,M,0000,0000*59
$GPGSA,A,3,31,12,25,02,20,29,21,,,,,,1.42,1.13,0.87*07
$GPRMC,113901.000,A,2509.4356,N,05513.8496,E,0.03,91.50,210715,,,D*55
$GPGGA,113902.000,2509.4357,N,05513.8493,E,2,7,1.13,-4.4,M,-26.7,M,0000,0000*5F
$GPGSA,A,3,31,12,25,02,20,29,21,,,,,,1.42,1.13,0.87*07
$GPGSV,3,1,10,12,77,124,26,25,60,323,40,05,51,099,18,39,45,233,37*78
$GPGSV,3,2,10,20,38,177,26,02,37,036,20,29,35,314,48,21,20,241,46*77
1437478741-TRAC
: Add TRAC_GPRS = 1
@P,2ED4,103,0,359551037902474,1437478741,1437478741,1437478741,55230836,25157258
,0,2,707,11,0,0,0,0,,-196,2000,
$GPGSV,3,3,10,24,18,196,20,31,06,315,24*7E
$GPRMC,113902.000,A,2509.4357,N,05513.8493,E,0.03,91.50,210715,,,D*52
$GPGGA,113903.000,2509.4358,N,05513.8488,E,2,7,1.13,-4.2,M,-26.7,M,0000,0000*5D
1437478741-GSM_CMD : 2D887E11A09BCE0DBD48B471B4CD4607
$GPGSA,A,3,31,12,25,02,20,29,21,,,,,,1.42,1.13,0.87*07
$GPRMC,113903.000,A,2509.4358,N,05513.8488,E,0.03,91.50,210715,,,D*56
1437478741-GSM_DATA : Send GPRS Data => 4050A16900330B1D000147027FE48E8A55AE2F5
555AE2F5555AE2F55034AC174017FDE8A000002000002C3000B00000000000000FF3C07D000
1437478741-GSM_CMD : 55D9AEC36FB9FB31A1F1526C85B589BB
$GPGGA,113904.000,2509.4359,N,05513.8484,E,2,7,1.13,-4.0,M,-26.7,M,0000,0000*55
$GPGSA,A,3,31,12,25,02,20,29,21,,,,,,1.42,1.13,0.87*07
1437478742-GSM_CMD : 4BF2B0ED6A317BBF34FDFB8875080138
$GPRMC,113904.000,A,2509.4359,N,05513.8484,E,0.03,91.50,210715,,,D*5C
1437478743-GSM_CMD : 2081E4CDDC0EF27579842436C458D089
1437478743-GSM_CMD : F71EF9C7DDB536A9DE13A1994276C72D
1437478743-GSM_CMD : 1F57346402FE53B1D7D8DD2F6EEB91AE41552CC88D27C014C98B0E131
F0C1697
1437478743-GSM_DATA : Receive GPRS Data => 0x[FE02000147027FE48E8A0B1D]
1437478743-OUTGOING : [REPORT_QUEUEID] => receive SeqID=>2845
1437478743-GSM_CMD : 55D9AEC36FB9FB31A1F1526C85B589BB
$GPGGA,113905.000,2509.4359,N,05513.8484,E,2,7,1.13,-4.0,M,-26.7,M,0000,0000*54
$GPGSA,A,3,31,12,25,02,20,29,21,,,,,,1.42,1.13,0.87*07
$GPRMC,113905.000,A,2509.4359,N,05513.8484,E,0.02,91.50,210715,,,D*5C
$GPGGA,113906.000,2509.4359,N,05513.8484,E,2,7,1.13,-4.0,M,-26.7,M,0000,0000*57
$GPGSA,A,3,31,12,25,02,20,29,21,,,,,,1.42,1.13,0.87*07
$GPRMC,113906.000,A,2509.4359,N,05513.8484,E,0.04,91.50,210715,,,D*59
$GPGGA,113907.000,2509.4359,N,05513.8484,E,2,7,1.13,-4.0,M,-26.7,M,0000,0000*56
$GPGSA,A,3,31,12,25,02,20,29,21,,,,,,1.42,1.13,0.87*07
$GPGSV,3,1,10,12,77,124,27,25,60,323,39,05,51,099,23,39,45,233,37*7F
$GPGSV,3,2,10,20,38,177,27,02,37,036,18,29,35,314,48,21,20,241,46*7D
$GPGSV,3,3,10,24,18,196,22,31,06,315,28*70
$GPRMC,113907.000,A,2509.4359,N,05513.8484,E,0.04,91.50,210715,,,D*58
$GPGGA,113908.000,2509.4359,N,05513.8484,E,2,7,1.13,-3.9,M,-26.7,M,0000,0000*57
$GPGSA,A,3,31,12,25,02,20,29,21,,,,,,1.42,1.13,0.87*07
$GPRMC,113908.000,A,2509.4359,N,05513.8484,E,0.02,91.50,210715,,,D*51
$GPGGA,113909.000,2509.4359,N,05513.8484,E,2,7,1.13,-3.9,M,-26.7,M,0000,0000*56
$GPGSA,A,3,31,12,25,02,20,29,21,,,,,,1.42,1.13,0.87*07
$GPRMC,113909.000,A,2509.4359,N,05513.8484,E,0.03,91.50,210715,,,D*51
$GPGGA,113910.000,2509.4359,N,05513.8484,E,2,7,1.13,-3.9,M,-26.7,M,0000,0000*5E
$GPGSA,A,3,31,12,25,02,20,29,21,,,,,,1.42,1.13,0.87*07
$GPRMC,113910.000,A,2509.4359,N,05513.8484,E,0.03,91.50,210715,,,D*59
$GPGGA,113911.000,2509.4359,N,05513.8484,E,2,7,1.13,-3.9,M,-26.7,M,0000,0000*5F
$GPGSA,A,3,31,12,25,02,20,29,21,,,,,,1.42,1.13,0.87*07

$GPRMC,113911.000,A,2509.4359,N,05513.8484,E,0.01,91.50,210715,,,D*5A
$GPGGA,113912.000,2509.4359,N,05513.8484,E,2,7,1.13,-3.9,M,-26.7,M,0000,0000*5C
$GPGSA,A,3,31,12,25,02,20,29,21,,,,,,1.42,1.13,0.87*07
$GPGSV,3,1,10,12,77,124,26,25,60,323,39,05,51,098,,39,45,233,37*7E
$GPGSV,3,2,10,20,38,177,28,02,36,036,18,29,35,314,48,21,20,241,46*73
$GPGSV,3,3,10,24,18,196,21,31,06,315,29*72
$GPRMC,113912.000,A,2509.4359,N,05513.8484,E,0.03,91.50,210715,,,D*5B
$GPGGA,113913.000,2509.4359,N,05513.8484,E,2,7,1.13,-3.9,M,-26.7,M,0000,0000*5D
$GPGSA,A,3,31,12,25,02,20,29,21,,,,,,1.42,1.13,0.87*07
$GPRMC,113913.000,A,2509.4359,N,05513.8484,E,0.03,91.50,210715,,,D*5A
$GPGGA,113914.000,2509.4359,N,05513.8484,E,2,7,1.13,-3.9,M,-26.7,M,0000,0000*5A
$GPGSA,A,3,31,12,25,02,20,29,21,,,,,,1.42,1.13,0.87*07
$GPRMC,113914.000,A,2509.4359,N,05513.8484,E,0.02,91.50,210715,,,D*5C
$GPGGA,113915.000,2509.4359,N,05513.8483,E,2,7,1.13,-3.8,M,-26.7,M,0000,0000*5D
$GPGSA,A,3,31,12,25,02,20,29,21,,,,,,1.42,1.13,0.87*07
$GPRMC,113915.000,A,2509.4359,N,05513.8483,E,0.02,91.50,210715,,,D*5A
$GPGGA,113916.000,2509.4359,N,05513.8481,E,2,7,1.13,-3.8,M,-26.7,M,0000,0000*5C
$GPGSA,A,3,31,12,25,02,20,29,21,,,,,,1.42,1.13,0.87*07
$GPRMC,113916.000,A,2509.4359,N,05513.8481,E,0.02,91.50,210715,,,D*5B
$GPGGA,113917.000,2509.4360,N,05513.8480,E,2,7,1.13,-3.7,M,-26.7,M,0000,0000*59
$GPGSA,A,3,31,12,25,02,20,29,21,,,,,,1.42,1.13,0.87*07
$GPGSV,3,1,10,12,77,124,26,25,60,323,39,05,51,098,,39,45,233,37*7E
$GPGSV,3,2,10,20,38,177,28,02,36,036,18,29,35,314,48,21,20,241,46*73
$GPGSV,3,3,10,24,18,196,20,31,06,315,29*73
$GPRMC,113917.000,A,2509.4360,N,05513.8480,E,0.02,91.50,210715,,,D*51
$GPGGA,113918.000,2509.4360,N,05513.8478,E,2,7,1.13,-3.6,M,-26.7,M,0000,0000*50
$GPGSA,A,3,31,12,25,02,20,29,21,,,,,,1.42,1.13,0.87*07
$GPRMC,113918.000,A,2509.4360,N,05513.8478,E,0.01,91.50,210715,,,D*5A
$GPGGA,113919.000,2509.4360,N,05513.8478,E,2,7,1.13,-3.6,M,-26.7,M,0000,0000*51
$GPGSA,A,3,31,12,25,02,20,29,21,,,,,,1.42,1.13,0.87*07
$GPRMC,113919.000,A,2509.4360,N,05513.8478,E,0.03,91.50,210715,,,D*59
$GPGGA,113920.000,2509.4360,N,05513.8478,E,2,7,1.12,-3.6,M,-26.7,M,0000,0000*5A
$GPGSA,A,3,31,12,25,02,20,29,21,,,,,,1.42,1.12,0.87*06
$GPRMC,113920.000,A,2509.4360,N,05513.8478,E,0.02,91.50,210715,,,D*52
$GPGGA,113921.000,2509.4360,N,05513.8478,E,2,7,1.12,-3.6,M,-26.7,M,0000,0000*5B
$GPGSA,A,3,31,12,25,02,20,29,21,,,,,,1.42,1.12,0.87*06
$GPRMC,113921.000,A,2509.4360,N,05513.8478,E,0.03,91.50,210715,,,D*52
$GPGGA,113922.000,2509.4360,N,05513.8478,E,2,7,1.12,-3.6,M,-26.7,M,0000,0000*58
$GPGSA,A,3,31,12,25,02,20,29,21,,,,,,1.42,1.12,0.87*06
$GPGSV,3,1,10,12,77,125,25,25,60,323,38,05,51,098,,39,45,233,37*7D
$GPGSV,3,2,10,20,38,177,28,02,36,036,19,29,35,314,48,21,20,241,46*72
$GPGSV,3,3,10,24,18,196,18,31,06,315,29*78
$GPRMC,113922.000,A,2509.4360,N,05513.8478,E,0.02,91.50,210715,,,D*50
$GPGGA,113923.000,2509.4360,N,05513.8478,E,2,7,1.13,-3.6,M,-26.7,M,0000,0000*58
$GPGSA,A,3,31,12,25,02,20,29,21,,,,,,1.42,1.13,0.87*07
$GPRMC,113923.000,A,2509.4360,N,05513.8478,E,0.01,91.50,210715,,,D*52
$GPGGA,113924.000,2509.4360,N,05513.8478,E,2,7,1.12,-3.6,M,-26.7,M,0000,0000*5E
$GPGSA,A,3,31,12,25,02,20,29,21,,,,,,1.42,1.12,0.87*06
$GPRMC,113924.000,A,2509.4360,N,05513.8478,E,0.02,91.50,210715,,,D*56
$GPGGA,113925.000,2509.4360,N,05513.8478,E,2,7,1.12,-3.6,M,-26.7,M,0000,0000*5F
$GPGSA,A,3,31,12,25,02,20,29,21,,,,,,1.42,1.12,0.87*06
$GPRMC,113925.000,A,2509.4360,N,05513.8478,E,0.02,91.50,210715,,,D*57
$GPGGA,113926.000,2509.4360,N,05513.8478,E,2,7,1.12,-3.6,M,-26.7,M,0000,0000*5C
$GPGSA,A,3,31,12,25,02,20,29,21,,,,,,1.42,1.12,0.87*06
$GPRMC,113926.000,A,2509.4360,N,05513.8478,E,0.01,91.50,210715,,,D*57
1437478765-GSM_CMD : DAABFE7481229CDB668EA6D5ECEBFBE7DB759BA152122696B2E407735
8119C9F36B306D262D605933D7D26F7BB87A150
1437478765-GSM_CMD : 6EE374611BF17D6A601AB84CF02DCB2B
1437478765-GSM_CMD : 8FBC5E681E6612795151A2185DFB312E8A75452E8399F50BC1A047A0A
9778613

1437478765-GSM_CMD : 89AEF8759BEC683D378C919BD0F63020
1437478765-GSM_CMD : 82626DAA07F7E8CC3D8841A5C229E5345E59DF42BC8833040F0F3FAA1
095290D
1437478765-GSM_CMD : 4FC9642A6C9F2589BEE9F4C5D515558F9C371193F4DEFB2527833ED65
CAC591242C00188CC77A1047B107B5786BEE355747F604E47808CEB0733012F10E166A8931B12978
4CF3E2C56580D28C1BFC0F7
1437478765-GSM_CMD : D3028ACA6FA35E58A74A6D172B44A54481990FBA1E42826BD24A2D68C
3CFD7875F3F4C1816F1FE99A213FB0C9DD39377E545ACE4AAEB634E8AAE9BAC60C2F6EF08A6662EE
32D721199AF5A6EECDFF11AF0D49D9BCF8C3DEBD8643A8ACD41F652
1437478765-GSM_CMD : ACFFACECFED22AD218F705B02636F8F5BFD1845285D61003133515887
FEFAE43B25021AC57E7392A65BD0AFB9AC63FC67400DD634D70C62274DD2D0E2C9ADD2D
1437478765-GSM_CMD : 0A2241D8C540D921172F7EF41B5395CA6BE233373A5B3967938042689
E24634ADAC71B81488F1E6287E7EC409519DFAA68D1318B4652B89083B1D6ABF5904D87
1437478765-GSM_CMD : 76FFDD92002BF9E2C19BDE811EC200429454AE04F6F793F87C9DDC076
65AD6D4D65B14239BB67AC738ABF4C1B111C8CF5631D688643BF3FD558F0042F110D414
1437478765-GSM_CMD : 85CD5CC4CF99163925B27CDF2195C5A4BFD1845285D61003133515887
FEFAE43D69662EEB9FEAA97BD15E7234A641FDA51D61EE00C50CEE48E8AF6D465C2A7D2
1437478765-GSM_CMD : 9918428F29B8ABAFED62B6581F14FD7B9AA0C2A3B351CE550CC72E4FF
9BC39CDFF51E8D2F024F74D6C415D74495CD98151D61EE00C50CEE48E8AF6D465C2A7D2
1437478765-GSM_CMD : 39A1B70AE671CC4CC03C06B6A90712B8BFD1845285D61003133515887
FEFAE430F453258EF8EC3ACB33B8F7C59491E54676257618763E79866D1AA24DF0AA311
1437478765-GSM_CMD : 55D9AEC36FB9FB31A1F1526C85B589BB
$GPGGA,113927.000,2509.4360,N,05513.8478,E,2,7,1.12,-3.6,M,-26.7,M,0000,0000*5D
$GPGSA,A,3,31,12,25,02,20,29,21,,,,,,1.42,1.12,0.87*06
$GPGSV,3,1,10,12,77,125,24,25,60,323,37,05,51,098,,39,45,233,37*73
$GPGSV,3,2,10,20,38,176,28,02,36,036,17,29,35,314,48,21,20,241,46*7D
$GPGSV,3,3,10,24,18,196,16,31,06,315,29*76
$GPRMC,113927.000,A,2509.4360,N,05513.8478,E,0.01,91.50,210715,,,D*56
$GPGGA,113928.000,2509.4360,N,05513.8477,E,2,7,1.13,-3.3,M,-26.7,M,0000,0000*59
$GPGSA,A,3,31,12,25,02,20,29,21,,,,,,1.42,1.13,0.87*07
$GPRMC,113928.000,A,2509.4360,N,05513.8477,E,0.01,91.50,210715,,,D*56
$GPGGA,113929.000,2509.4360,N,05513.8476,E,2,7,1.13,-3.0,M,-26.7,M,0000,0000*5A
$GPGSA,A,3,31,12,25,02,20,29,21,,,,,,1.42,1.13,0.87*07
$GPRMC,113929.000,A,2509.4360,N,05513.8476,E,0.01,91.50,210715,,,D*56
$GPGGA,113930.000,2509.4360,N,05513.8474,E,2,7,1.12,-2.8,M,-26.7,M,0000,0000*58
$GPGSA,A,3,31,12,25,02,20,29,21,,,,,,1.42,1.12,0.87*06
$GPRMC,113930.000,A,2509.4360,N,05513.8474,E,0.01,91.50,210715,,,D*5C
$GPGGA,113931.000,2509.4361,N,05513.8473,E,2,7,1.13,-2.7,M,-26.7,M,0000,0000*51
$GPGSA,A,3,31,12,25,02,20,29,21,,,,,,1.42,1.13,0.87*07
$GPRMC,113931.000,A,2509.4361,N,05513.8473,E,0.01,91.50,210715,,,D*5B
$GPGGA,113932.000,2509.4361,N,05513.8473,E,2,7,1.12,-2.6,M,-26.7,M,0000,0000*52
$GPGSA,A,3,31,12,25,02,20,29,21,,,,,,1.42,1.12,0.87*06
$GPGSV,3,1,10,12,77,125,22,25,60,323,35,05,51,098,,39,45,233,37*77
$GPGSV,3,2,10,20,38,176,28,02,36,036,11,29,35,314,48,21,21,241,46*7A
1437478771-TRAC
: Add TRAC_GPRS = 1
@P,F031,103,0,359551037902474,1437478771,1437478771,1437478771,55230795,25157266
,0,2,707,11,0,0,0,0,,-196,2000,
$GPGSV,3,3,10,24,18,196,15,31,06,315,27*7B
$GPRMC,113932.000,A,2509.4361,N,05513.8473,E,0.03,91.50,210715,,,D*5A
$GPGGA,113933.000,2509.4361,N,05513.8473,E,2,7,1.12,-2.6,M,-26.7,M,0000,0000*53
1437478771-GSM_CMD : 2D887E11A09BCE0DBD48B471B4CD4607
$GPGSA,A,3,31,12,25,02,20,29,21,,,,,,1.42,1.12,0.87*06
$GPRMC,113933.000,A,2509.4361,N,05513.8473,E,0.02,91.50,210715,,,D*5A
1437478771-GSM_DATA : Send GPRS Data => 4050C50F00330B1E000147027FE48E8A55AE2F7
355AE2F7355AE2F73034AC14B017FDE92000002000002C3000B00000000000000FF3C07D000
1437478771-GSM_CMD : 55D9AEC36FB9FB31A1F1526C85B589BB
$GPGGA,113934.000,2509.4361,N,05513.8473,E,2,7,1.12,-2.6,M,-26.7,M,0000,0000*54
$GPGSA,A,3,31,12,25,02,20,29,21,,,,,,1.42,1.12,0.87*06
1437478772-GSM_CMD : 4BF2B0ED6A317BBF34FDFB8875080138
$GPRMC,113934.000,A,2509.4361,N,05513.8473,E,0.01,91.50,210715,,,D*5E

1437478773-GSM_CMD : 2081E4CDDC0EF27579842436C458D089
1437478773-GSM_CMD : F71EF9C7DDB536A9DE13A1994276C72D
1437478773-GSM_CMD : 1F57346402FE53B1D7D8DD2F6EEB91AEB6000DFE26957EB36BC0FB902
377CBC0
1437478773-GSM_DATA : Receive GPRS Data => 0x[FE02000147027FE48E8A0B1E]
1437478773-OUTGOING : [REPORT_QUEUEID] => receive SeqID=>2846
1437478773-GSM_CMD : 55D9AEC36FB9FB31A1F1526C85B589BB
$GPGGA,113935.000,2509.4361,N,05513.8473,E,2,7,1.12,-2.6,M,-26.7,M,0000,0000*55
$GPGSA,A,3,31,12,25,02,20,29,21,,,,,,1.42,1.12,0.87*06
$GPRMC,113935.000,A,2509.4361,N,05513.8473,E,0.01,91.50,210715,,,D*5F
$GPGGA,113936.000,2509.4361,N,05513.8473,E,2,7,1.12,-2.6,M,-26.7,M,0000,0000*56
$GPGSA,A,3,31,12,25,02,20,29,21,,,,,,1.42,1.12,0.87*06
$GPRMC,113936.000,A,2509.4361,N,05513.8473,E,0.01,91.50,210715,,,D*5C
$GPGGA,113937.000,2509.4361,N,05513.8473,E,2,7,1.12,-2.6,M,-26.7,M,0000,0000*57
$GPGSA,A,3,31,12,25,02,20,29,21,,,,,,1.42,1.12,0.87*06
$GPGSV,3,1,10,12,77,125,20,25,60,323,34,05,51,098,,39,45,233,37*74
$GPGSV,3,2,10,20,38,176,28,02,36,036,17,29,35,315,48,21,21,241,46*7D
$GPGSV,3,3,10,24,18,196,16,31,06,315,25*7A
$GPRMC,113937.000,A,2509.4361,N,05513.8473,E,0.00,91.50,210715,,,D*5C
$GPGGA,113938.000,2509.4361,N,05513.8473,E,2,7,1.12,-2.6,M,-26.7,M,0000,0000*58
$GPGSA,A,3,31,12,25,02,20,29,21,,,,,,1.42,1.12,0.87*06
$GPRMC,113938.000,A,2509.4361,N,05513.8473,E,0.03,91.50,210715,,,D*50
$GPGGA,113939.000,2509.4361,N,05513.8472,E,2,7,1.13,-2.6,M,-26.7,M,0000,0000*59
$GPGSA,A,3,31,12,25,02,20,29,21,,,,,,1.42,1.13,0.87*07
$GPRMC,113939.000,A,2509.4361,N,05513.8472,E,0.03,91.50,210715,,,D*50
$GPGGA,113940.000,2509.4361,N,05513.8472,E,2,7,1.12,-2.6,M,-26.7,M,0000,0000*56
$GPGSA,A,3,31,12,25,02,20,29,21,,,,,,1.42,1.12,0.87*06
$GPRMC,113940.000,A,2509.4361,N,05513.8472,E,0.02,91.50,210715,,,D*5F
$GPGGA,113941.000,2509.4361,N,05513.8472,E,2,7,1.12,-2.6,M,-26.7,M,0000,0000*57
$GPGSA,A,3,31,12,25,02,20,29,21,,,,,,1.42,1.12,0.87*06
$GPRMC,113941.000,A,2509.4361,N,05513.8472,E,0.02,91.50,210715,,,D*5E
$GPGGA,113942.000,2509.4361,N,05513.8472,E,2,7,1.12,-2.6,M,-26.7,M,0000,0000*54
$GPGSA,A,3,31,12,25,02,20,29,21,,,,,,1.42,1.12,0.87*06
$GPGSV,3,1,10,12,77,125,16,25,60,323,32,05,51,098,,39,45,233,37*77
$GPGSV,3,2,10,20,38,176,28,02,36,036,21,29,35,315,48,21,21,241,46*78
$GPGSV,3,3,10,24,18,196,14,31,06,315,23*7E
$GPRMC,113942.000,A,2509.4361,N,05513.8472,E,0.01,91.50,210715,,,D*5E
$GPGGA,113943.000,2509.4361,N,05513.8472,E,2,7,1.12,-2.6,M,-26.7,M,0000,0000*55
$GPGSA,A,3,31,12,25,02,20,29,21,,,,,,1.42,1.12,0.87*06
$GPRMC,113943.000,A,2509.4361,N,05513.8472,E,0.02,91.50,210715,,,D*5C
$GPGGA,113944.000,2509.4361,N,05513.8472,E,2,7,1.12,-2.6,M,-26.7,M,0000,0000*52
$GPGSA,A,3,31,12,25,02,20,29,21,,,,,,1.42,1.12,0.87*06
$GPRMC,113944.000,A,2509.4361,N,05513.8472,E,0.02,91.50,210715,,,D*5B
$GPGGA,113945.000,2509.4361,N,05513.8472,E,2,7,1.12,-2.6,M,-26.7,M,0000,0000*53
$GPGSA,A,3,31,12,25,02,20,29,21,,,,,,1.42,1.12,0.87*06
$GPRMC,113945.000,A,2509.4361,N,05513.8472,E,0.01,91.50,210715,,,D*59
$GPGGA,113946.000,2509.4361,N,05513.8472,E,2,7,1.12,-2.6,M,-26.7,M,0000,0000*50
$GPGSA,A,3,31,12,25,02,20,29,21,,,,,,1.42,1.12,0.87*06
$GPRMC,113946.000,A,2509.4361,N,05513.8472,E,0.01,91.50,210715,,,D*5A
$GPGGA,113947.000,2509.4361,N,05513.8472,E,2,7,1.12,-2.6,M,-26.7,M,0000,0000*51
$GPGSA,A,3,31,12,25,02,20,29,21,,,,,,1.42,1.12,0.87*06
$GPGSV,3,1,10,12,77,125,17,25,60,323,31,05,51,098,,39,45,233,37*75
$GPGSV,3,2,10,20,38,176,24,02,36,036,23,29,35,315,48,21,21,241,46*76
$GPGSV,3,3,10,24,18,196,15,31,06,315,24*78
$GPRMC,113947.000,A,2509.4361,N,05513.8472,E,0.00,91.50,210715,,,D*5A
$GPGGA,113948.000,2509.4361,N,05513.8472,E,2,7,1.12,-2.6,M,-26.7,M,0000,0000*5E
$GPGSA,A,3,31,12,25,02,20,29,21,,,,,,1.42,1.12,0.87*06
$GPRMC,113948.000,A,2509.4361,N,05513.8472,E,0.01,91.50,210715,,,D*54
$GPGGA,113949.000,2509.4361,N,05513.8472,E,2,7,1.12,-2.6,M,-26.7,M,0000,0000*5F
$GPGSA,A,3,31,12,25,02,20,29,21,,,,,,1.42,1.12,0.87*06

$GPRMC,113949.000,A,2509.4361,N,05513.8472,E,0.01,91.50,210715,,,D*55
$GPGGA,113950.000,2509.4361,N,05513.8472,E,2,7,1.12,-2.6,M,-26.7,M,0000,0000*57
$GPGSA,A,3,31,12,25,02,20,29,21,,,,,,1.42,1.12,0.87*06
$GPRMC,113950.000,A,2509.4361,N,05513.8472,E,0.02,91.50,210715,,,D*5E
$GPGGA,113951.000,2509.4361,N,05513.8472,E,2,7,1.12,-2.6,M,-26.7,M,0000,0000*56
$GPGSA,A,3,31,12,25,02,20,29,21,,,,,,1.42,1.12,0.87*06
$GPRMC,113951.000,A,2509.4361,N,05513.8472,E,0.03,91.50,210715,,,D*5E
$GPGGA,113952.000,2509.4361,N,05513.8472,E,2,7,1.12,-2.6,M,-26.7,M,0000,0000*55
$GPGSA,A,3,31,12,25,02,20,29,21,,,,,,1.42,1.12,0.87*06
$GPGSV,3,1,10,12,77,125,17,25,60,323,30,05,51,098,,39,45,233,37*74
$GPGSV,3,2,10,20,38,176,23,02,36,036,23,29,35,315,48,21,21,241,46*71
$GPGSV,3,3,10,24,18,196,17,31,06,315,27*79
$GPRMC,113952.000,A,2509.4361,N,05513.8472,E,0.01,91.50,210715,,,D*5F
$GPGGA,113953.000,2509.4361,N,05513.8472,E,2,6,1.36,-2.6,M,-26.7,M,0000,0000*53
$GPGSA,A,3,31,12,25,02,29,21,,,,,,,1.62,1.36,0.89*0E
$GPRMC,113953.000,A,2509.4361,N,05513.8472,E,0.03,91.50,210715,,,D*5C
$GPGGA,113954.000,2509.4361,N,05513.8472,E,2,7,1.18,-2.6,M,-26.7,M,0000,0000*59
$GPGSA,A,3,31,12,25,05,02,29,21,,,,,,1.47,1.18,0.88*01
$GPRMC,113954.000,A,2509.4361,N,05513.8472,E,0.03,91.50,210715,,,D*5B
$GPGGA,113955.000,2509.4361,N,05513.8472,E,2,8,1.01,-2.6,M,-26.7,M,0000,0000*5F
$GPGSA,A,3,31,12,25,05,02,20,29,21,,,,,1.33,1.01,0.87*07
$GPRMC,113955.000,A,2509.4361,N,05513.8472,E,0.01,91.50,210715,,,D*58
$GPGGA,113956.000,2509.4361,N,05513.8472,E,2,7,1.18,-2.6,M,-26.7,M,0000,0000*5B
$GPGSA,A,3,31,12,25,05,02,29,21,,,,,,1.47,1.18,0.88*01
$GPRMC,113956.000,A,2509.4361,N,05513.8472,E,0.03,91.50,210715,,,D*59
1437478795-GSM_CMD : DAABFE7481229CDB668EA6D5ECEBFBE7DB759BA152122696B2E407735
8119C9F36B306D262D605933D7D26F7BB87A150
1437478795-GSM_CMD : 6EE374611BF17D6A601AB84CF02DCB2B
1437478795-GSM_CMD : 0420E82E430168D3C0C3F39BE66D43F2
1437478795-GSM_CMD : 89AEF8759BEC683D378C919BD0F63020
1437478795-EVENT
: CREG_Status= 0
1437478795-GSM_CMD : 82626DAA07F7E8CC3D8841A5C229E5345E59DF42BC8833040F0F3FAA1
095290D
1437478795-GSM_CMD : 4FC9642A6C9F2589BEE9F4C5D515558F9C371193F4DEFB2527833ED65
CAC591242C00188CC77A1047B107B5786BEE355747F604E47808CEB0733012F10E166A8931B12978
4CF3E2C56580D28C1BFC0F7
1437478795-GSM_CMD : D3028ACA6FA35E58A74A6D172B44A54481990FBA1E42826BD24A2D68C
3CFD7879842584034AF04F50FD2E2DAFE08D4D727071049DE3269464219D0F789C3E91808A6662EE
32D721199AF5A6EECDFF11AF0D49D9BCF8C3DEBD8643A8ACD41F652
1437478795-GSM_CMD : ACFFACECFED22AD218F705B02636F8F5BFD1845285D61003133515887
FEFAE43B25021AC57E7392A65BD0AFB9AC63FC67400DD634D70C62274DD2D0E2C9ADD2D
1437478795-GSM_CMD : 0A2241D8C540D921172F7EF41B5395CA6BE233373A5B3967938042689
E24634ADAC71B81488F1E6287E7EC409519DFAA68D1318B4652B89083B1D6ABF5904D87
1437478795-GSM_CMD : 76FFDD92002BF9E2C19BDE811EC200429454AE04F6F793F87C9DDC076
65AD6D429CDFEEFF92153D446D18D73F8D158D03674C92BE67826716806F2490DB0FEC4
1437478795-GSM_CMD : 3598B10608D8EC65F750968AFB227BEA9AA0C2A3B351CE550CC72E4FF
9BC39CDCAC783E3D76CD8C66B2FE911FE90B20EBE8B7A59CFBEF40DB68A8371F2FAFB56
1437478795-GSM_CMD : DA5A21718EF4BE2A4488D4D62CDF8699BFD1845285D61003133515887
FEFAE43D69662EEB9FEAA97BD15E7234A641FDA51D61EE00C50CEE48E8AF6D465C2A7D2
1437478795-GSM_CMD : 39A1B70AE671CC4CC03C06B6A90712B8BFD1845285D61003133515887
FEFAE430E62DFA0B70649E28B2058E664BBE531F789FAFE88B3A597691717CB896166EF
1437478795-GSM_CMD : 55D9AEC36FB9FB31A1F1526C85B589BB
$GPGGA,113957.000,2509.4361,N,05513.8472,E,2,7,1.18,-2.6,M,-26.7,M,0000,0000*5A
$GPGSA,A,3,31,12,25,05,02,29,21,,,,,,1.47,1.18,0.88*01
$GPGSV,3,1,10,12,76,126,17,25,60,323,26,05,51,098,28,39,45,233,37*7B
$GPGSV,3,2,10,20,38,176,21,02,36,036,22,29,35,315,48,21,21,241,46*72
$GPGSV,3,3,10,24,18,196,17,31,06,315,27*79
$GPRMC,113957.000,A,2509.4361,N,05513.8472,E,0.01,91.50,210715,,,D*5A
$GPGGA,113958.000,2509.4361,N,05513.8472,E,2,8,1.01,-2.6,M,-26.7,M,0000,0000*52
$GPGSA,A,3,31,12,25,05,02,20,29,21,,,,,1.33,1.01,0.87*07

$GPRMC,113958.000,A,2509.4361,N,05513.8472,E,0.02,91.50,210715,,,D*56
1437478797-GSM_CMD : 0D85CC6367B3A584EFC27019F21F1A7F
1437478797-GSM_CMD : FC4FEF7C23F6861876C8B30A919128A7D79BA8FDE946E23EB34AAB6B3
0F3FA52961B2F2C13839620DBA5FB4A37B34EB4D7E4A6C824ED7E36069F92FCA41B5FC0A706A74A2
DF7FA9669EEB873B18D48B4
1437478797-GSM_DATA : <SMS: Sender:+971506408396 Data:AT$GPOS=64
$GPGGA,113959.000,2509.4361,N,05513.8472,E,2,7,1.18,-2.6,M,-26.7,M,0000,0000*54
$GPGSA,A,3,31,12,25,05,02,29,21,,,,,,1.47,1.18,0.88*01
$GPRMC,113959.000,A,2509.4361,N,05513.8472,E,0.01,91.50,210715,,,D*54
$GPGGA,114000.000,2509.4361,N,05513.8472,E,2,7,1.18,-2.6,M,-26.7,M,0000,0000*56
$GPGSA,A,3,31,12,25,05,02,29,21,,,,,,1.47,1.18,0.88*01
$GPRMC,114000.000,A,2509.4361,N,05513.8472,E,0.03,91.50,210715,,,D*54
$GPGGA,114001.000,2509.4361,N,05513.8472,E,2,7,1.18,-2.5,M,-26.7,M,0000,0000*54
$GPGSA,A,3,31,12,25,05,02,29,21,,,,,,1.47,1.18,0.88*01
$GPRMC,114001.000,A,2509.4361,N,05513.8472,E,0.04,91.50,210715,,,D*52
$GPGGA,114002.000,2509.4361,N,05513.8472,E,2,7,1.18,-2.5,M,-26.7,M,0000,0000*57
$GPGSA,A,3,31,12,25,05,02,29,21,,,,,,1.47,1.18,0.88*01
$GPGSV,3,1,10,12,76,126,16,25,60,323,24,05,51,098,26,39,45,233,37*76
$GPGSV,3,2,10,20,38,176,20,02,36,036,17,29,35,315,48,21,21,241,46*75
1437478801-TRAC
: Add TRAC_GPRS = 1
@P,ECD6,103,0,359551037902474,1437478801,1437478801,1437478801,55230795,25157266
,0,2,707,11,0,0,0,0,,-196,2000,
$GPGSV,3,3,10,24,18,196,16,31,06,315,28*77
$GPRMC,114002.000,A,2509.4361,N,05513.8472,E,0.06,91.50,210715,,,D*53
$GPGGA,114003.000,2509.4361,N,05513.8473,E,2,6,1.36,-2.5,M,-26.7,M,0000,0000*5A
1437478801-GSM_CMD : 2D887E11A09BCE0DBD48B471B4CD4607
$GPGSA,A,3,31,12,25,02,29,21,,,,,,,1.62,1.36,0.89*0E
$GPRMC,114003.000,A,2509.4361,N,05513.8473,E,0.08,91.50,210715,,,D*5D
1437478801-GSM_DATA : Send GPRS Data => 40504F4200330B1F000147027FE48E8A55AE2F9
155AE2F9155AE2F91034AC14B017FDE92000002000002C3000B00000000000000FF3C07D000
1437478801-GSM_CMD : 55D9AEC36FB9FB31A1F1526C85B589BB
$GPGGA,114004.000,2509.4361,N,05513.8473,E,2,8,1.01,-2.5,M,-26.7,M,0000,0000*57
$GPGSA,A,3,31,12,25,05,02,20,29,21,,,,,1.33,1.01,0.87*07
1437478802-GSM_CMD : 4BF2B0ED6A317BBF34FDFB8875080138
$GPRMC,114004.000,A,2509.4361,N,05513.8473,E,0.08,91.50,210715,,,D*5A
1437478803-GSM_CMD : 2081E4CDDC0EF27579842436C458D089
1437478803-GSM_CMD : F71EF9C7DDB536A9DE13A1994276C72D
1437478803-GSM_CMD : 1F57346402FE53B1D7D8DD2F6EEB91AEBFD7D4AC467B72A7B2CD39FE3
8F4EFA8
1437478803-GSM_DATA : Receive GPRS Data => 0x[FE02000147027FE48E8A0B1F]
1437478803-OUTGOING : [REPORT_QUEUEID] => receive SeqID=>2847
1437478803-GSM_CMD : 55D9AEC36FB9FB31A1F1526C85B589BB
$GPGGA,114005.000,2509.4361,N,05513.8473,E,2,8,1.01,-2.5,M,-26.7,M,0000,0000*56
$GPGSA,A,3,31,12,25,05,02,20,29,21,,,,,1.33,1.01,0.87*07
$GPRMC,114005.000,A,2509.4361,N,05513.8473,E,0.09,91.50,210715,,,D*5A
$GPGGA,114006.000,2509.4362,N,05513.8473,E,2,7,1.12,-2.5,M,-26.7,M,0000,0000*5B
$GPGSA,A,3,31,12,25,02,20,29,21,,,,,,1.42,1.12,0.87*06
$GPRMC,114006.000,A,2509.4362,N,05513.8473,E,0.08,91.50,210715,,,D*5B
$GPGGA,114007.000,2509.4362,N,05513.8473,E,2,7,1.18,-2.5,M,-26.7,M,0000,0000*50
$GPGSA,A,3,31,12,25,05,02,29,21,,,,,,1.47,1.18,0.88*01
$GPGSV,3,1,10,12,76,126,17,25,61,323,21,05,51,098,25,39,45,233,37*70
$GPGSV,3,2,10,20,38,176,17,02,36,036,18,29,35,315,48,21,21,241,46*7E
$GPGSV,3,3,10,24,18,196,,31,06,315,27*7F
$GPRMC,114007.000,A,2509.4362,N,05513.8473,E,0.08,91.50,210715,,,D*5A
$GPGGA,114008.000,2509.4362,N,05513.8474,E,2,7,1.18,-2.5,M,-26.7,M,0000,0000*58
$GPGSA,A,3,31,12,25,05,02,29,21,,,,,,1.47,1.18,0.88*01
$GPRMC,114008.000,A,2509.4362,N,05513.8474,E,0.10,91.50,210715,,,D*5B
$GPGGA,114009.000,2509.4362,N,05513.8474,E,2,7,1.18,-2.5,M,-26.7,M,0000,0000*59
$GPGSA,A,3,31,12,25,05,02,29,21,,,,,,1.47,1.18,0.88*01

$GPRMC,114009.000,A,2509.4362,N,05513.8474,E,0.11,91.50,210715,,,D*5B
$GPGGA,114010.000,2509.4362,N,05513.8474,E,2,6,1.36,-2.5,M,-26.7,M,0000,0000*5C
$GPGSA,A,3,31,12,25,02,29,21,,,,,,,1.62,1.36,0.89*0E
$GPRMC,114010.000,A,2509.4362,N,05513.8474,E,0.10,91.50,210715,,,D*52
$GPGGA,114011.000,2509.4362,N,05513.8475,E,2,7,1.12,-2.5,M,-26.7,M,0000,0000*5B
$GPGSA,A,3,31,12,25,02,20,29,21,,,,,,1.42,1.12,0.87*06
$GPRMC,114011.000,A,2509.4362,N,05513.8475,E,0.08,91.50,210715,,,D*5B
$GPGGA,114012.000,2509.4362,N,05513.8475,E,2,7,1.18,-2.5,M,-26.7,M,0000,0000*52
$GPGSA,A,3,31,12,25,05,02,29,21,,,,,,1.47,1.18,0.88*01
$GPGSV,3,1,10,12,76,126,19,25,61,323,16,05,51,098,23,39,45,233,37*7C
$GPGSV,3,2,10,20,38,176,17,02,36,036,21,29,35,315,48,21,21,241,46*74
$GPGSV,3,3,10,24,18,196,,31,06,315,24*7C
$GPRMC,114012.000,A,2509.4362,N,05513.8475,E,0.10,91.50,210715,,,D*51
$GPGGA,114013.000,2509.4362,N,05513.8475,E,2,7,1.18,-2.4,M,-26.7,M,0000,0000*52
$GPGSA,A,3,31,12,25,05,02,29,21,,,,,,1.47,1.18,0.88*01
$GPRMC,114013.000,A,2509.4362,N,05513.8475,E,0.13,91.50,210715,,,D*53
$GPGGA,114014.000,2509.4362,N,05513.8476,E,2,7,1.18,-2.4,M,-26.7,M,0000,0000*56
$GPGSA,A,3,31,12,25,05,02,29,21,,,,,,1.47,1.18,0.88*01
$GPRMC,114014.000,A,2509.4362,N,05513.8476,E,0.14,91.50,210715,,,D*50
$GPGGA,114015.000,2509.4362,N,05513.8476,E,2,8,0.99,-2.4,M,-26.7,M,0000,0000*50
$GPGSA,A,3,31,12,24,25,05,02,29,21,,,,,1.30,0.99,0.85*02
$GPRMC,114015.000,A,2509.4362,N,05513.8476,E,0.15,91.50,210715,,,D*50
$GPGGA,114016.000,2509.4362,N,05513.8476,E,2,7,1.18,-2.4,M,-26.7,M,0000,0000*54
$GPGSA,A,3,31,12,25,05,02,29,21,,,,,,1.47,1.18,0.88*01
$GPRMC,114016.000,A,2509.4362,N,05513.8476,E,0.15,91.50,210715,,,D*53
$GPGGA,114017.000,2509.4361,N,05513.8477,E,2,8,1.01,-2.4,M,-26.7,M,0000,0000*50
$GPGSA,A,3,31,12,25,05,02,20,29,21,,,,,1.33,1.01,0.87*07
1437478816-GSM_CMD : 0D85CC6367B3A584EFC27019F21F1A7F
1437478816-GSM_CMD : FC4FEF7C23F6861876C8B30A919128A7D79BA8FDE946E23EB34AAB6B3
0F3FA528164D9FB388834825603BA39AAF464A96518C95D8C4C53140C9FD6D98653FBD2A706A74A2
DF7FA9669EEB873B18D48B4
1437478816-GSM_DATA : <SMS: Sender:+971506408396 Data:AT$GPOS=64
$GPGSV,3,1,10,12,76,126,20,25,61,323,18,05,51,098,21,39,45,233,37*7A
$GPGSV,3,2,10,20,38,176,23,02,36,036,21,29,35,315,48,21,21,241,46*73
$GPGSV,3,3,10,24,18,196,,31,06,315,24*7C
$GPRMC,114017.000,A,2509.4361,N,05513.8477,E,0.15,91.50,210715,,,D*50
$GPGGA,114018.000,2509.4361,N,05513.8477,E,2,7,1.18,-2.4,M,-26.7,M,0000,0000*58
$GPGSA,A,3,31,12,25,05,02,29,21,,,,,,1.47,1.18,0.88*01
$GPRMC,114018.000,A,2509.4361,N,05513.8477,E,0.15,91.50,210715,,,D*5F
$GPGGA,114019.000,2509.4361,N,05513.8478,E,2,9,0.94,-2.4,M,-26.7,M,0000,0000*5D
$GPGSA,A,3,31,12,24,25,05,02,20,29,21,,,,1.26,0.94,0.85*0A
$GPRMC,114019.000,A,2509.4361,N,05513.8478,E,0.17,91.50,210715,,,D*53
$GPGGA,114020.000,2509.4361,N,05513.8478,E,2,9,0.94,-2.4,M,-26.7,M,0000,0000*57
$GPGSA,A,3,31,12,24,25,05,02,20,29,21,,,,1.26,0.94,0.85*0A
$GPRMC,114020.000,A,2509.4361,N,05513.8478,E,0.19,91.50,210715,,,D*57
$GPGGA,114021.000,2509.4361,N,05513.8479,E,2,9,0.94,-2.3,M,-26.7,M,0000,0000*50
$GPGSA,A,3,31,12,24,25,05,02,20,29,21,,,,1.26,0.94,0.85*0A
$GPRMC,114021.000,A,2509.4361,N,05513.8479,E,0.18,91.50,210715,,,D*56
$GPGGA,114022.000,2509.4361,N,05513.8479,E,2,9,0.94,-2.3,M,-26.7,M,0000,0000*53
$GPGSA,A,3,31,12,24,25,05,02,20,29,21,,,,1.26,0.94,0.85*0A
$GPGSV,3,1,10,12,76,126,21,25,61,323,25,05,51,098,19,39,45,233,37*7E
$GPGSV,3,2,10,20,38,176,25,02,36,036,22,29,35,315,48,21,21,241,46*76
$GPGSV,3,3,10,24,18,196,22,31,06,315,20*78
$GPRMC,114022.000,A,2509.4361,N,05513.8479,E,0.18,91.50,210715,,,D*55
$GPGGA,114023.000,2509.4361,N,05513.8480,E,2,9,0.94,-2.3,M,-26.7,M,0000,0000*54
$GPGSA,A,3,31,12,24,25,05,02,20,29,21,,,,1.26,0.94,0.85*0A
$GPRMC,114023.000,A,2509.4361,N,05513.8480,E,0.17,91.50,210715,,,D*5D
$GPGGA,114024.000,2509.4361,N,05513.8480,E,2,9,0.94,-2.3,M,-26.7,M,0000,0000*53
$GPGSA,A,3,31,12,24,25,05,02,20,29,21,,,,1.26,0.94,0.85*0A

$GPRMC,114024.000,A,2509.4361,N,05513.8480,E,0.15,91.50,210715,,,D*58
$GPGGA,114025.000,2509.4361,N,05513.8481,E,2,9,0.94,-2.3,M,-26.7,M,0000,0000*53
$GPGSA,A,3,31,12,24,25,05,02,20,29,21,,,,1.26,0.94,0.85*0A
$GPRMC,114025.000,A,2509.4361,N,05513.8481,E,0.12,91.50,210715,,,D*5F
$GPGGA,114026.000,2509.4361,N,05513.8481,E,2,8,1.05,-2.3,M,-26.7,M,0000,0000*58
$GPGSA,A,3,31,12,24,25,02,20,29,21,,,,,1.35,1.05,0.85*04
$GPRMC,114026.000,A,2509.4361,N,05513.8481,E,0.10,91.50,210715,,,D*5E
1437478826-GSM_CMD : DAABFE7481229CDB668EA6D5ECEBFBE7DB759BA152122696B2E407735
8119C9F36B306D262D605933D7D26F7BB87A150
1437478826-GSM_CMD : 6EE374611BF17D6A601AB84CF02DCB2B
1437478826-GSM_CMD : 8FBC5E681E6612795151A2185DFB312E8A75452E8399F50BC1A047A0A
9778613
1437478826-GSM_CMD : 89AEF8759BEC683D378C919BD0F63020
1437478826-GSM_CMD : 82626DAA07F7E8CC3D8841A5C229E5345E59DF42BC8833040F0F3FAA1
095290D
1437478826-EVENT
: CREG_Status= 1
1437478826-GSM_CMD : 4FC9642A6C9F2589BEE9F4C5D515558F9C371193F4DEFB2527833ED65
CAC591242C00188CC77A1047B107B5786BEE355747F604E47808CEB0733012F10E166A8931B12978
4CF3E2C56580D28C1BFC0F7
1437478826-GSM_CMD : D3028ACA6FA35E58A74A6D172B44A54481990FBA1E42826BD24A2D68C
3CFD7879842584034AF04F50FD2E2DAFE08D4D727071049DE3269464219D0F789C3E91808A6662EE
32D721199AF5A6EECDFF11AF0D49D9BCF8C3DEBD8643A8ACD41F652
1437478826-GSM_CMD : ACFFACECFED22AD218F705B02636F8F5BFD1845285D61003133515887
FEFAE43B25021AC57E7392A65BD0AFB9AC63FC67400DD634D70C62274DD2D0E2C9ADD2D
1437478826-GSM_CMD : 0A2241D8C540D921172F7EF41B5395CA6BE233373A5B3967938042689
E24634ADAC71B81488F1E6287E7EC409519DFAA68D1318B4652B89083B1D6ABF5904D87
1437478826-GSM_CMD : 76FFDD92002BF9E2C19BDE811EC200429454AE04F6F793F87C9DDC076
65AD6D478A7085E59F87B5A8871ACB2E5042D07BE8B7A59CFBEF40DB68A8371F2FAFB56
1437478826-GSM_CMD : 3598B10608D8EC65F750968AFB227BEA9AA0C2A3B351CE550CC72E4FF
9BC39CDFF51E8D2F024F74D6C415D74495CD98151D61EE00C50CEE48E8AF6D465C2A7D2
1437478826-GSM_CMD : DA5A21718EF4BE2A4488D4D62CDF8699BFD1845285D61003133515887
FEFAE43D69662EEB9FEAA97BD15E7234A641FDA51D61EE00C50CEE48E8AF6D465C2A7D2
1437478826-GSM_CMD : 39A1B70AE671CC4CC03C06B6A90712B8BFD1845285D61003133515887
FEFAE430F453258EF8EC3ACB33B8F7C59491E54676257618763E79866D1AA24DF0AA311
$GPGGA,114027.000,2509.4360,N,05513.8481,E,2,8,1.05,-2.3,M,-26.7,M,0000,0000*58
1437478826-GSM_CMD : 55D9AEC36FB9FB31A1F1526C85B589BB
$GPGSA,A,3,31,12,24,25,02,20,29,21,,,,,1.35,1.05,0.85*04
$GPGSV,3,1,10,12,76,126,24,25,61,323,26,05,51,098,13,39,45,233,37*72
$GPGSV,3,2,10,20,38,176,27,02,36,036,21,29,35,315,48,21,21,241,46*77
$GPGSV,3,3,10,24,18,196,21,31,06,315,20*7B
$GPRMC,114027.000,A,2509.4360,N,05513.8481,E,0.10,91.50,210715,,,D*5E
$GPGGA,114028.000,2509.4360,N,05513.8482,E,2,8,1.05,-2.3,M,-26.7,M,0000,0000*54
$GPGSA,A,3,31,12,24,25,02,20,29,21,,,,,1.35,1.05,0.85*04
1437478827-GSM_CMD : B5A4DC7ADC299C070A15781799A1885D
$GPRMC,114028.000,A,2509.4360,N,05513.8482,E,0.09,91.50,210715,,,D*5A
1437478828-GSM_CMD : 4CAE023FFD1FB18907460E2A68BAB49C29EE58C40B4B97AFD0A88A955
3969479E4FA20A73DB9929A0BF470DCF3B4B4595F10A286E5EAB66892C9452FB16D14933C42C6364
ED3B5097D568D1F2DD0446F1E6EAD2D0255C3E04DABEA1FA34116948BF5C83EB72586278C6085B8C
FE5171F8D012C51EA2981BB9BDA697997DB31E5A00ADFCA9C2AE75D9B2AD8D2DCBA1114118AD389B
1F96F70455AA83742F635B44DA68E1E488EF8660811E4DE726358CFD6D0E4ABAD6F25957209C01F8
6DC8540A1BA57F479C2AF2448B0A98930E9816C924E618D1C4F8A84BB13212EC5CB21F3BBB157066
AF37B7714CD9D914AFB165E
$GPGGA,114029.000,2509.4360,N,05513.8482,E,2,9,0.94,-2.2,M,-26.7,M,0000,0000*5C
$GPGSA,A,3,31,12,24,25,05,02,20,29,21,,,,1.26,0.94,0.85*0A
$GPRMC,114029.000,A,2509.4360,N,05513.8482,E,0.07,91.50,210715,,,D*55
$GPGGA,114030.000,2509.4360,N,05513.8482,E,2,9,0.94,-2.2,M,-26.7,M,0000,0000*54
$GPGSA,A,3,31,12,24,25,05,02,20,29,21,,,,1.26,0.94,0.85*0A
$GPRMC,114030.000,A,2509.4360,N,05513.8482,E,0.06,91.50,210715,,,D*5C
$GPGGA,114031.000,2509.4361,N,05513.8482,E,2,9,0.94,-2.2,M,-26.7,M,0000,0000*54
$GPGSA,A,3,31,12,24,25,05,02,20,29,21,,,,1.26,0.94,0.85*0A

$GPRMC,114031.000,A,2509.4361,N,05513.8482,E,0.06,91.50,210715,,,D*5C
1437478831-TRAC
: Add TRAC_GPRS = 1
@P,04F9,102,0,359551037902474,1437478831,1437478831,1437478831,55230795,25157266
,0,2,707,9,0,0,0,0,,-196,2000,
$GPGGA,114032.000,2509.4361,N,05513.8482,E,2,9,0.94,-2.2,M,-26.7,M,0000,0000*57
$GPGSA,A,3,31,12,24,25,05,02,20,29,21,,,,1.26,0.94,0.85*0A
1437478831-GSM_CMD : 85EAE0D615EFBE7CD22474F6FEAE8389
1437478831-GSM_CMD : 55D9AEC36FB9FB31A1F1526C85B589BB
$GPGSV,3,1,11,12,76,127,25,25,61,323,29,05,51,098,18,39,45,233,37*77
$GPGSV,3,2,11,20,38,176,28,02,36,036,23,29,35,315,48,21,21,241,46*7B
$GPGSV,3,3,11,24,18,196,21,31,06,315,20,15,01,167,*4F
$GPRMC,114032.000,A,2509.4361,N,05513.8482,E,0.07,91.50,210715,,,D*5E
$GPGGA,114033.000,2509.4361,N,05513.8482,E,2,9,0.94,-2.2,M,-26.7,M,0000,0000*56
$GPGSA,A,3,31,12,24,25,05,02,20,29,21,,,,1.26,0.94,0.85*0A
$GPRMC,114033.000,A,2509.4361,N,05513.8482,E,0.05,91.50,210715,,,D*5D
1437478834-GSM_CMD : 2D887E11A09BCE0DBD48B471B4CD4607
1437478834-GSM_DATA : Send GPRS Data => 4050541D00330B20000147027FE48E8A55AE2FA
F55AE2FAF55AE2FAF034AC14B017FDE92000002000002C3000900000000000000FF3C07D000
1437478834-GSM_CMD : 55D9AEC36FB9FB31A1F1526C85B589BB
$GPGGA,114034.000,2509.4361,N,05513.8483,E,2,9,0.94,-2.2,M,-26.7,M,0000,0000*50
$GPGSA,A,3,31,12,24,25,05,02,20,29,21,,,,1.26,0.94,0.85*0A
$GPRMC,114034.000,A,2509.4361,N,05513.8483,E,0.06,91.50,210715,,,D*58
1437478835-GSM_CMD : E33F9B65FBA304CFE73CD7B3C4DFFFCC
$GPGGA,114035.000,2509.4361,N,05513.8483,E,2,9,0.94,-2.2,M,-26.7,M,0000,0000*51
$GPGSA,A,3,31,12,24,25,05,02,20,29,21,,,,1.26,0.94,0.85*0A
1437478835-GSM_CMD : 4CAE023FFD1FB18907460E2A68BAB49C720110008E9A66725F0CDEB80
D6C34499B8B5047006CCFABB0AA328E50553B655F10A286E5EAB66892C9452FB16D14933C42C6364
ED3B5097D568D1F2DD0446F1E6EAD2D0255C3E04DABEA1FA34116944C1C9A19FB31178D68D1E9101
B2BDFDD7D66FE7D374F1B47A311FD6FBC452DB3E236C9AC8B930B0B4D5640AE6C54E4AD118AD389B
1F96F70455AA83742F635B44DA68E1E488EF8660811E4DE726358CF864800C8A07528B911C3DF3E9
FD7EB5CCF556C889BE79265E46ACE05CD456C27A90CFF498F4103EF07E266476BD084CA36952A773
4AD6FB5469253650DB6894A
$GPRMC,114035.000,A,2509.4361,N,05513.8483,E,0.04,91.50,210715,,,D*5B
$GPGGA,114036.000,2509.4361,N,05513.8483,E,2,9,0.94,-2.2,M,-26.7,M,0000,0000*52
$GPGSA,A,3,31,12,24,25,05,02,20,29,21,,,,1.26,0.94,0.85*0A
$GPRMC,114036.000,A,2509.4361,N,05513.8483,E,0.02,91.50,210715,,,D*5E
$GPGGA,114037.000,2509.4361,N,05513.8483,E,2,9,0.94,-2.2,M,-26.7,M,0000,0000*53
$GPGSA,A,3,31,12,24,25,05,02,20,29,21,,,,1.26,0.94,0.85*0A
$GPGSV,3,1,11,12,76,127,24,25,61,323,30,05,51,098,19,39,45,233,37*7F
$GPGSV,3,2,11,20,38,176,28,02,36,036,23,29,35,315,48,21,21,241,46*7B
$GPGSV,3,3,11,24,18,196,20,31,06,315,21,15,01,167,*4F
$GPRMC,114037.000,A,2509.4361,N,05513.8483,E,0.01,91.50,210715,,,D*5C
$GPGGA,114038.000,2509.4361,N,05513.8483,E,2,9,0.94,-2.2,M,-26.7,M,0000,0000*5C
$GPGSA,A,3,31,12,24,25,05,02,20,29,21,,,,1.26,0.94,0.85*0A
$GPRMC,114038.000,A,2509.4361,N,05513.8483,E,0.01,91.50,210715,,,D*53
$GPGGA,114039.000,2509.4361,N,05513.8483,E,2,9,0.94,-2.2,M,-26.7,M,0000,0000*5D
$GPGSA,A,3,31,12,24,25,05,02,20,29,21,,,,1.26,0.94,0.85*0A
1437478838-GSM_CMD : 34FBD30DE00E0446E651C601F811A198
1437478838-GSM_CMD : 55D9AEC36FB9FB31A1F1526C85B589BB
1437478839-GSM_CMD : 4BF2B0ED6A317BBF34FDFB8875080138
$GPRMC,114039.000,A,2509.4361,N,05513.8483,E,0.00,91.50,210715,,,D*53
$GPGGA,114040.000,2509.4361,N,05513.8483,E,2,9,0.94,-2.2,M,-26.7,M,0000,0000*53
$GPGSA,A,3,31,12,24,25,05,02,20,29,21,,,,1.26,0.94,0.85*0A
$GPRMC,114040.000,A,2509.4361,N,05513.8483,E,0.01,91.50,210715,,,D*5C
1437478841-GSM_CMD : 2081E4CDDC0EF27579842436C458D089
1437478841-GSM_CMD : F71EF9C7DDB536A9DE13A1994276C72D
1437478841-GSM_CMD : 1F57346402FE53B1D7D8DD2F6EEB91AEF10E59B379E9EA79FEA644F17
2329A9D
1437478841-GSM_DATA : Receive GPRS Data => 0x[FE02000147027FE48E8A0B20]
1437478841-OUTGOING : [REPORT_QUEUEID] => receive SeqID=>2848

1437478841-GSM_CMD : 55D9AEC36FB9FB31A1F1526C85B589BB
$GPGGA,114041.000,2509.4361,N,05513.8483,E,2,9,0.94,-2.2,M,-26.7,M,0000,0000*52
$GPGSA,A,3,31,12,24,25,05,02,20,29,21,,,,1.26,0.94,0.85*0A
$GPRMC,114041.000,A,2509.4361,N,05513.8483,E,0.01,91.50,210715,,,D*5D
$GPGGA,114042.000,2509.4361,N,05513.8483,E,2,9,0.94,-2.2,M,-26.7,M,0000,0000*51
$GPGSA,A,3,31,12,24,25,05,02,20,29,21,,,,1.26,0.94,0.85*0A
$GPGSV,3,1,11,12,76,127,22,25,61,323,32,05,51,098,19,39,45,233,37*7B
$GPGSV,3,2,11,20,38,176,28,02,36,036,21,29,35,315,48,21,21,242,46*7A
$GPGSV,3,3,11,24,18,196,19,31,06,315,22,15,01,167,*46
$GPRMC,114042.000,A,2509.4361,N,05513.8483,E,0.01,91.50,210715,,,D*5E
$GPGGA,114043.000,2509.4361,N,05513.8483,E,2,9,0.94,-2.2,M,-26.7,M,0000,0000*50
$GPGSA,A,3,31,12,24,25,05,02,20,29,21,,,,1.26,0.94,0.85*0A
$GPRMC,114043.000,A,2509.4361,N,05513.8483,E,0.01,91.50,210715,,,D*5F
$GPGGA,114044.000,2509.4361,N,05513.8483,E,2,9,0.94,-2.2,M,-26.7,M,0000,0000*57
$GPGSA,A,3,31,12,24,25,05,02,20,29,21,,,,1.26,0.94,0.85*0A
$GPRMC,114044.000,A,2509.4361,N,05513.8483,E,0.00,91.50,210715,,,D*59
$GPGGA,114045.000,2509.4361,N,05513.8483,E,2,8,1.01,-2.2,M,-26.7,M,0000,0000*5A
$GPGSA,A,3,12,24,25,05,02,20,29,21,,,,,1.35,1.01,0.90*03
$GPRMC,114045.000,A,2509.4361,N,05513.8483,E,0.01,91.50,210715,,,D*59
$GPGGA,114046.000,2509.4361,N,05513.8483,E,2,8,1.01,-2.2,M,-26.7,M,0000,0000*59
$GPGSA,A,3,12,24,25,05,02,20,29,21,,,,,1.35,1.01,0.90*03
$GPRMC,114046.000,A,2509.4361,N,05513.8483,E,0.01,91.50,210715,,,D*5A
$GPGGA,114047.000,2509.4361,N,05513.8483,E,2,8,1.01,-2.2,M,-26.7,M,0000,0000*58
$GPGSA,A,3,12,24,25,05,02,20,29,21,,,,,1.35,1.01,0.90*03
$GPGSV,3,1,11,12,76,127,20,25,61,323,33,05,51,098,17,39,45,233,37*76
$GPGSV,3,2,11,20,38,176,27,02,36,036,17,29,35,315,48,21,21,242,46*70
$GPGSV,3,3,11,24,18,196,18,31,06,315,20,15,01,167,*45
$GPRMC,114047.000,A,2509.4361,N,05513.8483,E,0.01,91.50,210715,,,D*5B
$GPGGA,114048.000,2509.4361,N,05513.8483,E,2,9,0.94,-2.2,M,-26.7,M,0000,0000*5B
$GPGSA,A,3,31,12,24,25,05,02,20,29,21,,,,1.26,0.94,0.85*0A
$GPRMC,114048.000,A,2509.4361,N,05513.8483,E,0.03,91.50,210715,,,D*56
$GPGGA,114049.000,2509.4361,N,05513.8483,E,2,8,1.01,-2.2,M,-26.7,M,0000,0000*56
$GPGSA,A,3,12,24,25,05,02,20,29,21,,,,,1.35,1.01,0.90*03
$GPRMC,114049.000,A,2509.4361,N,05513.8483,E,0.02,91.50,210715,,,D*56
$GPGGA,114050.000,2509.4361,N,05513.8483,E,2,8,1.01,-2.2,M,-26.7,M,0000,0000*5E
$GPGSA,A,3,12,24,25,05,02,20,29,21,,,,,1.35,1.01,0.90*03
$GPRMC,114050.000,A,2509.4361,N,05513.8483,E,0.02,91.50,210715,,,D*5E
$GPGGA,114051.000,2509.4361,N,05513.8483,E,2,8,1.01,-2.2,M,-26.7,M,0000,0000*5F
$GPGSA,A,3,12,24,25,05,02,20,29,21,,,,,1.35,1.01,0.90*03
$GPRMC,114051.000,A,2509.4361,N,05513.8483,E,0.02,91.50,210715,,,D*5F
$GPGGA,114052.000,2509.4361,N,05513.8484,E,2,8,1.01,-2.2,M,-26.7,M,0000,0000*5B
$GPGSA,A,3,12,24,25,05,02,20,29,21,,,,,1.35,1.01,0.90*03
$GPGSV,3,1,11,12,76,127,17,25,61,323,34,05,51,098,21,39,45,233,37*70
$GPGSV,3,2,11,20,38,176,29,02,36,036,19,29,35,315,48,21,21,242,46*70
$GPGSV,3,3,11,24,18,196,18,31,06,315,22,15,01,167,*47
$GPRMC,114052.000,A,2509.4361,N,05513.8484,E,0.02,91.50,210715,,,D*5B
$GPGGA,114053.000,2509.4360,N,05513.8484,E,2,8,1.01,-2.2,M,-26.7,M,0000,0000*5B
$GPGSA,A,3,12,24,25,05,02,20,29,21,,,,,1.35,1.01,0.90*03
$GPRMC,114053.000,A,2509.4360,N,05513.8484,E,0.02,91.50,210715,,,D*5B
$GPGGA,114054.000,2509.4360,N,05513.8486,E,2,8,1.01,-2.2,M,-26.7,M,0000,0000*5E
$GPGSA,A,3,12,24,25,05,02,20,29,21,,,,,1.35,1.01,0.90*03
$GPRMC,114054.000,A,2509.4360,N,05513.8486,E,0.02,91.50,210715,,,D*5E
$GPGGA,114055.000,2509.4360,N,05513.8488,E,2,8,1.01,-2.2,M,-26.7,M,0000,0000*51
$GPGSA,A,3,12,24,25,05,02,20,29,21,,,,,1.35,1.01,0.90*03
$GPRMC,114055.000,A,2509.4360,N,05513.8488,E,0.02,91.50,210715,,,D*51
$GPGGA,114056.000,2509.4360,N,05513.8488,E,2,8,1.01,-2.2,M,-26.7,M,0000,0000*52
$GPGSA,A,3,12,24,25,05,02,20,29,21,,,,,1.35,1.01,0.90*03
$GPRMC,114056.000,A,2509.4360,N,05513.8488,E,0.03,91.50,210715,,,D*53
1437478856-GSM_CMD : DAABFE7481229CDB668EA6D5ECEBFBE7DB759BA152122696B2E407735
8119C9F36B306D262D605933D7D26F7BB87A150

1437478856-GSM_CMD : 8DFC7E1E3EF413B39F63C38D3A575879
1437478856-GSM_CMD : 8FBC5E681E6612795151A2185DFB312E8A75452E8399F50BC1A047A0A
9778613
1437478856-GSM_CMD : 89AEF8759BEC683D378C919BD0F63020
1437478856-GSM_CMD : 82626DAA07F7E8CC3D8841A5C229E5345E59DF42BC8833040F0F3FAA1
095290D
1437478856-GSM_CMD : 4FC9642A6C9F2589BEE9F4C5D515558F9C371193F4DEFB2527833ED65
CAC591242C00188CC77A1047B107B5786BEE355747F604E47808CEB0733012F10E166A8931B12978
4CF3E2C56580D28C1BFC0F7
$GPGGA,114057.000,2509.4360,N,05513.8488,E,2,8,1.01,-2.2,M,-26.7,M,0000,0000*53
1437478856-GSM_CMD : D3028ACA6FA35E58A74A6D172B44A54481990FBA1E42826BD24A2D68C
3CFD787779EB44C9D4334E640019408CA7C3414B6E61925611DC443E9B9939C300FE0D708A6662EE
32D721199AF5A6EECDFF11AF0D49D9BCF8C3DEBD8643A8ACD41F652
1437478856-GSM_CMD : ACFFACECFED22AD218F705B02636F8F5BFD1845285D61003133515887
FEFAE43770ACDCC6C86EB4C4F7DFDE81EACF5E9906A5E8203F1AE9D44650D06090F6D4D
1437478856-GSM_CMD : 0A2241D8C540D921172F7EF41B5395CA6BE233373A5B3967938042689
E24634AD9CDF4BC232AE5C7C99377F470D8D11B906A5E8203F1AE9D44650D06090F6D4D
1437478856-GSM_CMD : 76FFDD92002BF9E2C19BDE811EC200429454AE04F6F793F87C9DDC076
65AD6D478A7085E59F87B5A8871ACB2E5042D07BE8B7A59CFBEF40DB68A8371F2FAFB56
1437478856-GSM_CMD : 85CD5CC4CF99163925B27CDF2195C5A4BFD1845285D61003133515887
FEFAE43D69662EEB9FEAA97BD15E7234A641FDA51D61EE00C50CEE48E8AF6D465C2A7D2
$GPGSA,A,3,12,24,25,05,02,20,29,21,,,,,1.35,1.01,0.90*03
1437478856-GSM_CMD : 63619F5DD4A40FF47540BDCCFD4410F0BFD1845285D61003133515887
FEFAE430F453258EF8EC3ACB33B8F7C59491E54676257618763E79866D1AA24DF0AA311
1437478856-GSM_CMD : E2036F957ABDED363964D12446DE1EBC9AA0C2A3B351CE550CC72E4FF
9BC39CD0256146B4E5F7A58E7A862E9B1053903676257618763E79866D1AA24DF0AA311
1437478856-GSM_CMD : 55D9AEC36FB9FB31A1F1526C85B589BB
$GPGSV,3,1,11,12,76,127,19,25,61,323,34,05,51,097,22,39,45,233,37*72
$GPGSV,3,2,11,20,38,176,29,02,36,036,19,29,35,315,48,21,21,242,46*70
$GPGSV,3,3,11,24,18,196,19,31,06,315,20,15,01,167,*44
$GPRMC,114057.000,A,2509.4360,N,05513.8488,E,0.03,91.50,210715,,,D*52
$GPGGA,114058.000,2509.4360,N,05513.8488,E,2,8,1.01,-2.2,M,-26.7,M,0000,0000*5C
$GPGSA,A,3,12,24,25,05,02,20,29,21,,,,,1.35,1.01,0.90*03
$GPRMC,114058.000,A,2509.4360,N,05513.8488,E,0.02,91.50,210715,,,D*5C
$GPGGA,114059.000,2509.4360,N,05513.8488,E,2,8,1.01,-2.2,M,-26.7,M,0000,0000*5D
$GPGSA,A,3,12,24,25,05,02,20,29,21,,,,,1.35,1.01,0.90*03
$GPRMC,114059.000,A,2509.4360,N,05513.8488,E,0.02,91.50,210715,,,D*5D
$GPGGA,114100.000,2509.4360,N,05513.8488,E,2,8,1.01,-2.2,M,-26.7,M,0000,0000*50
$GPGSA,A,3,12,24,25,05,02,20,29,21,,,,,1.35,1.01,0.90*03
$GPRMC,114100.000,A,2509.4360,N,05513.8488,E,0.03,91.50,210715,,,D*51
$GPGGA,114101.000,2509.4360,N,05513.8488,E,2,8,1.01,-2.2,M,-26.7,M,0000,0000*51
$GPGSA,A,3,12,24,25,05,02,20,29,21,,,,,1.35,1.01,0.90*03
$GPRMC,114101.000,A,2509.4360,N,05513.8488,E,0.01,91.50,210715,,,D*52
1437478861-TRAC
: Add TRAC_GPRS = 1
@P,A653,103,0,359551037902474,1437478861,1437478861,1437478861,55230806,25157268
,0,2,707,10,0,0,0,0,,-196,2000,
1437478861-GSM_CMD : 2D887E11A09BCE0DBD48B471B4CD4607
$GPGGA,114102.000,2509.4360,N,05513.8488,E,2,8,1.01,-2.2,M,-26.7,M,0000,0000*52
$GPGSA,A,3,12,24,25,05,02,20,29,21,,,,,1.35,1.01,0.90*03
$GPGSV,3,1,11,12,76,127,26,25,61,323,35,05,51,097,25,39,45,233,37*78
1437478861-GSM_DATA : Send GPRS Data => 4050FF2900330B21000147027FE48E8A55AE2FC
D55AE2FCD55AE2FCD034AC156017FDE94000002000002C3000A00000000000000FF3C07D000
1437478861-GSM_CMD : 55D9AEC36FB9FB31A1F1526C85B589BB
$GPGSV,3,2,11,20,38,176,28,02,36,036,21,29,35,315,48,21,21,242,46*7A
$GPGSV,3,3,11,24,18,196,18,31,06,315,19,15,01,167,19*47
$GPRMC,114102.000,A,2509.4360,N,05513.8488,E,0.01,91.50,210715,,,D*51
$GPGGA,114103.000,2509.4360,N,05513.8488,E,2,7,1.08,-2.2,M,-26.7,M,0000,0000*55
$GPGSA,A,3,12,24,25,05,02,29,21,,,,,,1.41,1.08,0.90*0B
1437478862-GSM_CMD : 4BF2B0ED6A317BBF34FDFB8875080138
$GPRMC,114103.000,A,2509.4360,N,05513.8488,E,0.03,91.50,210715,,,D*52

1437478863-GSM_CMD : 2081E4CDDC0EF27579842436C458D089
1437478863-GSM_CMD : F71EF9C7DDB536A9DE13A1994276C72D
1437478863-GSM_CMD : 1F57346402FE53B1D7D8DD2F6EEB91AE965C107FC20269839C768621B
FFC66B9
1437478863-GSM_DATA : Receive GPRS Data => 0x[FE02000147027FE48E8A0B21]
1437478863-OUTGOING : [REPORT_QUEUEID] => receive SeqID=>2849
1437478863-GSM_CMD : 55D9AEC36FB9FB31A1F1526C85B589BB
$GPGGA,114104.000,2509.4360,N,05513.8488,E,2,8,1.01,-2.2,M,-26.7,M,0000,0000*54
$GPGSA,A,3,12,24,25,05,02,20,29,21,,,,,1.35,1.01,0.90*03
$GPRMC,114104.000,A,2509.4360,N,05513.8488,E,0.01,91.50,210715,,,D*57
$GPGGA,114105.000,2509.4360,N,05513.8488,E,2,8,1.01,-2.2,M,-26.7,M,0000,0000*55
$GPGSA,A,3,12,24,25,05,02,20,29,21,,,,,1.35,1.01,0.90*03
$GPRMC,114105.000,A,2509.4360,N,05513.8488,E,0.00,91.50,210715,,,D*57
$GPGGA,114106.000,2509.4360,N,05513.8488,E,2,8,1.01,-2.2,M,-26.7,M,0000,0000*56
$GPGSA,A,3,12,24,25,05,02,20,29,21,,,,,1.35,1.01,0.90*03
$GPRMC,114106.000,A,2509.4360,N,05513.8488,E,0.02,91.50,210715,,,D*56
$GPGGA,114107.000,2509.4360,N,05513.8488,E,2,8,1.01,-2.2,M,-26.7,M,0000,0000*57
$GPGSA,A,3,12,24,25,05,02,20,29,21,,,,,1.35,1.01,0.90*03
$GPGSV,3,1,11,12,76,128,20,25,61,323,35,05,51,097,26,39,45,233,37*72
$GPGSV,3,2,11,20,38,176,26,02,36,036,23,29,35,315,48,21,21,242,46*76
$GPGSV,3,3,11,24,18,196,17,31,06,315,18,15,01,167,21*42
$GPRMC,114107.000,A,2509.4360,N,05513.8488,E,0.04,91.50,210715,,,D*51
$GPGGA,114108.000,2509.4360,N,05513.8488,E,2,8,1.01,-2.2,M,-26.7,M,0000,0000*58
$GPGSA,A,3,12,24,25,05,02,20,29,21,,,,,1.35,1.01,0.90*03
$GPRMC,114108.000,A,2509.4360,N,05513.8488,E,0.04,91.50,210715,,,D*5E
$GPGGA,114109.000,2509.4360,N,05513.8488,E,2,8,1.01,-2.2,M,-26.7,M,0000,0000*59
$GPGSA,A,3,12,24,25,05,02,20,29,21,,,,,1.35,1.01,0.90*03
$GPRMC,114109.000,A,2509.4360,N,05513.8488,E,0.02,91.50,210715,,,D*59
$GPGGA,114110.000,2509.4360,N,05513.8488,E,2,8,1.01,-2.2,M,-26.7,M,0000,0000*51
$GPGSA,A,3,12,24,25,05,02,20,29,21,,,,,1.35,1.01,0.90*03
$GPRMC,114110.000,A,2509.4360,N,05513.8488,E,0.01,91.50,210715,,,D*52
$GPGGA,114111.000,2509.4360,N,05513.8488,E,2,8,1.01,-2.2,M,-26.7,M,0000,0000*50
$GPGSA,A,3,12,24,25,05,02,20,29,21,,,,,1.35,1.01,0.90*03
$GPRMC,114111.000,A,2509.4360,N,05513.8488,E,0.03,91.50,210715,,,D*51
$GPGGA,114112.000,2509.4360,N,05513.8488,E,2,8,1.01,-2.2,M,-26.7,M,0000,0000*53
$GPGSA,A,3,12,24,25,05,02,20,29,21,,,,,1.35,1.01,0.90*03
$GPGSV,3,1,11,12,76,128,17,25,61,323,36,05,51,097,23,39,45,233,38*7F
$GPGSV,3,2,11,20,39,176,27,02,36,036,23,29,35,315,48,21,21,242,46*76
$GPGSV,3,3,11,24,18,196,16,31,06,315,13,15,01,167,21*48
$GPRMC,114112.000,A,2509.4360,N,05513.8488,E,0.03,91.50,210715,,,D*52
$GPGGA,114113.000,2509.4360,N,05513.8488,E,2,8,1.01,-2.2,M,-26.7,M,0000,0000*52
$GPGSA,A,3,12,24,25,05,02,20,29,21,,,,,1.35,1.01,0.90*03
$GPRMC,114113.000,A,2509.4360,N,05513.8488,E,0.03,91.50,210715,,,D*53
$GPGGA,114114.000,2509.4360,N,05513.8488,E,2,8,1.01,-2.2,M,-26.7,M,0000,0000*55
$GPGSA,A,3,12,24,25,05,02,20,29,21,,,,,1.35,1.01,0.90*03
$GPRMC,114114.000,A,2509.4360,N,05513.8488,E,0.04,91.50,210715,,,D*53
$GPGGA,114115.000,2509.4360,N,05513.8488,E,2,8,1.01,-2.2,M,-26.7,M,0000,0000*54
$GPGSA,A,3,12,24,25,05,02,20,29,21,,,,,1.35,1.01,0.90*03
$GPRMC,114115.000,A,2509.4360,N,05513.8488,E,0.03,91.50,210715,,,D*55
$GPGGA,114116.000,2509.4360,N,05513.8488,E,2,8,1.01,-2.2,M,-26.7,M,0000,0000*57
$GPGSA,A,3,12,24,25,05,02,20,29,21,,,,,1.35,1.01,0.90*03
$GPRMC,114116.000,A,2509.4360,N,05513.8488,E,0.03,91.50,210715,,,D*56
$GPGGA,114117.000,2509.4360,N,05513.8489,E,2,7,1.09,-2.2,M,-26.7,M,0000,0000*50
$GPGSA,A,3,12,25,05,02,20,29,21,,,,,,1.42,1.09,0.92*0F
$GPGSV,3,1,11,12,76,128,18,25,61,322,37,05,51,097,26,39,45,233,38*75
$GPGSV,3,2,11,20,39,176,29,02,36,036,21,29,35,315,48,21,21,242,46*7A
$GPGSV,3,3,11,24,18,196,15,31,06,315,,15,01,167,21*49
$GPRMC,114117.000,A,2509.4360,N,05513.8489,E,0.03,91.50,210715,,,D*56
$GPGGA,114118.000,2509.4360,N,05513.8489,E,2,7,1.19,-2.2,M,-26.7,M,0000,0000*5E
$GPGSA,A,3,12,24,25,05,20,29,21,,,,,,1.52,1.19,0.95*0C

$GPRMC,114118.000,A,2509.4360,N,05513.8489,E,0.03,91.50,210715,,,D*59
$GPGGA,114119.000,2509.4360,N,05513.8489,E,2,8,1.01,-2.2,M,-26.7,M,0000,0000*59
$GPGSA,A,3,12,24,25,05,02,20,29,21,,,,,1.35,1.01,0.90*03
$GPRMC,114119.000,A,2509.4360,N,05513.8489,E,0.02,91.50,210715,,,D*59
$GPGGA,114120.000,2509.4360,N,05513.8489,E,2,8,1.01,-2.2,M,-26.7,M,0000,0000*53
$GPGSA,A,3,12,24,25,05,02,20,29,21,,,,,1.35,1.01,0.90*03
$GPRMC,114120.000,A,2509.4360,N,05513.8489,E,0.01,91.50,210715,,,D*50
$GPGGA,114121.000,2509.4360,N,05513.8489,E,2,7,1.19,-2.2,M,-26.7,M,0000,0000*54
$GPGSA,A,3,12,24,25,05,20,29,21,,,,,,1.52,1.19,0.95*0C
$GPRMC,114121.000,A,2509.4360,N,05513.8489,E,0.00,91.50,210715,,,D*50
$GPGGA,114122.000,2509.4360,N,05513.8489,E,2,7,1.19,-2.2,M,-26.7,M,0000,0000*57
$GPGSA,A,3,12,24,25,05,20,29,21,,,,,,1.52,1.19,0.95*0C
$GPGSV,3,1,11,12,76,128,13,25,61,322,37,05,51,097,26,39,45,233,38*7E
$GPGSV,3,2,11,20,39,176,28,02,36,036,17,29,35,315,48,21,21,242,46*7E
$GPGSV,3,3,11,24,18,196,17,31,06,315,,15,01,167,17*4E
$GPRMC,114122.000,A,2509.4360,N,05513.8489,E,0.02,91.50,210715,,,D*51
$GPGGA,114123.000,2509.4360,N,05513.8489,E,2,7,1.19,-2.2,M,-26.7,M,0000,0000*56
$GPGSA,A,3,12,24,25,05,20,29,21,,,,,,1.52,1.19,0.95*0C
$GPRMC,114123.000,A,2509.4360,N,05513.8489,E,0.02,91.50,210715,,,D*50
$GPGGA,114124.000,2509.4360,N,05513.8489,E,2,7,1.19,-2.2,M,-26.7,M,0000,0000*51
$GPGSA,A,3,12,24,25,05,20,29,21,,,,,,1.52,1.19,0.95*0C
$GPRMC,114124.000,A,2509.4360,N,05513.8489,E,0.03,91.50,210715,,,D*56
$GPGGA,114125.000,2509.4360,N,05513.8489,E,2,7,1.19,-2.1,M,-26.7,M,0000,0000*53
$GPGSA,A,3,12,24,25,05,20,29,21,,,,,,1.52,1.19,0.95*0C
$GPRMC,114125.000,A,2509.4360,N,05513.8489,E,0.01,91.50,210715,,,D*55
$GPGGA,114126.000,2509.4360,N,05513.8489,E,2,7,1.19,-2.1,M,-26.7,M,0000,0000*50
$GPGSA,A,3,12,24,25,05,20,29,21,,,,,,1.52,1.19,0.95*0C
$GPRMC,114126.000,A,2509.4360,N,05513.8489,E,0.03,91.50,210715,,,D*54
1437478886-GSM_CMD : DAABFE7481229CDB668EA6D5ECEBFBE7DB759BA152122696B2E407735
8119C9F36B306D262D605933D7D26F7BB87A150
$GPGGA,114127.000,2509.4360,N,05513.8489,E,2,7,1.19,-2.1,M,-26.7,M,0000,0000*51
1437478886-GSM_CMD : 6EE374611BF17D6A601AB84CF02DCB2B
1437478886-GSM_CMD : 8FBC5E681E6612795151A2185DFB312E8A75452E8399F50BC1A047A0A
9778613
1437478886-GSM_CMD : 89AEF8759BEC683D378C919BD0F63020
1437478886-GSM_CMD : 82626DAA07F7E8CC3D8841A5C229E5345E59DF42BC8833040F0F3FAA1
095290D
1437478886-GSM_CMD : 4FC9642A6C9F2589BEE9F4C5D515558F9C371193F4DEFB2527833ED65
CAC591242C00188CC77A1047B107B5786BEE355747F604E47808CEB0733012F10E166A8931B12978
4CF3E2C56580D28C1BFC0F7
1437478886-GSM_CMD : D3028ACA6FA35E58A74A6D172B44A54481990FBA1E42826BD24A2D68C
3CFD7879842584034AF04F50FD2E2DAFE08D4D70AE0DB6E5CE4F0CA7A3F54EEF2A982A508A6662EE
32D721199AF5A6EECDFF11AF0D49D9BCF8C3DEBD8643A8ACD41F652
1437478886-GSM_CMD : ACFFACECFED22AD218F705B02636F8F5BFD1845285D61003133515887
FEFAE43770ACDCC6C86EB4C4F7DFDE81EACF5E9906A5E8203F1AE9D44650D06090F6D4D
$GPGSA,A,3,12,24,25,05,20,29,21,,,,,,1.52,1.19,0.95*0C
1437478886-GSM_CMD : 0A2241D8C540D921172F7EF41B5395CA6BE233373A5B3967938042689
E24634A8A76D6D1B0D158D77F264D5A67581C7F9E6EB6E9515E7A09AF6C49549DB36D11
1437478886-GSM_CMD : 76FFDD92002BF9E2C19BDE811EC200429454AE04F6F793F87C9DDC076
65AD6D419D94C0A2D866BEDAC7301378B11EEB451D61EE00C50CEE48E8AF6D465C2A7D2
1437478886-GSM_CMD : 85CD5CC4CF99163925B27CDF2195C5A4BFD1845285D61003133515887
FEFAE43D69662EEB9FEAA97BD15E7234A641FDA51D61EE00C50CEE48E8AF6D465C2A7D2
1437478886-GSM_CMD : 63619F5DD4A40FF47540BDCCFD4410F09F2CED046FBF07D0447BB516E
F9193650F453258EF8EC3ACB33B8F7C59491E54676257618763E79866D1AA24DF0AA311
1437478886-GSM_CMD : E2036F957ABDED363964D12446DE1EBC9AA0C2A3B351CE550CC72E4FF
9BC39CD0256146B4E5F7A58E7A862E9B1053903676257618763E79866D1AA24DF0AA311
1437478886-GSM_CMD : 55D9AEC36FB9FB31A1F1526C85B589BB
$GPGSV,3,1,11,12,76,128,17,25,61,322,38,05,51,097,26,39,45,233,38*75
$GPGSV,3,2,11,20,39,176,27,02,36,036,12,29,35,315,48,21,21,242,46*74
$GPGSV,3,3,11,24,18,196,18,31,06,314,,15,01,167,17*40

$GPRMC,114127.000,A,2509.4360,N,05513.8489,E,0.03,91.50,210715,,,D*55
$GPGGA,114128.000,2509.4360,N,05513.8489,E,2,7,1.19,-2.1,M,-26.7,M,0000,0000*5E
$GPGSA,A,3,12,24,25,05,20,29,21,,,,,,1.52,1.19,0.95*0C
$GPRMC,114128.000,A,2509.4360,N,05513.8489,E,0.01,91.50,210715,,,D*58
$GPGGA,114129.000,2509.4360,N,05513.8489,E,2,7,1.19,-2.1,M,-26.7,M,0000,0000*5F
$GPGSA,A,3,12,24,25,05,20,29,21,,,,,,1.52,1.19,0.95*0C
$GPRMC,114129.000,A,2509.4360,N,05513.8489,E,0.01,91.50,210715,,,D*59
$GPGGA,114130.000,2509.4360,N,05513.8489,E,2,7,1.19,-2.1,M,-26.7,M,0000,0000*57
$GPGSA,A,3,12,24,25,05,20,29,21,,,,,,1.52,1.19,0.95*0C
$GPRMC,114130.000,A,2509.4360,N,05513.8489,E,0.01,91.50,210715,,,D*51
$GPGGA,114131.000,2509.4360,N,05513.8489,E,2,7,1.19,-2.1,M,-26.7,M,0000,0000*56
$GPGSA,A,3,12,24,25,05,20,29,21,,,,,,1.52,1.19,0.95*0C
$GPRMC,114131.000,A,2509.4360,N,05513.8489,E,0.01,91.50,210715,,,D*50
1437478891-TRAC
: Add TRAC_GPRS = 1
@P,085F,103,0,359551037902474,1437478891,1437478891,1437478891,55230806,25157268
,0,2,707,11,0,0,0,0,,-196,2000,
$GPGGA,114132.000,2509.4360,N,05513.8489,E,2,7,1.19,-2.1,M,-26.7,M,0000,0000*55
1437478891-GSM_CMD : 2D887E11A09BCE0DBD48B471B4CD4607
$GPGSA,A,3,12,24,25,05,20,29,21,,,,,,1.52,1.19,0.95*0C
$GPGSV,3,1,11,12,76,128,19,25,61,322,38,05,51,097,25,39,45,233,38*78
1437478891-GSM_DATA : Send GPRS Data => 4050F14E00330B22000147027FE48E8A55AE2FE
B55AE2FEB55AE2FEB034AC156017FDE94000002000002C3000B00000000000000FF3C07D000
1437478891-GSM_CMD : 55D9AEC36FB9FB31A1F1526C85B589BB
$GPGSV,3,2,11,20,39,176,26,02,36,036,17,29,35,315,48,21,21,242,46*70
$GPGSV,3,3,11,24,18,196,18,31,06,314,,15,01,167,17*40
$GPRMC,114132.000,A,2509.4360,N,05513.8489,E,0.01,91.50,210715,,,D*53
$GPGGA,114133.000,2509.4360,N,05513.8489,E,2,7,1.19,-2.1,M,-26.7,M,0000,0000*54
$GPGSA,A,3,12,24,25,05,20,29,21,,,,,,1.52,1.19,0.95*0C
1437478892-GSM_CMD : 4BF2B0ED6A317BBF34FDFB8875080138
$GPRMC,114133.000,A,2509.4360,N,05513.8489,E,0.03,91.50,210715,,,D*50
1437478893-GSM_CMD : 2081E4CDDC0EF27579842436C458D089
1437478893-GSM_CMD : F71EF9C7DDB536A9DE13A1994276C72D
1437478893-GSM_CMD : 1F57346402FE53B1D7D8DD2F6EEB91AE5160F48BDE5CE35354112C95F
F2CBFE2
1437478893-GSM_DATA : Receive GPRS Data => 0x[FE02000147027FE48E8A0B22]
1437478893-OUTGOING : [REPORT_QUEUEID] => receive SeqID=>2850
1437478893-GSM_CMD : 55D9AEC36FB9FB31A1F1526C85B589BB
$GPGGA,114134.000,2509.4360,N,05513.8489,E,2,7,1.19,-2.1,M,-26.7,M,0000,0000*53
$GPGSA,A,3,12,24,25,05,20,29,21,,,,,,1.52,1.19,0.95*0C
$GPRMC,114134.000,A,2509.4360,N,05513.8489,E,0.04,91.50,210715,,,D*50
$GPGGA,114135.000,2509.4360,N,05513.8489,E,2,7,1.19,-2.1,M,-26.7,M,0000,0000*52
$GPGSA,A,3,12,24,25,05,20,29,21,,,,,,1.52,1.19,0.95*0C
$GPRMC,114135.000,A,2509.4360,N,05513.8489,E,0.03,91.50,210715,,,D*56
$GPGGA,114136.000,2509.4360,N,05513.8489,E,2,7,1.19,-2.1,M,-26.7,M,0000,0000*51
$GPGSA,A,3,12,24,25,05,20,29,21,,,,,,1.52,1.19,0.95*0C
$GPRMC,114136.000,A,2509.4360,N,05513.8489,E,0.02,91.50,210715,,,D*54
$GPGGA,114137.000,2509.4360,N,05513.8489,E,2,8,1.01,-2.1,M,-26.7,M,0000,0000*56
$GPGSA,A,3,12,24,25,05,02,20,29,21,,,,,1.35,1.01,0.89*0B
$GPGSV,3,1,11,12,76,128,22,25,61,322,38,05,51,097,25,39,45,233,38*70
$GPGSV,3,2,11,20,39,176,26,02,36,036,18,29,35,315,48,21,21,242,46*7F
$GPGSV,3,3,11,24,18,196,18,31,06,314,,15,01,167,16*41
$GPRMC,114137.000,A,2509.4360,N,05513.8489,E,0.02,91.50,210715,,,D*55
$GPGGA,114138.000,2509.4360,N,05513.8489,E,2,8,1.01,-2.1,M,-26.7,M,0000,0000*59
$GPGSA,A,3,12,24,25,05,02,20,29,21,,,,,1.35,1.01,0.89*0B
$GPRMC,114138.000,A,2509.4360,N,05513.8489,E,0.00,91.50,210715,,,D*58
$GPGGA,114139.000,2509.4360,N,05513.8489,E,2,8,1.01,-2.1,M,-26.7,M,0000,0000*58
$GPGSA,A,3,12,24,25,05,02,20,29,21,,,,,1.35,1.01,0.89*0B
$GPRMC,114139.000,A,2509.4360,N,05513.8489,E,0.01,91.50,210715,,,D*58
$GPGGA,114140.000,2509.4360,N,05513.8489,E,2,8,1.01,-2.1,M,-26.7,M,0000,0000*56
$GPGSA,A,3,12,24,25,05,02,20,29,21,,,,,1.35,1.01,0.89*0B

$GPRMC,114140.000,A,2509.4360,N,05513.8489,E,0.02,91.50,210715,,,D*55
$GPGGA,114141.000,2509.4360,N,05513.8489,E,2,8,1.01,-2.1,M,-26.7,M,0000,0000*57
$GPGSA,A,3,12,24,25,05,02,20,29,21,,,,,1.35,1.01,0.89*0B
$GPRMC,114141.000,A,2509.4360,N,05513.8489,E,0.03,91.50,210715,,,D*55
$GPGGA,114142.000,2509.4360,N,05513.8489,E,2,8,1.01,-2.1,M,-26.7,M,0000,0000*54
$GPGSA,A,3,12,24,25,05,02,20,29,21,,,,,1.35,1.01,0.89*0B
$GPGSV,3,1,11,12,76,129,27,25,61,322,38,05,51,097,24,39,45,233,38*75
$GPGSV,3,2,11,20,39,176,26,02,36,036,19,29,35,315,48,21,21,242,47*7F
$GPGSV,3,3,11,24,18,196,18,31,06,314,,15,01,166,18*4E
$GPRMC,114142.000,A,2509.4360,N,05513.8489,E,0.01,91.50,210715,,,D*54
$GPGGA,114143.000,2509.4360,N,05513.8489,E,2,8,1.01,-2.1,M,-26.7,M,0000,0000*55
$GPGSA,A,3,12,24,25,05,02,20,29,21,,,,,1.35,1.01,0.89*0B
$GPRMC,114143.000,A,2509.4360,N,05513.8489,E,0.02,91.50,210715,,,D*56
$GPGGA,114144.000,2509.4360,N,05513.8489,E,2,8,1.01,-2.1,M,-26.7,M,0000,0000*52
$GPGSA,A,3,12,24,25,05,02,20,29,21,,,,,1.35,1.01,0.89*0B
$GPRMC,114144.000,A,2509.4360,N,05513.8489,E,0.00,91.50,210715,,,D*53
$GPGGA,114145.000,2509.4360,N,05513.8489,E,2,8,1.01,-2.1,M,-26.7,M,0000,0000*53
$GPGSA,A,3,12,24,25,05,02,20,29,21,,,,,1.35,1.01,0.89*0B
$GPRMC,114145.000,A,2509.4360,N,05513.8489,E,0.01,91.50,210715,,,D*53
$GPGGA,114146.000,2509.4360,N,05513.8489,E,2,8,1.01,-2.1,M,-26.7,M,0000,0000*50
$GPGSA,A,3,12,24,25,05,02,20,29,21,,,,,1.35,1.01,0.89*0B
$GPRMC,114146.000,A,2509.4360,N,05513.8489,E,0.01,91.50,210715,,,D*50
$GPGGA,114147.000,2509.4360,N,05513.8489,E,2,8,1.01,-2.1,M,-26.7,M,0000,0000*51
$GPGSA,A,3,12,24,25,05,02,20,29,21,,,,,1.35,1.01,0.89*0B
$GPGSV,3,1,11,12,76,129,26,25,61,322,38,05,51,097,22,39,45,233,38*72
$GPGSV,3,2,11,20,39,176,26,02,36,036,19,29,35,315,48,21,21,242,47*7F
$GPGSV,3,3,11,24,18,196,19,31,06,314,,15,01,166,18*4F
$GPRMC,114147.000,A,2509.4360,N,05513.8489,E,0.02,91.50,210715,,,D*52
$GPGGA,114148.000,2509.4360,N,05513.8489,E,2,8,1.01,-2.1,M,-26.7,M,0000,0000*5E
$GPGSA,A,3,12,24,25,05,02,20,29,21,,,,,1.35,1.01,0.89*0B
$GPRMC,114148.000,A,2509.4360,N,05513.8489,E,0.04,91.50,210715,,,D*5B
$GPGGA,114149.000,2509.4360,N,05513.8489,E,2,8,1.01,-2.1,M,-26.7,M,0000,0000*5F
$GPGSA,A,3,12,24,25,05,02,20,29,21,,,,,1.35,1.01,0.89*0B
$GPRMC,114149.000,A,2509.4360,N,05513.8489,E,0.03,91.50,210715,,,D*5D
$GPGGA,114150.000,2509.4360,N,05513.8489,E,2,8,1.01,-2.1,M,-26.7,M,0000,0000*57
$GPGSA,A,3,12,24,25,05,02,20,29,21,,,,,1.35,1.01,0.89*0B
$GPRMC,114150.000,A,2509.4360,N,05513.8489,E,0.01,91.50,210715,,,D*57
$GPGGA,114151.000,2509.4360,N,05513.8489,E,2,8,1.01,-2.1,M,-26.7,M,0000,0000*56
$GPGSA,A,3,12,24,25,05,02,20,29,21,,,,,1.35,1.01,0.89*0B
$GPRMC,114151.000,A,2509.4360,N,05513.8489,E,0.01,91.50,210715,,,D*56
$GPGGA,114152.000,2509.4360,N,05513.8489,E,2,8,1.01,-2.1,M,-26.7,M,0000,0000*55
$GPGSA,A,3,12,24,25,05,02,20,29,21,,,,,1.35,1.01,0.89*0B
$GPGSV,3,1,11,12,76,129,26,25,61,322,38,05,51,097,18,39,45,233,38*7B
$GPGSV,3,2,11,20,39,176,25,02,36,036,20,29,35,315,48,21,21,242,47*76
$GPGSV,3,3,11,24,17,196,22,31,06,314,,15,01,166,17*47
$GPRMC,114152.000,A,2509.4360,N,05513.8489,E,0.02,91.50,210715,,,D*56
$GPGGA,114153.000,2509.4360,N,05513.8489,E,2,8,1.10,-2.1,M,-26.7,M,0000,0000*54
$GPGSA,A,3,12,24,25,05,02,20,29,21,,,,,2.28,1.10,2.00*07
$GPRMC,114153.000,A,2509.4360,N,05513.8489,E,0.02,91.50,210715,,,D*57
$GPGGA,114154.000,2509.4360,N,05513.8489,E,2,8,1.10,-2.1,M,-26.7,M,0000,0000*53
$GPGSA,A,3,12,24,25,05,02,20,29,21,,,,,2.28,1.10,1.99*04
$GPRMC,114154.000,A,2509.4360,N,05513.8489,E,0.02,91.50,210715,,,D*50
$GPGGA,114155.000,2509.4360,N,05513.8489,E,2,8,1.01,-2.1,M,-26.7,M,0000,0000*52
$GPGSA,A,3,12,24,25,05,02,20,29,21,,,,,1.35,1.01,0.89*0B
$GPRMC,114155.000,A,2509.4360,N,05513.8489,E,0.02,91.50,210715,,,D*51
$GPGGA,114156.000,2509.4360,N,05513.8489,E,2,8,1.01,-2.1,M,-26.7,M,0000,0000*51
$GPGSA,A,3,12,24,25,05,02,20,29,21,,,,,1.35,1.01,0.89*0B
$GPRMC,114156.000,A,2509.4360,N,05513.8489,E,0.04,91.50,210715,,,D*54
$GPGGA,114157.000,2509.4360,N,05513.8489,E,2,8,1.10,-2.1,M,-26.7,M,0000,0000*50
1437478916-GSM_CMD : DAABFE7481229CDB668EA6D5ECEBFBE7DB759BA152122696B2E407735

8119C9F36B306D262D605933D7D26F7BB87A150
1437478916-GSM_CMD : 9B509D41BAB92007AE84EFE43CA343E3
1437478916-GSM_CMD : 8FBC5E681E6612795151A2185DFB312E8A75452E8399F50BC1A047A0A
9778613
1437478916-GSM_CMD : 89AEF8759BEC683D378C919BD0F63020
1437478916-GSM_CMD : 82626DAA07F7E8CC3D8841A5C229E5345E59DF42BC8833040F0F3FAA1
095290D
$GPGSA,A,3,12,24,25,05,02,20,29,21,,,,,2.28,1.10,1.99*04
1437478916-GSM_CMD : 4FC9642A6C9F2589BEE9F4C5D515558F9C371193F4DEFB2527833ED65
CAC591242C00188CC77A1047B107B5786BEE355747F604E47808CEB0733012F10E166A8931B12978
4CF3E2C56580D28C1BFC0F7
1437478916-GSM_CMD : D3028ACA6FA35E58A74A6D172B44A54481990FBA1E42826BD24A2D68C
3CFD787FA37D2604AAAF179A04092CCAA65A322F5BD486AA32302B5192B362BB137D03108A6662EE
32D721199AF5A6EECDFF11AF0D49D9BCF8C3DEBD8643A8ACD41F652
1437478916-GSM_CMD : ACFFACECFED22AD218F705B02636F8F5BFD1845285D61003133515887
FEFAE43B25021AC57E7392A65BD0AFB9AC63FC67400DD634D70C62274DD2D0E2C9ADD2D
1437478916-GSM_CMD : 0A2241D8C540D921172F7EF41B5395CA6BE233373A5B3967938042689
E24634ADAC71B81488F1E6287E7EC409519DFAA68D1318B4652B89083B1D6ABF5904D87
1437478916-GSM_CMD : 76FFDD92002BF9E2C19BDE811EC200429454AE04F6F793F87C9DDC076
65AD6D419D94C0A2D866BEDAC7301378B11EEB451D61EE00C50CEE48E8AF6D465C2A7D2
1437478916-GSM_CMD : 85CD5CC4CF99163925B27CDF2195C5A4BFD1845285D61003133515887
FEFAE4366A51072FEA9C760CEEF6E8C516DE07EBE8B7A59CFBEF40DB68A8371F2FAFB56
1437478916-GSM_CMD : 63619F5DD4A40FF47540BDCCFD4410F09F2CED046FBF07D0447BB516E
F9193650F453258EF8EC3ACB33B8F7C59491E54676257618763E79866D1AA24DF0AA311
$GPGSV,3,1,11,12,76,129,27,25,61,322,38,05,51,097,13,39,45,233,38*71
1437478916-GSM_CMD : E2036F957ABDED363964D12446DE1EBC9AA0C2A3B351CE550CC72E4FF
9BC39CDBA433DB6F0F70F1A235C1179363F1CAA0A25D7998BB010B75358F79132E34BD0
1437478916-GSM_CMD : 55D9AEC36FB9FB31A1F1526C85B589BB
$GPGSV,3,2,11,20,39,176,24,02,36,036,20,29,35,316,48,21,21,242,47*74
$GPGSV,3,3,11,24,17,196,24,31,06,314,,15,01,166,15*43
$GPRMC,114157.000,A,2509.4360,N,05513.8489,E,0.04,91.50,210715,,,D*55
$GPGGA,114158.000,2509.4360,N,05513.8489,E,2,8,1.10,-2.1,M,-26.7,M,0000,0000*5F
$GPGSA,A,3,12,24,25,05,02,20,29,21,,,,,2.27,1.10,1.99*0B
$GPRMC,114158.000,A,2509.4360,N,05513.8489,E,0.02,91.50,210715,,,D*5C
$GPGGA,114159.000,2509.4360,N,05513.8489,E,2,8,1.10,-2.1,M,-26.7,M,0000,0000*5E
$GPGSA,A,3,12,24,25,05,02,20,29,21,,,,,2.27,1.10,1.99*0B
$GPRMC,114159.000,A,2509.4360,N,05513.8489,E,0.00,91.50,210715,,,D*5F
$GPGGA,114200.000,2509.4360,N,05513.8489,E,2,8,1.10,-2.1,M,-26.7,M,0000,0000*51
$GPGSA,A,3,12,24,25,05,02,20,29,21,,,,,2.28,1.10,1.99*04
$GPRMC,114200.000,A,2509.4360,N,05513.8489,E,0.01,91.50,210715,,,D*51
$GPGGA,114201.000,2509.4360,N,05513.8489,E,2,7,1.17,-2.1,M,-26.7,M,0000,0000*58
$GPGSA,A,3,12,24,25,05,02,29,21,,,,,,2.33,1.17,2.01*09
$GPRMC,114201.000,A,2509.4360,N,05513.8489,E,0.00,91.50,210715,,,D*51
1437478921-TRAC
: Add TRAC_GPRS = 1
@P,B012,103,0,359551037902474,1437478921,1437478921,1437478921,55230806,25157268
,0,2,707,11,0,0,0,0,,-196,2000,
$GPGGA,114202.000,2509.4360,N,05513.8489,E,2,7,1.17,-2.1,M,-26.7,M,0000,0000*5B
$GPGSA,A,3,12,24,25,05,02,29,21,,,,,,2.33,1.17,2.01*09
1437478921-GSM_CMD : 2D887E11A09BCE0DBD48B471B4CD4607
$GPGSV,3,1,11,12,76,129,27,25,61,322,39,05,51,097,15,39,45,233,38*76
$GPGSV,3,2,11,20,39,176,23,02,36,036,19,29,35,316,48,21,21,242,47*79
1437478921-GSM_DATA : Send GPRS Data => 405052E100330B23000147027FE48E8A55AE300
955AE300955AE3009034AC156017FDE94000002000002C3000B00000000000000FF3C07D000
1437478921-GSM_CMD : 55D9AEC36FB9FB31A1F1526C85B589BB
$GPGSV,3,3,11,24,17,196,25,31,06,314,,15,01,166,12*45
$GPRMC,114202.000,A,2509.4360,N,05513.8489,E,0.02,91.50,210715,,,D*50
$GPGGA,114203.000,2509.4360,N,05513.8489,E,2,8,1.01,-2.1,M,-26.7,M,0000,0000*52
$GPGSA,A,3,12,24,25,05,02,20,29,21,,,,,1.35,1.01,0.89*0B
1437478922-GSM_CMD : 4BF2B0ED6A317BBF34FDFB8875080138
$GPRMC,114203.000,A,2509.4360,N,05513.8489,E,0.02,91.50,210715,,,D*51

1437478923-GSM_CMD : 2081E4CDDC0EF27579842436C458D089
1437478923-GSM_CMD : F71EF9C7DDB536A9DE13A1994276C72D
1437478923-GSM_CMD : 1F57346402FE53B1D7D8DD2F6EEB91AE43C285D98996D997BDD1A189D
018184D
1437478923-GSM_DATA : Receive GPRS Data => 0x[FE02000147027FE48E8A0B23]
1437478923-OUTGOING : [REPORT_QUEUEID] => receive SeqID=>2851
1437478923-GSM_CMD : 55D9AEC36FB9FB31A1F1526C85B589BB
$GPGGA,114204.000,2509.4360,N,05513.8489,E,2,7,1.17,-2.1,M,-26.7,M,0000,0000*5D
$GPGSA,A,3,12,24,25,05,02,29,21,,,,,,2.33,1.17,2.01*09
$GPRMC,114204.000,A,2509.4360,N,05513.8489,E,0.01,91.50,210715,,,D*55
$GPGGA,114205.000,2509.4360,N,05513.8489,E,2,7,1.08,-2.1,M,-26.7,M,0000,0000*52
$GPGSA,A,3,12,24,25,05,02,29,21,,,,,,1.41,1.08,0.90*0B
$GPRMC,114205.000,A,2509.4360,N,05513.8489,E,0.01,91.50,210715,,,D*54
$GPGGA,114206.000,2509.4360,N,05513.8489,E,2,7,1.17,-2.1,M,-26.7,M,0000,0000*5F
$GPGSA,A,3,12,24,25,05,02,29,21,,,,,,2.33,1.17,2.01*09
$GPRMC,114206.000,A,2509.4360,N,05513.8489,E,0.02,91.50,210715,,,D*54
$GPGGA,114207.000,2509.4360,N,05513.8489,E,2,7,1.17,-2.1,M,-26.7,M,0000,0000*5E
$GPGSA,A,3,12,24,25,05,02,29,21,,,,,,2.33,1.17,2.01*09
$GPGSV,3,1,11,12,76,129,29,25,61,322,39,05,51,096,20,39,45,233,38*7F
$GPGSV,3,2,11,20,39,176,23,29,35,316,48,02,35,037,18,21,21,242,47*7A
$GPGSV,3,3,11,24,17,196,24,31,06,314,,15,01,166,13*45
$GPRMC,114207.000,A,2509.4360,N,05513.8489,E,0.02,91.50,210715,,,D*55
$GPGGA,114208.000,2509.4360,N,05513.8489,E,2,8,1.10,-2.1,M,-26.7,M,0000,0000*59
$GPGSA,A,3,12,24,25,05,02,20,29,21,,,,,2.27,1.10,1.99*0B
$GPRMC,114208.000,A,2509.4360,N,05513.8489,E,0.01,91.50,210715,,,D*59
$GPGGA,114209.000,2509.4360,N,05513.8489,E,2,8,1.10,-2.1,M,-26.7,M,0000,0000*58
$GPGSA,A,3,12,24,25,05,02,20,29,21,,,,,2.27,1.10,1.99*0B
$GPRMC,114209.000,A,2509.4360,N,05513.8489,E,0.01,91.50,210715,,,D*58
$GPGGA,114210.000,2509.4360,N,05513.8489,E,2,8,1.10,-2.1,M,-26.7,M,0000,0000*50
$GPGSA,A,3,12,24,25,05,02,20,29,21,,,,,2.27,1.10,1.99*0B
$GPRMC,114210.000,A,2509.4360,N,05513.8489,E,0.02,91.50,210715,,,D*53
$GPGGA,114211.000,2509.4360,N,05513.8489,E,2,7,1.17,-2.1,M,-26.7,M,0000,0000*59
$GPGSA,A,3,12,24,25,05,02,29,21,,,,,,2.32,1.17,2.01*08
$GPRMC,114211.000,A,2509.4360,N,05513.8489,E,0.02,91.50,210715,,,D*52
$GPGGA,114212.000,2509.4360,N,05513.8489,E,2,7,1.17,-2.1,M,-26.7,M,0000,0000*5A
$GPGSA,A,3,12,24,25,05,02,29,21,,,,,,2.32,1.17,2.01*08
$GPGSV,3,1,11,12,76,129,28,25,61,322,39,05,51,096,21,39,45,233,38*7F
$GPGSV,3,2,11,20,39,176,24,29,35,316,48,02,35,037,18,21,21,242,47*7D
$GPGSV,3,3,11,24,17,196,24,31,06,314,,15,01,166,14*42
$GPRMC,114212.000,A,2509.4360,N,05513.8489,E,0.01,91.50,210715,,,D*52
$GPGGA,114213.000,2509.4360,N,05513.8489,E,2,7,1.17,-2.1,M,-26.7,M,0000,0000*5B
$GPGSA,A,3,12,24,25,05,02,29,21,,,,,,2.32,1.17,2.01*08
$GPRMC,114213.000,A,2509.4360,N,05513.8489,E,0.01,91.50,210715,,,D*53
$GPGGA,114214.000,2509.4360,N,05513.8489,E,2,7,1.17,-2.1,M,-26.7,M,0000,0000*5C
$GPGSA,A,3,12,24,25,05,02,29,21,,,,,,2.32,1.17,2.01*08
$GPRMC,114214.000,A,2509.4360,N,05513.8489,E,0.01,91.50,210715,,,D*54
$GPGGA,114215.000,2509.4360,N,05513.8489,E,2,8,1.10,-2.1,M,-26.7,M,0000,0000*55
$GPGSA,A,3,12,24,25,05,02,20,29,21,,,,,2.27,1.10,1.98*0A
$GPRMC,114215.000,A,2509.4360,N,05513.8489,E,0.01,91.50,210715,,,D*55
$GPGGA,114216.000,2509.4360,N,05513.8489,E,2,8,1.10,-2.1,M,-26.7,M,0000,0000*56
$GPGSA,A,3,12,24,25,05,02,20,29,21,,,,,2.27,1.10,1.98*0A
$GPRMC,114216.000,A,2509.4360,N,05513.8489,E,0.01,91.50,210715,,,D*56
$GPGGA,114217.000,2509.4360,N,05513.8489,E,2,7,1.17,-2.1,M,-26.7,M,0000,0000*5F
$GPGSA,A,3,12,24,25,05,02,29,21,,,,,,2.32,1.17,2.01*08
$GPGSV,3,1,11,12,75,129,26,25,61,322,39,05,51,096,21,39,45,233,38*72
$GPGSV,3,2,11,20,39,176,22,29,35,316,48,02,35,037,18,21,21,242,47*7B
$GPGSV,3,3,11,24,17,196,24,31,06,314,,15,01,166,14*42
$GPRMC,114217.000,A,2509.4360,N,05513.8489,E,0.03,91.50,210715,,,D*55
$GPGGA,114218.000,2509.4360,N,05513.8489,E,2,7,1.17,-2.1,M,-26.7,M,0000,0000*50
$GPGSA,A,3,12,24,25,05,02,29,21,,,,,,2.32,1.17,2.01*08

$GPRMC,114218.000,A,2509.4360,N,05513.8489,E,0.01,91.50,210715,,,D*58
$GPGGA,114219.000,2509.4360,N,05513.8489,E,2,7,1.17,-2.1,M,-26.7,M,0000,0000*51
$GPGSA,A,3,12,24,25,05,02,29,21,,,,,,2.32,1.17,2.00*09
$GPRMC,114219.000,A,2509.4360,N,05513.8489,E,0.01,91.50,210715,,,D*59
$GPGGA,114220.000,2509.4360,N,05513.8489,E,2,7,1.17,-2.1,M,-26.7,M,0000,0000*5B
$GPGSA,A,3,12,24,25,05,02,29,21,,,,,,2.32,1.17,2.00*09
$GPRMC,114220.000,A,2509.4360,N,05513.8489,E,0.00,91.50,210715,,,D*52
$GPGGA,114221.000,2509.4360,N,05513.8489,E,2,7,1.17,-2.1,M,-26.7,M,0000,0000*5A
$GPGSA,A,3,12,24,25,05,02,29,21,,,,,,2.32,1.17,2.00*09
$GPRMC,114221.000,A,2509.4360,N,05513.8489,E,0.02,91.50,210715,,,D*51
$GPGGA,114222.000,2509.4360,N,05513.8489,E,2,7,1.17,-2.1,M,-26.7,M,0000,0000*59
$GPGSA,A,3,12,24,25,05,02,29,21,,,,,,2.32,1.17,2.00*09
$GPGSV,3,1,11,12,75,129,26,25,61,322,39,05,51,096,21,39,45,233,38*72
$GPGSV,3,2,11,20,39,176,21,29,35,316,48,02,35,037,18,21,21,242,47*78
$GPGSV,3,3,11,24,17,196,24,31,06,314,,15,01,166,16*40
$GPRMC,114222.000,A,2509.4360,N,05513.8489,E,0.01,91.50,210715,,,D*51
$GPGGA,114223.000,2509.4360,N,05513.8489,E,2,7,1.17,-2.1,M,-26.7,M,0000,0000*58
$GPGSA,A,3,12,24,25,05,02,29,21,,,,,,2.32,1.17,2.00*09
$GPRMC,114223.000,A,2509.4360,N,05513.8489,E,0.02,91.50,210715,,,D*53
$GPGGA,114224.000,2509.4360,N,05513.8489,E,2,7,1.17,-2.1,M,-26.7,M,0000,0000*5F
$GPGSA,A,3,12,24,25,05,02,29,21,,,,,,2.32,1.17,2.00*09
$GPRMC,114224.000,A,2509.4360,N,05513.8489,E,0.02,91.50,210715,,,D*54
$GPGGA,114225.000,2509.4360,N,05513.8489,E,2,7,1.08,-2.1,M,-26.7,M,0000,0000*50
$GPGSA,A,3,12,24,25,05,02,29,21,,,,,,1.40,1.08,0.89*02
$GPRMC,114225.000,A,2509.4360,N,05513.8489,E,0.02,91.50,210715,,,D*55
$GPGGA,114226.000,2509.4360,N,05513.8489,E,2,7,1.17,-2.1,M,-26.7,M,0000,0000*5D
$GPGSA,A,3,12,24,25,05,02,29,21,,,,,,2.32,1.17,2.00*09
$GPRMC,114226.000,A,2509.4360,N,05513.8489,E,0.03,91.50,210715,,,D*57
$GPGGA,114227.000,2509.4360,N,05513.8489,E,2,7,1.17,-2.1,M,-26.7,M,0000,0000*5C
$GPGSA,A,3,12,24,25,05,02,29,21,,,,,,2.32,1.17,2.00*09
1437478946-GSM_CMD : DAABFE7481229CDB668EA6D5ECEBFBE7DB759BA152122696B2E407735
8119C9F36B306D262D605933D7D26F7BB87A150
1437478946-GSM_CMD : 9B509D41BAB92007AE84EFE43CA343E3
1437478946-GSM_CMD : 8FBC5E681E6612795151A2185DFB312E8A75452E8399F50BC1A047A0A
9778613
1437478946-GSM_CMD : 89AEF8759BEC683D378C919BD0F63020
1437478946-GSM_CMD : 82626DAA07F7E8CC3D8841A5C229E5345E59DF42BC8833040F0F3FAA1
095290D
$GPGSV,3,1,11,12,75,129,23,25,62,322,39,05,51,096,21,39,45,233,38*74
1437478946-GSM_CMD : 4FC9642A6C9F2589BEE9F4C5D515558F9C371193F4DEFB2527833ED65
CAC591242C00188CC77A1047B107B5786BEE355747F604E47808CEB0733012F10E166A8931B12978
4CF3E2C56580D28C1BFC0F7
1437478946-GSM_CMD : D3028ACA6FA35E58A74A6D172B44A54481990FBA1E42826BD24A2D68C
3CFD787FA37D2604AAAF179A04092CCAA65A322F5BD486AA32302B5192B362BB137D03108A6662EE
32D721199AF5A6EECDFF11AF0D49D9BCF8C3DEBD8643A8ACD41F652
1437478946-GSM_CMD : ACFFACECFED22AD218F705B02636F8F5BFD1845285D61003133515887
FEFAE43B25021AC57E7392A65BD0AFB9AC63FC67400DD634D70C62274DD2D0E2C9ADD2D
1437478946-GSM_CMD : 0A2241D8C540D921172F7EF41B5395CA6BE233373A5B3967938042689
E24634AB271E05EF76C5FCED5CD57CCE0BC68A37400DD634D70C62274DD2D0E2C9ADD2D
1437478946-GSM_CMD : 76FFDD92002BF9E2C19BDE811EC200429454AE04F6F793F87C9DDC076
65AD6D4D65B14239BB67AC738ABF4C1B111C8CF5631D688643BF3FD558F0042F110D414
$GPGSV,3,2,11,20,39,176,20,29,35,316,48,02,35,037,16,21,21,242,47*77
1437478946-GSM_CMD : 85CD5CC4CF99163925B27CDF2195C5A4BFD1845285D61003133515887
FEFAE4366A51072FEA9C760CEEF6E8C516DE07EBE8B7A59CFBEF40DB68A8371F2FAFB56
1437478946-GSM_CMD : 63619F5DD4A40FF47540BDCCFD4410F09F2CED046FBF07D0447BB516E
F919365649278CEF3BCEDB02565B1689B7AE8860A25D7998BB010B75358F79132E34BD0
1437478946-GSM_CMD : E2036F957ABDED363964D12446DE1EBC9AA0C2A3B351CE550CC72E4FF
9BC39CDBA433DB6F0F70F1A235C1179363F1CAA0A25D7998BB010B75358F79132E34BD0
1437478946-GSM_CMD : 55D9AEC36FB9FB31A1F1526C85B589BB
$GPGSV,3,3,11,24,17,195,23,31,06,314,,15,01,166,14*46

$GPRMC,114227.000,A,2509.4360,N,05513.8489,E,0.00,91.50,210715,,,D*55
$GPGGA,114228.000,2509.4360,N,05513.8489,E,2,7,1.17,-2.1,M,-26.7,M,0000,0000*53
$GPGSA,A,3,12,24,25,05,02,29,21,,,,,,2.32,1.17,2.00*09
$GPRMC,114228.000,A,2509.4360,N,05513.8489,E,0.01,91.50,210715,,,D*5B
$GPGGA,114229.000,2509.4360,N,05513.8489,E,2,7,1.08,-2.1,M,-26.7,M,0000,0000*5C
$GPGSA,A,3,12,24,25,05,02,29,21,,,,,,1.40,1.08,0.89*02
$GPRMC,114229.000,A,2509.4360,N,05513.8489,E,0.01,91.50,210715,,,D*5A
$GPGGA,114230.000,2509.4360,N,05513.8489,E,2,6,1.25,-2.1,M,-26.7,M,0000,0000*5A
$GPGSA,A,3,12,24,25,05,29,21,,,,,,,1.57,1.25,0.95*04
$GPRMC,114230.000,A,2509.4360,N,05513.8489,E,0.03,91.50,210715,,,D*50
$GPGGA,114231.000,2509.4360,N,05513.8489,E,2,7,1.08,-2.1,M,-26.7,M,0000,0000*55
$GPGSA,A,3,12,24,25,05,02,29,21,,,,,,1.40,1.08,0.89*02
$GPRMC,114231.000,A,2509.4360,N,05513.8489,E,0.03,91.50,210715,,,D*51
1437478951-TRAC
: Add TRAC_GPRS = 1
@P,CAA2,103,0,359551037902474,1437478951,1437478951,1437478951,55230806,25157268
,0,2,707,10,0,0,0,0,,-195,2000,
$GPGGA,114232.000,2509.4360,N,05513.8489,E,2,7,1.08,-2.1,M,-26.7,M,0000,0000*56
$GPGSA,A,3,12,24,25,05,02,29,21,,,,,,1.40,1.08,0.89*02
$GPGSV,3,1,11,12,75,129,23,25,62,322,39,05,51,096,21,39,45,233,38*74
1437478951-GSM_CMD : 2D887E11A09BCE0DBD48B471B4CD4607
$GPGSV,3,2,11,20,39,176,21,29,35,316,48,02,35,037,17,21,21,242,47*77
$GPGSV,3,3,11,24,17,195,21,31,06,314,,15,01,166,*41
1437478951-GSM_DATA : Send GPRS Data => 405073BF00330B24000147027FE48E8A55AE302
755AE302755AE3027034AC156017FDE94000002000002C3000A00000000000000FF3D07D000
1437478951-GSM_CMD : 55D9AEC36FB9FB31A1F1526C85B589BB
$GPRMC,114232.000,A,2509.4360,N,05513.8489,E,0.02,91.50,210715,,,D*53
$GPGGA,114233.000,2509.4360,N,05513.8489,E,2,8,1.01,-2.1,M,-26.7,M,0000,0000*51
$GPGSA,A,3,12,24,25,05,02,20,29,21,,,,,1.35,1.01,0.89*0B
$GPRMC,114233.000,A,2509.4360,N,05513.8489,E,0.04,91.50,210715,,,D*54
1437478952-GSM_CMD : 4BF2B0ED6A317BBF34FDFB8875080138
1437478953-GSM_CMD : 2081E4CDDC0EF27579842436C458D089
1437478953-GSM_CMD : F71EF9C7DDB536A9DE13A1994276C72D
1437478953-GSM_CMD : 1F57346402FE53B1D7D8DD2F6EEB91AEF9AD0A7BF22080B07B821973D
F091251
1437478953-GSM_DATA : Receive GPRS Data => 0x[FE02000147027FE48E8A0B24]
1437478953-OUTGOING : [REPORT_QUEUEID] => receive SeqID=>2852
1437478953-GSM_CMD : 55D9AEC36FB9FB31A1F1526C85B589BB
$GPGGA,114234.000,2509.4360,N,05513.8489,E,2,8,1.01,-2.1,M,-26.7,M,0000,0000*56
$GPGSA,A,3,12,24,25,05,02,20,29,21,,,,,1.35,1.01,0.89*0B
$GPRMC,114234.000,A,2509.4360,N,05513.8489,E,0.03,91.50,210715,,,D*54
$GPGGA,114235.000,2509.4360,N,05513.8489,E,2,9,0.93,-2.1,M,-26.7,M,0000,0000*5C
$GPGSA,A,3,31,12,24,25,05,02,20,29,21,,,,1.26,0.93,0.84*0C
$GPRMC,114235.000,A,2509.4360,N,05513.8489,E,0.03,91.50,210715,,,D*55
$GPGGA,114236.000,2509.4360,N,05513.8489,E,2,9,0.93,-2.1,M,-26.7,M,0000,0000*5F
$GPGSA,A,3,31,12,24,25,05,02,20,29,21,,,,1.26,0.93,0.84*0C
$GPRMC,114236.000,A,2509.4360,N,05513.8489,E,0.01,91.50,210715,,,D*54
$GPGGA,114237.000,2509.4360,N,05513.8489,E,2,9,1.03,-2.1,M,-26.7,M,0000,0000*56
$GPGSA,A,3,31,12,24,25,05,02,20,29,21,,,,1.88,1.03,1.57*0F
$GPGSV,3,1,11,12,75,129,21,25,62,322,39,05,51,096,20,39,45,233,38*77
$GPGSV,3,2,11,20,39,176,24,29,35,316,48,02,35,037,15,21,21,242,47*70
$GPGSV,3,3,11,24,17,195,21,31,06,314,29,15,01,166,*4A
$GPRMC,114237.000,A,2509.4360,N,05513.8489,E,0.03,91.50,210715,,,D*57
$GPGGA,114238.000,2509.4360,N,05513.8489,E,2,9,1.03,-2.1,M,-26.7,M,0000,0000*59
$GPGSA,A,3,31,12,24,25,05,02,20,29,21,,,,1.88,1.03,1.57*0F
$GPRMC,114238.000,A,2509.4360,N,05513.8489,E,0.03,91.50,210715,,,D*58
$GPGGA,114239.000,2509.4360,N,05513.8489,E,2,9,1.03,-2.1,M,-26.7,M,0000,0000*58
$GPGSA,A,3,31,12,24,25,05,02,20,29,21,,,,1.88,1.03,1.57*0F
$GPRMC,114239.000,A,2509.4360,N,05513.8489,E,0.04,91.50,210715,,,D*5E
$GPGGA,114240.000,2509.4360,N,05513.8489,E,2,8,1.07,-2.1,M,-26.7,M,0000,0000*53
$GPGSA,A,3,31,12,24,25,05,02,29,21,,,,,1.90,1.07,1.57*00

$GPRMC,114240.000,A,2509.4360,N,05513.8489,E,0.04,91.50,210715,,,D*50
$GPGGA,114241.000,2509.4360,N,05513.8489,E,2,9,1.03,-2.1,M,-26.7,M,0000,0000*57
$GPGSA,A,3,31,12,24,25,05,02,20,29,21,,,,1.88,1.03,1.57*0F
$GPRMC,114241.000,A,2509.4360,N,05513.8489,E,0.04,91.50,210715,,,D*51
$GPGGA,114242.000,2509.4360,N,05513.8489,E,2,9,1.03,-2.1,M,-26.7,M,0000,0000*54
$GPGSA,A,3,31,12,24,25,05,02,20,29,21,,,,1.88,1.03,1.57*0F
$GPGSV,3,1,11,12,75,129,22,25,62,322,39,05,51,096,19,39,45,233,38*7E
$GPGSV,3,2,11,20,39,176,23,29,35,316,48,02,35,037,17,21,21,242,47*75
$GPGSV,3,3,11,24,17,195,21,31,06,314,30,15,01,166,*42
$GPRMC,114242.000,A,2509.4360,N,05513.8489,E,0.05,91.50,210715,,,D*53
$GPGGA,114243.000,2509.4360,N,05513.8489,E,2,9,1.03,-2.1,M,-26.7,M,0000,0000*55
$GPGSA,A,3,31,12,24,25,05,02,20,29,21,,,,1.88,1.03,1.57*0F
$GPRMC,114243.000,A,2509.4360,N,05513.8489,E,0.05,91.50,210715,,,D*52
$GPGGA,114244.000,2509.4360,N,05513.8490,E,2,9,1.03,-2.1,M,-26.7,M,0000,0000*5A
$GPGSA,A,3,31,12,24,25,05,02,20,29,21,,,,1.88,1.03,1.57*0F
$GPRMC,114244.000,A,2509.4360,N,05513.8490,E,0.05,91.50,210715,,,D*5D
$GPGGA,114245.000,2509.4360,N,05513.8490,E,2,9,1.03,-2.0,M,-26.7,M,0000,0000*5A
$GPGSA,A,3,31,12,24,25,05,02,20,29,21,,,,1.88,1.03,1.57*0F
$GPRMC,114245.000,A,2509.4360,N,05513.8490,E,0.05,91.50,210715,,,D*5C
$GPGGA,114246.000,2509.4360,N,05513.8490,E,2,9,1.03,-2.0,M,-26.7,M,0000,0000*59
$GPGSA,A,3,31,12,24,25,05,02,20,29,21,,,,1.88,1.03,1.57*0F
$GPRMC,114246.000,A,2509.4360,N,05513.8490,E,0.04,91.50,210715,,,D*5E
$GPGGA,114247.000,2509.4360,N,05513.8490,E,2,9,1.03,-2.0,M,-26.7,M,0000,0000*58
$GPGSA,A,3,31,12,24,25,05,02,20,29,21,,,,1.88,1.03,1.57*0F
$GPGSV,3,1,11,12,75,129,22,25,62,322,39,05,51,096,18,39,45,233,38*7F
$GPGSV,3,2,11,20,39,176,23,29,35,316,48,02,35,037,16,21,21,242,46*75
$GPGSV,3,3,11,24,17,195,22,31,06,314,30,15,01,166,*41
$GPRMC,114247.000,A,2509.4360,N,05513.8490,E,0.03,91.50,210715,,,D*58
$GPGGA,114248.000,2509.4360,N,05513.8490,E,2,9,1.03,-2.0,M,-26.7,M,0000,0000*57
$GPGSA,A,3,31,12,24,25,05,02,20,29,21,,,,1.88,1.03,1.57*0F
$GPRMC,114248.000,A,2509.4360,N,05513.8490,E,0.03,91.50,210715,,,D*57
$GPGGA,114249.000,2509.4359,N,05513.8490,E,2,8,1.07,-2.0,M,-26.7,M,0000,0000*59
$GPGSA,A,3,31,12,24,25,05,02,29,21,,,,,1.90,1.07,1.57*00
$GPRMC,114249.000,A,2509.4359,N,05513.8490,E,0.04,91.50,210715,,,D*5B
$GPGGA,114250.000,2509.4359,N,05513.8490,E,2,9,1.03,-2.0,M,-26.7,M,0000,0000*54
$GPGSA,A,3,31,12,24,25,05,02,20,29,21,,,,1.88,1.03,1.57*0F
$GPRMC,114250.000,A,2509.4359,N,05513.8490,E,0.04,91.50,210715,,,D*53
$GPGGA,114251.000,2509.4359,N,05513.8490,E,2,9,1.03,-2.0,M,-26.7,M,0000,0000*55
$GPGSA,A,3,31,12,24,25,05,02,20,29,21,,,,1.88,1.03,1.57*0F
$GPRMC,114251.000,A,2509.4359,N,05513.8490,E,0.04,91.50,210715,,,D*52
$GPGGA,114252.000,2509.4358,N,05513.8493,E,2,8,1.07,-1.7,M,-26.7,M,0000,0000*55
$GPGSA,A,3,31,12,24,25,05,02,29,21,,,,,1.90,1.07,1.57*00
$GPGSV,3,1,11,12,75,130,23,25,62,322,39,05,51,096,17,39,45,233,38*79
$GPGSV,3,2,11,20,39,176,23,29,35,316,48,02,35,037,16,21,21,242,46*75
$GPGSV,3,3,11,24,17,195,22,31,06,314,30,15,01,166,*41
$GPRMC,114252.000,A,2509.4358,N,05513.8493,E,0.04,91.50,210715,,,D*53
$GPGGA,114253.000,2509.4357,N,05513.8495,E,2,9,1.03,-1.5,M,-26.7,M,0000,0000*5A
$GPGSA,A,3,31,12,24,25,05,02,20,29,21,,,,1.87,1.03,1.57*00
$GPRMC,114253.000,A,2509.4357,N,05513.8495,E,0.03,91.50,210715,,,D*5C
$GPGGA,114254.000,2509.4356,N,05513.8496,E,2,9,1.03,-1.3,M,-26.7,M,0000,0000*59
$GPGSA,A,3,31,12,24,25,05,02,20,29,21,,,,1.87,1.03,1.57*00
$GPRMC,114254.000,A,2509.4356,N,05513.8496,E,0.03,91.50,210715,,,D*59
$GPGGA,114255.000,2509.4355,N,05513.8497,E,2,9,1.03,-1.2,M,-26.7,M,0000,0000*5B
$GPGSA,A,3,31,12,24,25,05,02,20,29,21,,,,1.87,1.03,1.57*00
$GPRMC,114255.000,A,2509.4355,N,05513.8497,E,0.03,91.50,210715,,,D*5A
$GPGGA,114256.000,2509.4355,N,05513.8497,E,2,9,0.93,-1.0,M,-26.7,M,0000,0000*52
$GPGSA,A,3,31,12,24,25,05,02,20,29,21,,,,1.26,0.93,0.84*0C
$GPRMC,114256.000,A,2509.4355,N,05513.8497,E,0.02,91.50,210715,,,D*58
$GPGGA,114257.000,2509.4355,N,05513.8497,E,2,8,1.01,-1.0,M,-26.7,M,0000,0000*58
$GPGSA,A,3,12,24,25,05,02,20,29,21,,,,,1.35,1.01,0.89*0B

1437478976-GSM_CMD : DAABFE7481229CDB668EA6D5ECEBFBE7DB759BA152122696B2E407735
8119C9F36B306D262D605933D7D26F7BB87A150
1437478976-GSM_CMD : 421036524F5ED944AA7E7FB6539A6E72
$GPGSV,3,1,11,12,75,130,24,25,62,322,39,05,51,096,20,39,45,233,38*7A
1437478976-GSM_CMD : 8FBC5E681E6612795151A2185DFB312E8A75452E8399F50BC1A047A0A
9778613
1437478976-GSM_CMD : 89AEF8759BEC683D378C919BD0F63020
1437478976-GSM_CMD : 82626DAA07F7E8CC3D8841A5C229E5345E59DF42BC8833040F0F3FAA1
095290D
1437478976-GSM_CMD : 4FC9642A6C9F2589BEE9F4C5D515558F9C371193F4DEFB2527833ED65
CAC591242C00188CC77A1047B107B5786BEE355747F604E47808CEB0733012F10E166A8931B12978
4CF3E2C56580D28C1BFC0F7
1437478976-GSM_CMD : D3028ACA6FA35E58A74A6D172B44A54481990FBA1E42826BD24A2D68C
3CFD787898F4058DE5F629A4A760BBDDB015285C0542973F3107BCA5D89F49BBAF46F4908A6662EE
32D721199AF5A6EECDFF11AF0D49D9BCF8C3DEBD8643A8ACD41F652
1437478976-GSM_CMD : ACFFACECFED22AD218F705B02636F8F5BFD1845285D61003133515887
FEFAE43B25021AC57E7392A65BD0AFB9AC63FC67400DD634D70C62274DD2D0E2C9ADD2D
1437478976-GSM_CMD : 0A2241D8C540D921172F7EF41B5395CA6BE233373A5B3967938042689
E24634ADAC71B81488F1E6287E7EC409519DFAA68D1318B4652B89083B1D6ABF5904D87
1437478976-GSM_CMD : 76FFDD92002BF9E2C19BDE811EC200429454AE04F6F793F87C9DDC076
65AD6D429CDFEEFF92153D446D18D73F8D158D03674C92BE67826716806F2490DB0FEC4
$GPGSV,3,2,11,20,39,176,24,29,35,316,47,02,35,037,16,21,21,242,46*7D
1437478976-GSM_CMD : 85CD5CC4CF99163925B27CDF2195C5A4BFD1845285D61003133515887
FEFAE4366A51072FEA9C760CEEF6E8C516DE07EBE8B7A59CFBEF40DB68A8371F2FAFB56
1437478976-GSM_CMD : 63619F5DD4A40FF47540BDCCFD4410F09F2CED046FBF07D0447BB516E
F9193650F453258EF8EC3ACB33B8F7C59491E54676257618763E79866D1AA24DF0AA311
1437478976-GSM_CMD : E2036F957ABDED363964D12446DE1EBC9AA0C2A3B351CE550CC72E4FF
9BC39CD092B70E5A71CE1B87AC1C0803EE713D9E071B98BACFCC57C8151BB7C0BEDD331
1437478976-GSM_CMD : 55D9AEC36FB9FB31A1F1526C85B589BB
$GPGSV,3,3,11,24,17,195,22,31,06,314,28,15,01,166,22*48
$GPRMC,114257.000,A,2509.4355,N,05513.8497,E,0.00,91.50,210715,,,D*5B
$GPGGA,114258.000,2509.4355,N,05513.8497,E,2,9,0.93,-1.0,M,-26.7,M,0000,0000*5C
$GPGSA,A,3,31,12,24,25,05,02,20,29,21,,,,1.26,0.93,0.84*0C
$GPRMC,114258.000,A,2509.4355,N,05513.8497,E,0.03,91.50,210715,,,D*57
$GPGGA,114259.000,2509.4355,N,05513.8497,E,2,8,1.01,-1.0,M,-26.7,M,0000,0000*56
$GPGSA,A,3,12,24,25,05,02,20,29,21,,,,,1.35,1.01,0.89*0B
$GPRMC,114259.000,A,2509.4355,N,05513.8497,E,0.02,91.50,210715,,,D*57
$GPGGA,114300.000,2509.4355,N,05513.8497,E,2,8,1.01,-1.0,M,-26.7,M,0000,0000*5B
$GPGSA,A,3,12,24,25,05,02,20,29,21,,,,,1.35,1.01,0.89*0B
$GPRMC,114300.000,A,2509.4355,N,05513.8497,E,0.02,91.50,210715,,,D*5A
$GPGGA,114301.000,2509.4355,N,05513.8496,E,2,9,0.93,-0.9,M,-26.7,M,0000,0000*58
$GPGSA,A,3,31,12,24,25,05,02,20,29,21,,,,1.26,0.93,0.84*0C
$GPRMC,114301.000,A,2509.4355,N,05513.8496,E,0.03,91.50,210715,,,D*5B
1437478981-TRAC
: Add TRAC_GPRS = 1
@P,9D65,102,0,359551037902474,1437478981,1437478981,1437478981,55230821,25157263
,0,2,707,9,0,0,0,0,,-196,2000,
$GPGGA,114302.000,2509.4355,N,05513.8496,E,2,9,0.93,-0.8,M,-26.7,M,0000,0000*5A
$GPGSA,A,3,31,12,24,25,05,02,20,29,21,,,,1.26,0.93,0.84*0C
$GPGSV,3,1,11,12,75,130,25,25,62,322,39,05,51,096,18,39,45,233,38*70
1437478981-GSM_CMD : 2D887E11A09BCE0DBD48B471B4CD4607
$GPGSV,3,2,11,20,39,176,24,29,35,316,47,02,35,037,18,21,22,242,46*70
$GPGSV,3,3,11,24,17,195,22,31,06,314,27,15,01,166,21*44
1437478981-GSM_DATA : Send GPRS Data => 4050F07000330B25000147027FE48E8A55AE304
555AE304555AE3045034AC165017FDE8F000002000002C3000900000000000000FF3C07D000
$GPRMC,114302.000,A,2509.4355,N,05513.8496,E,0.02,91.50,210715,,,D*59
1437478981-GSM_CMD : 55D9AEC36FB9FB31A1F1526C85B589BB
$GPGGA,114303.000,2509.4356,N,05513.8496,E,2,8,1.01,-0.8,M,-26.7,M,0000,0000*53
$GPGSA,A,3,12,24,25,05,02,20,29,21,,,,,1.35,1.01,0.89*0B
$GPRMC,114303.000,A,2509.4356,N,05513.8496,E,0.02,91.50,210715,,,D*5B
1437478982-GSM_CMD : 4BF2B0ED6A317BBF34FDFB8875080138

1437478983-GSM_CMD : 2081E4CDDC0EF27579842436C458D089
1437478983-GSM_CMD : F71EF9C7DDB536A9DE13A1994276C72D
$GPGGA,114304.000,2509.4355,N,05513.8497,E,2,8,1.01,-0.8,M,-26.7,M,0000,0000*56
1437478983-GSM_CMD : 1F57346402FE53B1D7D8DD2F6EEB91AE7F0A5812DCEB4C4EE7CBA35F8
DB226E6
1437478983-GSM_DATA : Receive GPRS Data => 0x[FE02000147027FE48E8A0B25]
1437478983-OUTGOING : [REPORT_QUEUEID] => receive SeqID=>2853
1437478983-GSM_CMD : 55D9AEC36FB9FB31A1F1526C85B589BB
$GPGSA,A,3,12,24,25,05,02,20,29,21,,,,,1.35,1.01,0.89*0B
$GPRMC,114304.000,A,2509.4355,N,05513.8497,E,0.03,91.50,210715,,,D*5F
$GPGGA,114305.000,2509.4355,N,05513.8497,E,2,8,1.01,-0.8,M,-26.7,M,0000,0000*57
$GPGSA,A,3,12,24,25,05,02,20,29,21,,,,,1.35,1.01,0.89*0B
$GPRMC,114305.000,A,2509.4355,N,05513.8497,E,0.03,91.50,210715,,,D*5E
$GPGGA,114306.000,2509.4355,N,05513.8498,E,2,8,1.01,-0.9,M,-26.7,M,0000,0000*5A
$GPGSA,A,3,12,24,25,05,02,20,29,21,,,,,1.35,1.01,0.89*0B
$GPRMC,114306.000,A,2509.4355,N,05513.8498,E,0.03,91.50,210715,,,D*52
$GPGGA,114307.000,2509.4355,N,05513.8498,E,2,7,1.08,-0.9,M,-26.7,M,0000,0000*5D
$GPGSA,A,3,12,24,25,05,02,29,21,,,,,,1.40,1.08,0.89*02
$GPGSV,3,1,11,12,75,130,26,25,62,322,38,05,51,096,18,39,45,233,38*72
$GPGSV,3,2,11,20,39,176,23,29,35,316,47,02,35,037,19,21,22,242,46*76
$GPGSV,3,3,11,24,17,195,23,31,06,314,25,15,01,166,21*47
$GPRMC,114307.000,A,2509.4355,N,05513.8498,E,0.01,91.50,210715,,,D*51
$GPGGA,114308.000,2509.4355,N,05513.8498,E,2,8,1.01,-0.9,M,-26.7,M,0000,0000*54
$GPGSA,A,3,12,24,25,05,02,20,29,21,,,,,1.35,1.01,0.89*0B
$GPRMC,114308.000,A,2509.4355,N,05513.8498,E,0.01,91.50,210715,,,D*5E
$GPGGA,114309.000,2509.4355,N,05513.8498,E,2,7,1.08,-0.9,M,-26.7,M,0000,0000*53
$GPGSA,A,3,12,24,25,05,02,29,21,,,,,,1.40,1.08,0.89*02
$GPRMC,114309.000,A,2509.4355,N,05513.8498,E,0.02,91.50,210715,,,D*5C
$GPGGA,114310.000,2509.4355,N,05513.8498,E,2,7,1.08,-0.9,M,-26.7,M,0000,0000*5B
$GPGSA,A,3,12,24,25,05,02,29,21,,,,,,1.40,1.08,0.89*02
$GPRMC,114310.000,A,2509.4355,N,05513.8498,E,0.04,91.50,210715,,,D*52
$GPGGA,114311.000,2509.4355,N,05513.8498,E,2,8,1.01,-0.9,M,-26.7,M,0000,0000*5C
$GPGSA,A,3,12,24,25,05,02,20,29,21,,,,,1.35,1.01,0.89*0B
$GPRMC,114311.000,A,2509.4355,N,05513.8498,E,0.03,91.50,210715,,,D*54
$GPGGA,114312.000,2509.4355,N,05513.8498,E,2,8,1.01,-0.9,M,-26.7,M,0000,0000*5F
$GPGSA,A,3,12,24,25,05,02,20,29,21,,,,,1.35,1.01,0.89*0B
$GPGSV,3,1,11,12,75,130,28,25,62,322,37,05,51,096,19,39,45,233,38*72
$GPGSV,3,2,11,20,39,176,23,29,35,316,47,02,35,037,19,21,22,242,46*76
$GPGSV,3,3,11,24,17,195,24,31,06,314,24,15,01,166,22*42
$GPRMC,114312.000,A,2509.4355,N,05513.8498,E,0.07,91.50,210715,,,D*53
$GPGGA,114313.000,2509.4355,N,05513.8498,E,2,8,1.01,-0.9,M,-26.7,M,0000,0000*5E
$GPGSA,A,3,12,24,25,05,02,20,29,21,,,,,1.35,1.01,0.89*0B
$GPRMC,114313.000,A,2509.4355,N,05513.8498,E,0.03,91.50,210715,,,D*56
$GPGGA,114314.000,2509.4355,N,05513.8498,E,2,7,1.08,-0.9,M,-26.7,M,0000,0000*5F
$GPGSA,A,3,12,24,25,05,02,29,21,,,,,,1.40,1.08,0.89*02
$GPRMC,114314.000,A,2509.4355,N,05513.8498,E,0.08,91.50,210715,,,D*5A
$GPGGA,114315.000,2509.4354,N,05513.8499,E,2,8,0.98,-0.9,M,-26.7,M,0000,0000*59
$GPGSA,A,3,31,12,24,25,05,02,29,21,,,,,1.29,0.98,0.84*0A
$GPRMC,114315.000,A,2509.4354,N,05513.8499,E,0.05,91.50,210715,,,D*56
$GPGGA,114316.000,2509.4354,N,05513.8499,E,2,8,1.01,-0.9,M,-26.7,M,0000,0000*5B
$GPGSA,A,3,12,24,25,05,02,20,29,21,,,,,1.35,1.01,0.89*0B
$GPRMC,114316.000,A,2509.4354,N,05513.8499,E,0.05,91.50,210715,,,D*55
$GPGGA,114317.000,2509.4354,N,05513.8499,E,2,9,0.93,-0.9,M,-26.7,M,0000,0000*51
$GPGSA,A,3,31,12,24,25,05,02,20,29,21,,,,1.26,0.93,0.84*0C
$GPGSV,3,1,11,12,75,130,29,25,62,322,37,05,51,095,20,39,45,233,38*7A
$GPGSV,3,2,11,20,39,176,23,29,35,316,47,02,35,037,19,21,22,242,46*76
$GPGSV,3,3,11,24,17,195,26,31,06,314,24,15,01,166,20*42
$GPRMC,114317.000,A,2509.4354,N,05513.8499,E,0.05,91.50,210715,,,D*54
$GPGGA,114318.000,2509.4354,N,05513.8499,E,2,8,0.98,-0.9,M,-26.7,M,0000,0000*54
$GPGSA,A,3,31,12,24,25,05,02,29,21,,,,,1.29,0.98,0.84*0A

$GPRMC,114318.000,A,2509.4354,N,05513.8499,E,0.03,91.50,210715,,,D*5D
$GPGGA,114319.000,2509.4354,N,05513.8499,E,2,9,0.93,-0.9,M,-26.7,M,0000,0000*5F
$GPGSA,A,3,31,12,24,25,05,02,20,29,21,,,,1.26,0.93,0.84*0C
$GPRMC,114319.000,A,2509.4354,N,05513.8499,E,0.03,91.50,210715,,,D*5C
$GPGGA,114320.000,2509.4354,N,05513.8499,E,2,8,0.98,-0.9,M,-26.7,M,0000,0000*5F
$GPGSA,A,3,31,12,24,25,05,02,29,21,,,,,1.29,0.98,0.84*0A
$GPRMC,114320.000,A,2509.4354,N,05513.8499,E,0.01,91.50,210715,,,D*54
$GPGGA,114321.000,2509.4355,N,05513.8498,E,2,9,0.93,-0.8,M,-26.7,M,0000,0000*55
$GPGSA,A,3,31,12,24,25,05,02,20,29,21,,,,1.26,0.93,0.84*0C
$GPRMC,114321.000,A,2509.4355,N,05513.8498,E,0.01,91.50,210715,,,D*55
$GPGGA,114322.000,2509.4355,N,05513.8497,E,2,8,0.98,-0.7,M,-26.7,M,0000,0000*5C
$GPGSA,A,3,31,12,24,25,05,02,29,21,,,,,1.29,0.98,0.84*0A
$GPGSV,3,1,11,12,75,130,30,25,62,322,37,05,51,095,23,39,45,233,38*71
$GPGSV,3,2,11,20,39,176,22,29,35,316,47,02,35,037,21,21,22,242,46*7C
$GPGSV,3,3,11,24,17,195,26,31,06,314,26,15,01,166,18*4B
$GPRMC,114322.000,A,2509.4355,N,05513.8497,E,0.01,91.50,210715,,,D*59
$GPGGA,114323.000,2509.4356,N,05513.8497,E,2,8,0.98,-0.6,M,-26.7,M,0000,0000*5F
$GPGSA,A,3,31,12,24,25,05,02,29,21,,,,,1.29,0.98,0.84*0A
$GPRMC,114323.000,A,2509.4356,N,05513.8497,E,0.01,91.50,210715,,,D*5B
$GPGGA,114324.000,2509.4356,N,05513.8497,E,2,8,1.07,-0.5,M,-26.7,M,0000,0000*5C
$GPGSA,A,3,31,12,24,25,05,02,29,21,,,,,1.89,1.07,1.56*09
$GPRMC,114324.000,A,2509.4356,N,05513.8497,E,0.01,91.50,210715,,,D*5C
$GPGGA,114325.000,2509.4356,N,05513.8497,E,2,8,1.07,-0.5,M,-26.7,M,0000,0000*5D
$GPGSA,A,3,31,12,24,25,05,02,29,21,,,,,1.89,1.07,1.56*09
$GPRMC,114325.000,A,2509.4356,N,05513.8497,E,0.01,91.50,210715,,,D*5D
$GPGGA,114326.000,2509.4356,N,05513.8497,E,2,8,1.07,-0.5,M,-26.7,M,0000,0000*5E
$GPGSA,A,3,31,12,24,25,05,02,29,21,,,,,1.89,1.07,1.56*09
$GPRMC,114326.000,A,2509.4356,N,05513.8497,E,0.00,91.50,210715,,,D*5F
$GPGGA,114327.000,2509.4356,N,05513.8497,E,2,8,1.07,-0.5,M,-26.7,M,0000,0000*5F
$GPGSA,A,3,31,12,24,25,05,02,29,21,,,,,1.89,1.07,1.56*09
$GPGSV,3,1,11,12,75,131,31,25,62,322,37,05,51,095,21,39,45,233,38*73
1437479006-GSM_CMD : DAABFE7481229CDB668EA6D5ECEBFBE7DB759BA152122696B2E407735
8119C9F36B306D262D605933D7D26F7BB87A150
$GPGSV,3,2,11,20,39,176,21,29,35,316,47,02,35,037,23,21,22,242,46*7D
1437479006-GSM_CMD : 6EE374611BF17D6A601AB84CF02DCB2B
1437479006-GSM_CMD : 8FBC5E681E6612795151A2185DFB312E8A75452E8399F50BC1A047A0A
9778613
1437479006-GSM_CMD : 89AEF8759BEC683D378C919BD0F63020
1437479006-GSM_CMD : 82626DAA07F7E8CC3D8841A5C229E5345E59DF42BC8833040F0F3FAA1
095290D
1437479006-GSM_CMD : 4FC9642A6C9F2589BEE9F4C5D515558F9C371193F4DEFB2527833ED65
CAC591242C00188CC77A1047B107B5786BEE355747F604E47808CEB0733012F10E166A8931B12978
4CF3E2C56580D28C1BFC0F7
1437479006-GSM_CMD : D3028ACA6FA35E58A74A6D172B44A54481990FBA1E42826BD24A2D68C
3CFD7879842584034AF04F50FD2E2DAFE08D4D70AE0DB6E5CE4F0CA7A3F54EEF2A982A508A6662EE
32D721199AF5A6EECDFF11AF0D49D9BCF8C3DEBD8643A8ACD41F652
1437479006-GSM_CMD : ACFFACECFED22AD218F705B02636F8F5BFD1845285D61003133515887
FEFAE43770ACDCC6C86EB4C4F7DFDE81EACF5E9906A5E8203F1AE9D44650D06090F6D4D
$GPGSV,3,3,11,24,17,195,27,31,06,314,29,15,01,166,20*4E
1437479006-GSM_CMD : 0A2241D8C540D921172F7EF41B5395CA6BE233373A5B3967938042689
E24634AD9CDF4BC232AE5C7C99377F470D8D11B906A5E8203F1AE9D44650D06090F6D4D
1437479006-GSM_CMD : 76FFDD92002BF9E2C19BDE811EC200429454AE04F6F793F87C9DDC076
65AD6D429CDFEEFF92153D446D18D73F8D158D03674C92BE67826716806F2490DB0FEC4
1437479006-GSM_CMD : 85CD5CC4CF99163925B27CDF2195C5A4BFD1845285D61003133515887
FEFAE4366A51072FEA9C760CEEF6E8C516DE07EBE8B7A59CFBEF40DB68A8371F2FAFB56
1437479006-GSM_CMD : 63619F5DD4A40FF47540BDCCFD4410F09F2CED046FBF07D0447BB516E
F919365649278CEF3BCEDB02565B1689B7AE8860A25D7998BB010B75358F79132E34BD0
1437479006-GSM_CMD : E2036F957ABDED363964D12446DE1EBC9AA0C2A3B351CE550CC72E4FF
9BC39CD092B70E5A71CE1B87AC1C0803EE713D9E071B98BACFCC57C8151BB7C0BEDD331
1437479006-GSM_CMD : 55D9AEC36FB9FB31A1F1526C85B589BB

$GPRMC,114327.000,A,2509.4356,N,05513.8497,E,0.01,91.50,210715,,,D*5F
$GPGGA,114328.000,2509.4356,N,05513.8497,E,2,8,1.07,-0.5,M,-26.7,M,0000,0000*50
$GPGSA,A,3,31,12,24,25,05,02,29,21,,,,,1.89,1.07,1.56*09
$GPRMC,114328.000,A,2509.4356,N,05513.8497,E,0.01,91.50,210715,,,D*50
$GPGGA,114329.000,2509.4355,N,05513.8496,E,2,9,1.02,-0.1,M,-26.7,M,0000,0000*53
$GPGSA,A,3,31,12,24,25,05,02,20,29,21,,,,1.87,1.02,1.56*00
$GPRMC,114329.000,A,2509.4355,N,05513.8496,E,0.01,91.50,210715,,,D*53
$GPGGA,114330.000,2509.4355,N,05513.8496,E,2,9,1.02,0.3,M,-26.7,M,0000,0000*74
$GPGSA,A,3,31,12,24,25,05,02,20,29,21,,,,1.87,1.02,1.56*00
$GPRMC,114330.000,A,2509.4355,N,05513.8496,E,0.01,91.50,210715,,,D*5B
$GPGGA,114331.000,2509.4354,N,05513.8495,E,2,8,1.07,0.7,M,-26.7,M,0000,0000*77
$GPGSA,A,3,31,12,24,25,05,02,29,21,,,,,1.89,1.07,1.56*09
$GPRMC,114331.000,A,2509.4354,N,05513.8495,E,0.01,91.50,210715,,,D*58
1437479011-TRAC
: Add TRAC_GPRS = 1
@P,5582,103,0,359551037902474,1437479011,1437479011,1437479011,55230821,25157263
,0,2,707,10,0,0,0,0,,-196,2000,
$GPGGA,114332.000,2509.4353,N,05513.8494,E,2,8,1.07,1.0,M,-26.7,M,0000,0000*74
$GPGSA,A,3,31,12,24,25,05,02,29,21,,,,,1.89,1.07,1.56*09
$GPGSV,3,1,11,12,75,131,30,25,62,322,38,05,51,095,19,39,45,233,38*76
$GPGSV,3,2,11,20,40,176,20,29,35,316,47,02,35,037,25,21,22,242,46*74
1437479011-GSM_CMD : 2D887E11A09BCE0DBD48B471B4CD4607
$GPGSV,3,3,11,24,17,195,27,31,06,314,30,15,01,166,20*46
$GPRMC,114332.000,A,2509.4353,N,05513.8494,E,0.02,91.50,210715,,,D*5E
1437479011-GSM_DATA : Send GPRS Data => 4050BC1000330B26000147027FE48E8A55AE306
355AE306355AE3063034AC165017FDE8F000002000002C3000A00000000000000FF3C07D000
1437479011-GSM_CMD : 55D9AEC36FB9FB31A1F1526C85B589BB
$GPGGA,114333.000,2509.4353,N,05513.8493,E,2,8,1.07,1.4,M,-26.7,M,0000,0000*76
$GPGSA,A,3,31,12,24,25,05,02,29,21,,,,,1.89,1.07,1.56*09
$GPRMC,114333.000,A,2509.4353,N,05513.8493,E,0.02,91.50,210715,,,D*58
1437479012-GSM_CMD : 4BF2B0ED6A317BBF34FDFB8875080138
1437479013-GSM_CMD : 2081E4CDDC0EF27579842436C458D089
1437479013-GSM_CMD : F71EF9C7DDB536A9DE13A1994276C72D
1437479013-GSM_CMD : 1F57346402FE53B1D7D8DD2F6EEB91AEEB6D06989813D4797CA29EDC9
C297583
1437479013-GSM_DATA : Receive GPRS Data => 0x[FE02000147027FE48E8A0B26]
1437479013-OUTGOING : [REPORT_QUEUEID] => receive SeqID=>2854
1437479013-GSM_CMD : 55D9AEC36FB9FB31A1F1526C85B589BB
$GPGGA,114334.000,2509.4353,N,05513.8493,E,2,8,1.07,1.4,M,-26.7,M,0000,0000*71
$GPGSA,A,3,31,12,24,25,05,02,29,21,,,,,1.89,1.07,1.56*09
$GPRMC,114334.000,A,2509.4353,N,05513.8493,E,0.02,91.50,210715,,,D*5F
$GPGGA,114335.000,2509.4353,N,05513.8493,E,2,8,1.07,1.4,M,-26.7,M,0000,0000*70
$GPGSA,A,3,31,12,24,25,05,02,29,21,,,,,1.89,1.07,1.56*09
$GPRMC,114335.000,A,2509.4353,N,05513.8493,E,0.02,91.50,210715,,,D*5E
$GPGGA,114336.000,2509.4353,N,05513.8493,E,2,8,1.07,1.4,M,-26.7,M,0000,0000*73
$GPGSA,A,3,31,12,24,25,05,02,29,21,,,,,1.89,1.07,1.56*09
$GPRMC,114336.000,A,2509.4353,N,05513.8493,E,0.03,91.50,210715,,,D*5C
$GPGGA,114337.000,2509.4353,N,05513.8493,E,2,8,1.07,1.4,M,-26.7,M,0000,0000*72
$GPGSA,A,3,31,12,24,25,05,02,29,21,,,,,1.89,1.07,1.56*09
$GPGSV,3,1,11,12,75,131,30,25,62,322,38,05,51,095,19,39,45,233,38*76
$GPGSV,3,2,11,20,40,176,21,29,35,316,47,02,35,037,24,21,22,243,46*75
$GPGSV,3,3,11,24,17,195,25,31,06,314,30,15,01,166,20*44
$GPRMC,114337.000,A,2509.4353,N,05513.8493,E,0.01,91.50,210715,,,D*5F
$GPGGA,114338.000,2509.4353,N,05513.8493,E,2,8,1.07,1.4,M,-26.7,M,0000,0000*7D
$GPGSA,A,3,31,12,24,25,05,02,29,21,,,,,1.89,1.07,1.56*09
$GPRMC,114338.000,A,2509.4353,N,05513.8493,E,0.01,91.50,210715,,,D*50
$GPGGA,114339.000,2509.4353,N,05513.8493,E,2,8,1.07,1.5,M,-26.7,M,0000,0000*7D
$GPGSA,A,3,31,12,24,25,05,02,29,21,,,,,1.89,1.07,1.56*09
$GPRMC,114339.000,A,2509.4353,N,05513.8493,E,0.03,91.50,210715,,,D*53
$GPGGA,114340.000,2509.4353,N,05513.8493,E,2,8,1.07,1.5,M,-26.7,M,0000,0000*73
$GPGSA,A,3,31,12,24,25,05,02,29,21,,,,,1.89,1.07,1.56*09

$GPRMC,114340.000,A,2509.4353,N,05513.8493,E,0.02,91.50,210715,,,D*5C
$GPGGA,114341.000,2509.4353,N,05513.8492,E,2,8,1.07,1.7,M,-26.7,M,0000,0000*71
$GPGSA,A,3,31,12,24,25,05,02,29,21,,,,,1.89,1.07,1.56*09
$GPRMC,114341.000,A,2509.4353,N,05513.8492,E,0.02,91.50,210715,,,D*5C
$GPGGA,114342.000,2509.4353,N,05513.8492,E,2,8,1.07,1.9,M,-26.7,M,0000,0000*7C
$GPGSA,A,3,31,12,24,25,05,02,29,21,,,,,1.89,1.07,1.56*09
$GPGSV,3,1,11,12,75,131,28,25,62,322,38,05,51,095,19,39,45,233,38*7F
$GPGSV,3,2,11,20,40,176,21,29,36,317,47,02,35,037,21,21,22,243,46*72
$GPGSV,3,3,11,24,17,195,23,31,06,314,30,15,01,166,19*48
$GPRMC,114342.000,A,2509.4353,N,05513.8492,E,0.02,91.50,210715,,,D*5F
$GPGGA,114343.000,2509.4353,N,05513.8492,E,2,8,1.07,2.2,M,-26.7,M,0000,0000*75
$GPGSA,A,3,31,12,24,25,05,02,29,21,,,,,1.89,1.07,1.56*09
$GPRMC,114343.000,A,2509.4353,N,05513.8492,E,0.02,91.50,210715,,,D*5E
$GPGGA,114344.000,2509.4353,N,05513.8492,E,2,8,1.07,2.4,M,-26.7,M,0000,0000*74
$GPGSA,A,3,31,12,24,25,05,02,29,21,,,,,1.89,1.07,1.56*09
$GPRMC,114344.000,A,2509.4353,N,05513.8492,E,0.02,91.50,210715,,,D*59
$GPGGA,114345.000,2509.4353,N,05513.8492,E,2,8,1.07,2.4,M,-26.7,M,0000,0000*75
$GPGSA,A,3,31,12,24,25,05,02,29,21,,,,,1.89,1.07,1.56*09
$GPRMC,114345.000,A,2509.4353,N,05513.8492,E,0.02,91.50,210715,,,D*58
$GPGGA,114346.000,2509.4353,N,05513.8492,E,2,8,1.07,2.4,M,-26.7,M,0000,0000*76
$GPGSA,A,3,31,12,24,25,05,02,29,21,,,,,1.89,1.07,1.56*09
$GPRMC,114346.000,A,2509.4353,N,05513.8492,E,0.02,91.50,210715,,,D*5B
$GPGGA,114347.000,2509.4353,N,05513.8492,E,2,9,0.93,2.4,M,-26.7,M,0000,0000*7A
$GPGSA,A,3,31,12,24,25,05,02,20,29,21,,,,1.26,0.93,0.84*0C
$GPGSV,3,1,11,12,75,131,28,25,62,322,38,05,51,095,19,39,45,233,38*7F
$GPGSV,3,2,11,20,40,176,21,29,36,317,47,02,35,037,18,21,22,243,46*78
$GPGSV,3,3,11,24,17,195,21,31,06,314,25,15,01,166,19*4E
$GPRMC,114347.000,A,2509.4353,N,05513.8492,E,0.02,91.50,210715,,,D*5A
$GPGGA,114348.000,2509.4353,N,05513.8492,E,2,7,1.08,2.4,M,-26.7,M,0000,0000*78
$GPGSA,A,3,12,24,25,05,02,29,21,,,,,,1.40,1.08,0.89*02
$GPRMC,114348.000,A,2509.4353,N,05513.8492,E,0.02,91.50,210715,,,D*55
$GPGGA,114349.000,2509.4353,N,05513.8492,E,2,8,0.98,2.4,M,-26.7,M,0000,0000*7E
$GPGSA,A,3,31,12,24,25,05,02,29,21,,,,,1.29,0.98,0.84*0A
$GPRMC,114349.000,A,2509.4353,N,05513.8492,E,0.02,91.50,210715,,,D*54
$GPGGA,114350.000,2509.4353,N,05513.8492,E,2,8,0.98,2.4,M,-26.7,M,0000,0000*76
$GPGSA,A,3,31,12,24,25,05,02,29,21,,,,,1.29,0.98,0.84*0A
$GPRMC,114350.000,A,2509.4353,N,05513.8492,E,0.02,91.50,210715,,,D*5C
$GPGGA,114351.000,2509.4353,N,05513.8493,E,2,8,0.98,2.4,M,-26.7,M,0000,0000*76
$GPGSA,A,3,31,12,24,25,05,02,29,21,,,,,1.29,0.98,0.84*0A
$GPRMC,114351.000,A,2509.4353,N,05513.8493,E,0.02,91.50,210715,,,D*5C
$GPGGA,114352.000,2509.4353,N,05513.8493,E,2,8,0.98,2.4,M,-26.7,M,0000,0000*75
$GPGSA,A,3,31,12,24,25,05,02,29,21,,,,,1.29,0.98,0.84*0A
$GPGSV,3,1,11,12,75,131,26,25,62,322,37,05,51,095,19,39,45,233,38*7E
$GPGSV,3,2,11,20,40,176,19,29,36,317,47,02,35,037,17,21,22,243,46*7C
$GPGSV,3,3,11,24,17,195,20,31,06,314,25,15,01,166,19*4F
$GPRMC,114352.000,A,2509.4353,N,05513.8493,E,0.02,91.50,210715,,,D*5F
$GPGGA,114353.000,2509.4353,N,05513.8493,E,2,8,0.98,2.4,M,-26.7,M,0000,0000*74
$GPGSA,A,3,31,12,24,25,05,02,29,21,,,,,1.29,0.98,0.84*0A
$GPRMC,114353.000,A,2509.4353,N,05513.8493,E,0.02,91.50,210715,,,D*5E
$GPGGA,114354.000,2509.4353,N,05513.8493,E,2,8,0.98,2.4,M,-26.7,M,0000,0000*73
$GPGSA,A,3,31,12,24,25,05,02,29,21,,,,,1.29,0.98,0.84*0A
$GPRMC,114354.000,A,2509.4353,N,05513.8493,E,0.00,91.50,210715,,,D*5B
$GPGGA,114355.000,2509.4353,N,05513.8493,E,2,8,0.98,2.4,M,-26.7,M,0000,0000*72
$GPGSA,A,3,31,12,24,25,05,02,29,21,,,,,1.29,0.98,0.84*0A
$GPRMC,114355.000,A,2509.4353,N,05513.8493,E,0.01,91.50,210715,,,D*5B
$GPGGA,114356.000,2509.4353,N,05513.8493,E,2,8,0.98,2.4,M,-26.7,M,0000,0000*71
$GPGSA,A,3,31,12,24,25,05,02,29,21,,,,,1.29,0.98,0.84*0A
$GPRMC,114356.000,A,2509.4353,N,05513.8493,E,0.01,91.50,210715,,,D*58
$GPGGA,114357.000,2509.4353,N,05513.8493,E,2,8,0.98,2.4,M,-26.7,M,0000,0000*70
$GPGSA,A,3,31,12,24,25,05,02,29,21,,,,,1.29,0.98,0.84*0A

$GPGSV,3,1,11,12,75,131,25,25,62,322,37,05,51,095,18,39,45,233,38*7C
$GPGSV,3,2,11,20,40,176,17,29,36,317,47,02,35,037,16,21,22,243,46*73
1437479036-GSM_CMD : DAABFE7481229CDB668EA6D5ECEBFBE7DB759BA152122696B2E407735
8119C9F36B306D262D605933D7D26F7BB87A150
1437479036-GSM_CMD : 9B509D41BAB92007AE84EFE43CA343E3
1437479036-GSM_CMD : 8FBC5E681E6612795151A2185DFB312E8A75452E8399F50BC1A047A0A
9778613
1437479036-GSM_CMD : 89AEF8759BEC683D378C919BD0F63020
1437479036-GSM_CMD : 82626DAA07F7E8CC3D8841A5C229E5345E59DF42BC8833040F0F3FAA1
095290D
1437479036-GSM_CMD : 4FC9642A6C9F2589BEE9F4C5D515558F9C371193F4DEFB2527833ED65
CAC591242C00188CC77A1047B107B5786BEE355747F604E47808CEB0733012F10E166A8931B12978
4CF3E2C56580D28C1BFC0F7
$GPGSV,3,3,11,24,17,195,20,31,06,314,23,15,01,166,20*43
1437479036-GSM_CMD : D3028ACA6FA35E58A74A6D172B44A54481990FBA1E42826BD24A2D68C
3CFD7876CF81B1637460FE0DDED19BA372AC132C2B00D91620308B3ECA11354BA65A43608A6662EE
32D721199AF5A6EECDFF11AF0D49D9BCF8C3DEBD8643A8ACD41F652
1437479036-GSM_CMD : 0AABCEE99F9442C73551A7334B9B472A6BE233373A5B3967938042689
E24634AB271E05EF76C5FCED5CD57CCE0BC68A37400DD634D70C62274DD2D0E2C9ADD2D
1437479036-GSM_CMD : 6684B30DC04493132F567364D5798BB4BFD1845285D61003133515887
FEFAE43B25021AC57E7392A65BD0AFB9AC63FC67400DD634D70C62274DD2D0E2C9ADD2D
1437479036-GSM_CMD : 76FFDD92002BF9E2C19BDE811EC200429454AE04F6F793F87C9DDC076
65AD6D478A7085E59F87B5A8871ACB2E5042D07BE8B7A59CFBEF40DB68A8371F2FAFB56
1437479036-GSM_CMD : 85CD5CC4CF99163925B27CDF2195C5A4BFD1845285D61003133515887
FEFAE4366A51072FEA9C760CEEF6E8C516DE07EBE8B7A59CFBEF40DB68A8371F2FAFB56
1437479036-GSM_CMD : 63619F5DD4A40FF47540BDCCFD4410F09F2CED046FBF07D0447BB516E
F9193650F453258EF8EC3ACB33B8F7C59491E54676257618763E79866D1AA24DF0AA311
1437479036-GSM_CMD : E2036F957ABDED363964D12446DE1EBC9AA0C2A3B351CE550CC72E4FF
9BC39CD0256146B4E5F7A58E7A862E9B1053903676257618763E79866D1AA24DF0AA311
$GPRMC,114357.000,A,2509.4353,N,05513.8493,E,0.02,91.50,210715,,,D*5A
1437479036-GSM_CMD : 55D9AEC36FB9FB31A1F1526C85B589BB
$GPGGA,114358.000,2509.4353,N,05513.8493,E,2,8,0.98,2.4,M,-26.7,M,0000,0000*7F
$GPGSA,A,3,31,12,24,25,05,02,29,21,,,,,1.29,0.98,0.84*0A
$GPRMC,114358.000,A,2509.4353,N,05513.8493,E,0.01,91.50,210715,,,D*56
$GPGGA,114359.000,2509.4353,N,05513.8493,E,2,8,0.98,2.4,M,-26.7,M,0000,0000*7E
$GPGSA,A,3,31,12,24,25,05,02,29,21,,,,,1.29,0.98,0.84*0A
$GPRMC,114359.000,A,2509.4353,N,05513.8493,E,0.01,91.50,210715,,,D*57
$GPGGA,114400.000,2509.4353,N,05513.8493,E,2,8,0.98,2.4,M,-26.7,M,0000,0000*75
$GPGSA,A,3,31,12,24,25,05,02,29,21,,,,,1.29,0.98,0.84*0A
$GPRMC,114400.000,A,2509.4353,N,05513.8493,E,0.01,91.50,210715,,,D*5C
$GPGGA,114401.000,2509.4353,N,05513.8493,E,2,8,0.98,2.4,M,-26.7,M,0000,0000*74
$GPGSA,A,3,31,12,24,25,05,02,29,21,,,,,1.29,0.98,0.84*0A
$GPRMC,114401.000,A,2509.4353,N,05513.8493,E,0.01,91.50,210715,,,D*5D
1437479041-TRAC
: Add TRAC_GPRS = 1
@P,784D,102,0,359551037902474,1437479041,1437479041,1437479041,55230821,25157263
,0,2,707,9,0,0,0,0,,-196,2000,
$GPGGA,114402.000,2509.4353,N,05513.8493,E,2,8,1.07,2.4,M,-26.7,M,0000,0000*70
$GPGSA,A,3,31,12,24,25,05,02,29,21,,,,,1.89,1.07,1.56*09
$GPGSV,3,1,11,12,75,132,25,25,62,322,36,05,51,095,17,39,45,233,38*71
$GPGSV,3,2,11,20,40,176,17,29,36,317,47,02,35,037,19,21,22,243,47*7D
$GPGSV,3,3,11,24,17,195,20,31,06,314,23,15,01,166,20*43
1437479041-GSM_CMD : 2D887E11A09BCE0DBD48B471B4CD4607
$GPRMC,114402.000,A,2509.4353,N,05513.8493,E,0.01,91.50,210715,,,D*5E
1437479041-GSM_DATA : Send GPRS Data => 4050F55800330B27000147027FE48E8A55AE308
155AE308155AE3081034AC165017FDE8F000002000002C3000900000000000000FF3C07D000
1437479041-GSM_CMD : 55D9AEC36FB9FB31A1F1526C85B589BB
$GPGGA,114403.000,2509.4353,N,05513.8493,E,2,8,1.07,2.4,M,-26.7,M,0000,0000*71
$GPGSA,A,3,31,12,24,25,05,02,29,21,,,,,1.89,1.07,1.56*09
$GPRMC,114403.000,A,2509.4353,N,05513.8493,E,0.01,91.50,210715,,,D*5F
1437479042-GSM_CMD : 4BF2B0ED6A317BBF34FDFB8875080138

$GPGGA,114404.000,2509.4353,N,05513.8493,E,2,8,1.07,2.4,M,-26.7,M,0000,0000*76
$GPGSA,A,3,31,12,24,25,05,02,29,21,,,,,1.89,1.07,1.56*09
1437479043-GSM_CMD : 2081E4CDDC0EF27579842436C458D089
1437479043-GSM_CMD : F71EF9C7DDB536A9DE13A1994276C72D
1437479043-GSM_CMD : 1F57346402FE53B1D7D8DD2F6EEB91AE1FC00256106DCB18B900A4205
48DAE9E
1437479043-GSM_DATA : Receive GPRS Data => 0x[FE02000147027FE48E8A0B27]
1437479043-OUTGOING : [REPORT_QUEUEID] => receive SeqID=>2855
1437479043-GSM_CMD : 55D9AEC36FB9FB31A1F1526C85B589BB
$GPRMC,114404.000,A,2509.4353,N,05513.8493,E,0.01,91.50,210715,,,D*58
$GPGGA,114405.000,2509.4353,N,05513.8493,E,2,8,1.07,2.4,M,-26.7,M,0000,0000*77
$GPGSA,A,3,31,12,24,25,05,02,29,21,,,,,1.89,1.07,1.56*09
$GPRMC,114405.000,A,2509.4353,N,05513.8493,E,0.01,91.50,210715,,,D*59
$GPGGA,114406.000,2509.4353,N,05513.8493,E,2,8,1.07,2.4,M,-26.7,M,0000,0000*74
$GPGSA,A,3,31,12,24,25,05,02,29,21,,,,,1.89,1.07,1.56*09
$GPRMC,114406.000,A,2509.4353,N,05513.8493,E,0.02,91.50,210715,,,D*59
$GPGGA,114407.000,2509.4353,N,05513.8493,E,2,8,1.07,2.4,M,-26.7,M,0000,0000*75
$GPGSA,A,3,31,12,24,25,05,02,29,21,,,,,1.89,1.07,1.56*09
$GPGSV,3,1,11,12,75,132,24,25,62,322,36,05,51,095,18,39,45,233,38*7F
$GPGSV,3,2,11,20,40,176,17,29,36,317,47,02,35,037,21,21,22,243,47*76
$GPGSV,3,3,11,24,17,195,18,31,06,314,23,15,01,166,19*42
$GPRMC,114407.000,A,2509.4353,N,05513.8493,E,0.01,91.50,210715,,,D*5B
$GPGGA,114408.000,2509.4353,N,05513.8493,E,2,8,0.98,2.4,M,-26.7,M,0000,0000*7D
$GPGSA,A,3,31,12,24,25,05,02,29,21,,,,,1.29,0.98,0.84*0A
$GPRMC,114408.000,A,2509.4353,N,05513.8493,E,0.01,91.50,210715,,,D*54
$GPGGA,114409.000,2509.4353,N,05513.8493,E,2,8,1.07,2.4,M,-26.7,M,0000,0000*7B
$GPGSA,A,3,31,12,24,25,05,02,29,21,,,,,1.89,1.07,1.56*09
$GPRMC,114409.000,A,2509.4353,N,05513.8493,E,0.00,91.50,210715,,,D*54
1437479048-GSM_CMD : A7A4FC5C506303F6803690F31CD729BA78F5170DC78E0A3D77793A915
6620B68
1437479048-GSM_CMD : DAABFE7481229CDB668EA6D5ECEBFBE7DB759BA152122696B2E407735
8119C9F36B306D262D605933D7D26F7BB87A150
1437479048-GSM_CMD : 6EE374611BF17D6A601AB84CF02DCB2B
1437479048-GSM_CMD : 8FBC5E681E6612795151A2185DFB312E880026AF1206FE9C4DCCBA1B2
ECB7AA0
1437479048-GSM_CMD : 89AEF8759BEC683D378C919BD0F63020
1437479048-GSM_CMD : 82626DAA07F7E8CC3D8841A5C229E5345E59DF42BC8833040F0F3FAA1
095290D
1437479048-GSM_CMD : 4FC9642A6C9F2589BEE9F4C5D515558F9C371193F4DEFB2527833ED65
CAC591242C00188CC77A1047B107B5786BEE355747F604E47808CEB0733012F10E166A8931B12978
4CF3E2C56580D28C1BFC0F7
1437479048-GSM_CMD : BC1C651674B144227E85373B232FA407C2EFC820E8109E87659C52296
50BCC60B25021AC57E7392A65BD0AFB9AC63FC68F1EE1F1642900BC9FC355B4F354EB9608A6662EE
32D721199AF5A6EECDFF11AF0D49D9BCF8C3DEBD8643A8ACD41F652
1437479049-GSM_CMD : 0AABCEE99F9442C73551A7334B9B472A6BE233373A5B3967938042689
E24634AB271E05EF76C5FCED5CD57CCE0BC68A366BE1848495A5DEF5DA87169573305BF
1437479049-GSM_CMD : 905FDE24D504CF86E94A1EE47EB7DDA881990FBA1E42826BD24A2D68C
3CFD787B3F65F377B70BB370EB84C2C18977ABC6B714D39FA3B1A9818BB2BA456737F35
1437479049-GSM_CMD : 76FFDD92002BF9E2C19BDE811EC200429454AE04F6F793F87C9DDC076
65AD6D478A7085E59F87B5A8871ACB2E5042D07022B8521B3099CD542858D28966BFA61
$GPGGA,114410.000,2509.4353,N,05513.8493,E,2,8,1.06,2.4,M,-26.7,M,0000,0000*72
1437479049-GSM_CMD : 85CD5CC4CF99163925B27CDF2195C5A4BFD1845285D61003133515887
FEFAE4366A51072FEA9C760CEEF6E8C516DE07E022B8521B3099CD542858D28966BFA61
1437479049-GSM_CMD : 63619F5DD4A40FF47540BDCCFD4410F09F2CED046FBF07D0447BB516E
F919365649278CEF3BCEDB02565B1689B7AE886B575325C94FAF2CCF0B8106D9BCE2845
1437479049-GSM_CMD : E2036F957ABDED363964D12446DE1EBC9AA0C2A3B351CE550CC72E4FF
9BC39CD9909F5F3007270F807D6DEA3329F96B56946618F532A7889F200CD14DA9724E1
1437479049-GSM_CMD : 55D9AEC36FB9FB31A1F1526C85B589BB
$GPGSA,A,3,31,12,24,25,05,02,29,21,,,,,1.89,1.06,1.56*08
$GPRMC,114410.000,A,2509.4353,N,05513.8493,E,0.01,91.50,210715,,,D*5D

$GPGGA,114411.000,2509.4353,N,05513.8493,E,2,8,1.06,2.4,M,-26.7,M,0000,0000*73
$GPGSA,A,3,31,12,24,25,05,02,29,21,,,,,1.89,1.06,1.56*08
$GPRMC,114411.000,A,2509.4353,N,05513.8493,E,0.02,91.50,210715,,,D*5F
$GPGGA,114412.000,2509.4353,N,05513.8493,E,2,8,0.98,2.4,M,-26.7,M,0000,0000*76
$GPGSA,A,3,31,12,24,25,05,02,29,21,,,,,1.29,0.98,0.84*0A
$GPGSV,3,1,11,12,75,132,21,25,62,321,36,05,51,095,20,39,45,233,38*72
$GPGSV,3,2,11,20,40,176,17,29,36,317,47,02,35,037,22,21,22,243,47*75
$GPGSV,3,3,11,24,17,195,19,31,06,314,24,15,01,166,19*44
$GPRMC,114412.000,A,2509.4353,N,05513.8493,E,0.03,91.50,210715,,,D*5D
$GPGGA,114413.000,2509.4353,N,05513.8491,E,2,8,1.06,2.5,M,-26.7,M,0000,0000*72
$GPGSA,A,3,31,12,24,25,05,02,29,21,,,,,1.89,1.06,1.56*08
$GPRMC,114413.000,A,2509.4353,N,05513.8491,E,0.02,91.50,210715,,,D*5F
$GPGGA,114414.000,2509.4353,N,05513.8492,E,2,8,1.06,2.6,M,-26.7,M,0000,0000*75
$GPGSA,A,3,31,12,24,25,05,02,29,21,,,,,1.89,1.06,1.56*08
$GPRMC,114414.000,A,2509.4353,N,05513.8492,E,0.02,91.50,210715,,,D*5B
$GPGGA,114415.000,2509.4353,N,05513.8492,E,2,8,1.06,2.7,M,-26.7,M,0000,0000*75
$GPGSA,A,3,31,12,24,25,05,02,29,21,,,,,1.89,1.06,1.56*08
$GPRMC,114415.000,A,2509.4353,N,05513.8492,E,0.02,91.50,210715,,,D*5A
$GPGGA,114416.000,2509.4353,N,05513.8489,E,2,8,1.06,2.9,M,-26.7,M,0000,0000*72
$GPGSA,A,3,31,12,24,25,05,02,29,21,,,,,1.88,1.06,1.56*09
$GPRMC,114416.000,A,2509.4353,N,05513.8489,E,0.03,91.50,210715,,,D*52
$GPGGA,114417.000,2509.4354,N,05513.8489,E,2,8,1.06,2.9,M,-26.7,M,0000,0000*74
$GPGSA,A,3,31,12,24,25,05,02,29,21,,,,,1.89,1.06,1.56*08
$GPGSV,3,1,11,12,75,132,19,25,62,321,36,05,51,095,22,39,45,233,38*7B
$GPGSV,3,2,11,20,40,176,21,29,36,317,47,02,35,037,23,21,22,243,47*71
$GPGSV,3,3,11,24,17,195,18,31,06,314,25,15,01,166,19*44
$GPRMC,114417.000,A,2509.4354,N,05513.8489,E,0.02,91.50,210715,,,D*55
$GPGGA,114418.000,2509.4354,N,05513.8489,E,2,8,1.06,3.0,M,-26.7,M,0000,0000*73
$GPGSA,A,3,31,12,24,25,05,02,29,21,,,,,1.89,1.06,1.56*08
$GPRMC,114418.000,A,2509.4354,N,05513.8489,E,0.02,91.50,210715,,,D*5A
$GPGGA,114419.000,2509.4355,N,05513.8486,E,2,8,1.06,3.1,M,-26.7,M,0000,0000*7D
$GPGSA,A,3,31,12,24,25,05,02,29,21,,,,,1.88,1.06,1.56*09
$GPRMC,114419.000,A,2509.4355,N,05513.8486,E,0.02,91.50,210715,,,D*55
$GPGGA,114420.000,2509.4355,N,05513.8486,E,2,8,1.06,3.1,M,-26.7,M,0000,0000*77
$GPGSA,A,3,31,12,24,25,05,02,29,21,,,,,1.88,1.06,1.56*09
$GPRMC,114420.000,A,2509.4355,N,05513.8486,E,0.03,91.50,210715,,,D*5E
$GPGGA,114421.000,2509.4356,N,05513.8481,E,2,8,1.06,3.3,M,-26.7,M,0000,0000*70
$GPGSA,A,3,31,12,24,25,05,02,29,21,,,,,1.89,1.06,1.56*08
$GPRMC,114421.000,A,2509.4356,N,05513.8481,E,0.04,91.50,210715,,,D*5C
$GPGGA,114422.000,2509.4357,N,05513.8476,E,2,9,1.02,3.5,M,-26.7,M,0000,0000*79
$GPGSA,A,3,31,12,24,25,05,02,20,29,21,,,,1.86,1.02,1.55*02
$GPGSV,3,1,11,12,75,132,18,25,62,321,37,05,51,095,22,39,45,233,38*7B
$GPGSV,3,2,11,20,40,176,26,29,36,317,47,02,35,037,23,21,22,243,48*79
$GPGSV,3,3,11,24,17,195,19,31,07,313,24,15,01,166,20*48
$GPRMC,114422.000,A,2509.4357,N,05513.8476,E,0.04,91.50,210715,,,D*56
$GPGGA,114423.000,2509.4357,N,05513.8475,E,2,9,1.02,3.5,M,-26.7,M,0000,0000*7B
$GPGSA,A,3,31,12,24,25,05,02,20,29,21,,,,1.86,1.02,1.55*02
$GPRMC,114423.000,A,2509.4357,N,05513.8475,E,0.03,91.50,210715,,,D*53
$GPGGA,114424.000,2509.4357,N,05513.8472,E,2,7,1.08,3.7,M,-26.7,M,0000,0000*7D
$GPGSA,A,3,31,24,25,05,02,29,21,,,,,,2.10,1.08,1.80*0D
$GPRMC,114424.000,A,2509.4357,N,05513.8472,E,0.03,91.50,210715,,,D*53
$GPGGA,114425.000,2509.4357,N,05513.8472,E,2,9,1.02,3.7,M,-26.7,M,0000,0000*78
$GPGSA,A,3,31,12,24,25,05,02,20,29,21,,,,1.86,1.02,1.55*02
$GPRMC,114425.000,A,2509.4357,N,05513.8472,E,0.02,91.50,210715,,,D*53
$GPGGA,114426.000,2509.4357,N,05513.8472,E,2,8,1.02,3.7,M,-26.7,M,0000,0000*7A
$GPGSA,A,3,31,24,25,05,02,20,29,21,,,,,2.05,1.02,1.77*09
$GPRMC,114426.000,A,2509.4357,N,05513.8472,E,0.02,91.50,210715,,,D*50
$GPGGA,114427.000,2509.4357,N,05513.8472,E,2,8,1.06,3.7,M,-26.7,M,0000,0000*7F
$GPGSA,A,3,31,12,24,25,05,02,29,21,,,,,1.88,1.06,1.55*0A
$GPGSV,3,1,11,12,75,132,16,25,62,321,37,05,51,094,19,39,45,233,38*7C

$GPGSV,3,2,11,20,40,176,23,29,36,317,47,02,35,037,22,21,22,243,48*7D
$GPGSV,3,3,11,24,17,195,16,31,07,313,27,15,01,166,19*4E
1437479066-GSM_CMD : DAABFE7481229CDB668EA6D5ECEBFBE7DB759BA152122696B2E407735
8119C9F36B306D262D605933D7D26F7BB87A150
1437479066-GSM_CMD : 6EE374611BF17D6A601AB84CF02DCB2B
1437479066-GSM_CMD : 8FBC5E681E6612795151A2185DFB312E880026AF1206FE9C4DCCBA1B2
ECB7AA0
1437479066-GSM_CMD : 89AEF8759BEC683D378C919BD0F63020
1437479066-GSM_CMD : 82626DAA07F7E8CC3D8841A5C229E5345E59DF42BC8833040F0F3FAA1
095290D
1437479066-GSM_CMD : 4FC9642A6C9F2589BEE9F4C5D515558F9C371193F4DEFB2527833ED65
CAC591242C00188CC77A1047B107B5786BEE355747F604E47808CEB0733012F10E166A8931B12978
4CF3E2C56580D28C1BFC0F7
1437479066-GSM_CMD : BC1C651674B144227E85373B232FA407C2EFC820E8109E87659C52296
50BCC60B25021AC57E7392A65BD0AFB9AC63FC68F1EE1F1642900BC9FC355B4F354EB9608A6662EE
32D721199AF5A6EECDFF11AF0D49D9BCF8C3DEBD8643A8ACD41F652
1437479066-GSM_CMD : 0AABCEE99F9442C73551A7334B9B472A6BE233373A5B3967938042689
E24634AB271E05EF76C5FCED5CD57CCE0BC68A366BE1848495A5DEF5DA87169573305BF
$GPRMC,114427.000,A,2509.4357,N,05513.8472,E,0.01,91.50,210715,,,D*52
1437479066-GSM_CMD : 905FDE24D504CF86E94A1EE47EB7DDA881990FBA1E42826BD24A2D68C
3CFD787FA37D2604AAAF179A04092CCAA65A32240B440C912D1EEF6E0003ACC043F26FF
1437479066-GSM_CMD : 76FFDD92002BF9E2C19BDE811EC200429454AE04F6F793F87C9DDC076
65AD6D419D94C0A2D866BEDAC7301378B11EEB41AC431AA4997B1A9F440323810916036
1437479066-GSM_CMD : 85CD5CC4CF99163925B27CDF2195C5A4BFD1845285D61003133515887
FEFAE43FD1FCAD392055EB57B49D591282545D00C98A41B21DC79389D9C8ADF5E01D423
1437479066-GSM_CMD : 63619F5DD4A40FF47540BDCCFD4410F09F2CED046FBF07D0447BB516E
F9193650F453258EF8EC3ACB33B8F7C59491E544493957208647AFAD336A45687BF0105
1437479066-GSM_CMD : E2036F957ABDED363964D12446DE1EBC9AA0C2A3B351CE550CC72E4FF
9BC39CD3F5FECBD49F66407BCAA6F9E73C1BC37203A80A29939E3BB2A16A805BBA3FC76
1437479066-GSM_CMD : 55D9AEC36FB9FB31A1F1526C85B589BB
$GPGGA,114428.000,2509.4357,N,05513.8472,E,2,8,1.06,3.7,M,-26.7,M,0000,0000*70
$GPGSA,A,3,31,12,24,25,05,02,29,21,,,,,1.88,1.06,1.55*0A
$GPRMC,114428.000,A,2509.4357,N,05513.8472,E,0.02,91.50,210715,,,D*5E
$GPGGA,114429.000,2509.4357,N,05513.8471,E,2,7,1.08,3.7,M,-26.7,M,0000,0000*73
$GPGSA,A,3,31,24,25,05,02,29,21,,,,,,2.10,1.08,1.80*0D
$GPRMC,114429.000,A,2509.4357,N,05513.8471,E,0.02,91.50,210715,,,D*5C
$GPGGA,114430.000,2509.4357,N,05513.8471,E,2,7,1.08,3.7,M,-26.7,M,0000,0000*7B
$GPGSA,A,3,31,24,25,05,02,29,21,,,,,,2.10,1.08,1.80*0D
$GPRMC,114430.000,A,2509.4357,N,05513.8471,E,0.02,91.50,210715,,,D*54
$GPGGA,114431.000,2509.4357,N,05513.8471,E,2,8,1.06,3.8,M,-26.7,M,0000,0000*74
$GPGSA,A,3,31,12,24,25,05,02,29,21,,,,,1.88,1.06,1.55*0A
$GPRMC,114431.000,A,2509.4357,N,05513.8471,E,0.02,91.50,210715,,,D*55
$GPGGA,114432.000,2509.4357,N,05513.8471,E,2,8,1.06,3.8,M,-26.7,M,0000,0000*77
1437479071-TRAC
: Add TRAC_GPRS = 1
@P,BB64,103,0,359551037902474,1437479071,1437479071,1437479071,55230793,25157261
,0,2,707,10,0,0,0,0,,-196,2000,
$GPGSA,A,3,31,12,24,25,05,02,29,21,,,,,1.88,1.06,1.55*0A
$GPGSV,3,1,11,12,75,132,16,25,62,321,37,05,51,094,17,39,45,233,38*72
$GPGSV,3,2,11,20,40,176,23,29,36,317,47,02,35,037,19,21,22,243,48*75
$GPGSV,3,3,11,24,17,195,15,31,07,313,28,15,01,166,20*48
$GPRMC,114432.000,A,2509.4357,N,05513.8471,E,0.01,91.50,210715,,,D*55
1437479071-GSM_CMD : 2D887E11A09BCE0DBD48B471B4CD4607
1437479071-GSM_DATA : Send GPRS Data => 405078E300330B28000147027FE48E8A55AE309
F55AE309F55AE309F034AC149017FDE8D000002000002C3000A00000000000000FF3C07D000
$GPGGA,114433.000,2509.4357,N,05513.8471,E,2,7,1.08,3.8,M,-26.7,M,0000,0000*77
1437479071-GSM_CMD : 55D9AEC36FB9FB31A1F1526C85B589BB
$GPGSA,A,3,31,24,25,05,02,29,21,,,,,,2.10,1.08,1.80*0D
$GPRMC,114433.000,A,2509.4357,N,05513.8471,E,0.01,91.50,210715,,,D*54
1437479072-GSM_CMD : 4BF2B0ED6A317BBF34FDFB8875080138
$GPGGA,114434.000,2509.4357,N,05513.8471,E,2,7,1.08,3.8,M,-26.7,M,0000,0000*70

$GPGSA,A,3,31,24,25,05,02,29,21,,,,,,2.10,1.08,1.80*0D
1437479073-GSM_CMD : 2081E4CDDC0EF27579842436C458D089
1437479073-GSM_CMD : F71EF9C7DDB536A9DE13A1994276C72D
1437479073-GSM_CMD : 1F57346402FE53B1D7D8DD2F6EEB91AEE7584B085083583E79A3350D7
CDFA727
1437479073-GSM_DATA : Receive GPRS Data => 0x[FE02000147027FE48E8A0B28]
1437479073-OUTGOING : [REPORT_QUEUEID] => receive SeqID=>2856
1437479073-GSM_CMD : 55D9AEC36FB9FB31A1F1526C85B589BB
$GPRMC,114434.000,A,2509.4357,N,05513.8471,E,0.02,91.50,210715,,,D*50
$GPGGA,114435.000,2509.4357,N,05513.8471,E,2,7,1.08,3.8,M,-26.7,M,0000,0000*71
$GPGSA,A,3,31,24,25,05,02,29,21,,,,,,2.10,1.08,1.80*0D
$GPRMC,114435.000,A,2509.4357,N,05513.8471,E,0.01,91.50,210715,,,D*52
$GPGGA,114436.000,2509.4357,N,05513.8472,E,2,7,1.08,3.8,M,-26.7,M,0000,0000*71
$GPGSA,A,3,31,24,25,05,02,29,21,,,,,,2.10,1.08,1.80*0D
$GPRMC,114436.000,A,2509.4357,N,05513.8472,E,0.01,91.50,210715,,,D*52
$GPGGA,114437.000,2509.4357,N,05513.8472,E,2,7,1.08,3.8,M,-26.7,M,0000,0000*70
$GPGSA,A,3,31,24,25,05,02,29,21,,,,,,2.10,1.08,1.80*0D
$GPGSV,3,1,11,12,74,132,14,25,62,321,37,05,51,094,16,39,45,233,38*70
$GPGSV,3,2,11,20,40,176,23,29,36,317,47,02,35,037,21,21,22,243,48*7E
$GPGSV,3,3,11,24,17,195,16,31,07,313,28,15,01,165,19*42
$GPRMC,114437.000,A,2509.4357,N,05513.8472,E,0.02,91.50,210715,,,D*50
$GPGGA,114438.000,2509.4357,N,05513.8472,E,2,7,1.00,3.8,M,-26.7,M,0000,0000*77
$GPGSA,A,3,31,24,25,05,02,29,21,,,,,,1.33,1.00,0.87*01
$GPRMC,114438.000,A,2509.4357,N,05513.8472,E,0.02,91.50,210715,,,D*5F
$GPGGA,114439.000,2509.4357,N,05513.8472,E,2,8,1.06,3.8,M,-26.7,M,0000,0000*7F
$GPGSA,A,3,31,12,24,25,05,02,29,21,,,,,1.88,1.06,1.55*0A
$GPRMC,114439.000,A,2509.4357,N,05513.8472,E,0.01,91.50,210715,,,D*5D
$GPGGA,114440.000,2509.4357,N,05513.8472,E,2,8,1.06,3.8,M,-26.7,M,0000,0000*71
$GPGSA,A,3,31,12,24,25,05,02,29,21,,,,,1.88,1.06,1.55*0A
$GPRMC,114440.000,A,2509.4357,N,05513.8472,E,0.03,91.50,210715,,,D*51
$GPGGA,114441.000,2509.4357,N,05513.8472,E,2,7,1.08,3.8,M,-26.7,M,0000,0000*71
$GPGSA,A,3,31,24,25,05,02,29,21,,,,,,2.10,1.08,1.80*0D
$GPRMC,114441.000,A,2509.4357,N,05513.8472,E,0.03,91.50,210715,,,D*50
$GPGGA,114442.000,2509.4357,N,05513.8472,E,2,7,1.08,3.8,M,-26.7,M,0000,0000*72
$GPGSA,A,3,31,24,25,05,02,29,21,,,,,,2.10,1.08,1.80*0D
$GPGSV,3,1,11,12,74,132,15,25,62,321,37,05,51,094,20,39,45,233,38*74
$GPGSV,3,2,11,20,40,176,22,29,36,317,47,02,35,037,21,21,22,243,48*7F
$GPGSV,3,3,11,24,17,195,13,31,07,313,28,15,01,165,20*4D
$GPRMC,114442.000,A,2509.4357,N,05513.8472,E,0.03,91.50,210715,,,D*53
$GPGGA,114443.000,2509.4357,N,05513.8472,E,2,8,1.06,3.8,M,-26.7,M,0000,0000*72
$GPGSA,A,3,31,12,24,25,05,02,29,21,,,,,1.88,1.06,1.55*0A
$GPRMC,114443.000,A,2509.4357,N,05513.8472,E,0.05,91.50,210715,,,D*54
$GPGGA,114444.000,2509.4357,N,05513.8472,E,2,7,1.08,3.8,M,-26.7,M,0000,0000*74
$GPGSA,A,3,31,24,25,05,02,29,21,,,,,,2.10,1.08,1.80*0D
$GPRMC,114444.000,A,2509.4357,N,05513.8472,E,0.05,91.50,210715,,,D*53
$GPGGA,114445.000,2509.4357,N,05513.8472,E,2,8,1.06,3.8,M,-26.7,M,0000,0000*74
$GPGSA,A,3,31,12,24,25,05,02,29,21,,,,,1.88,1.06,1.55*0A
$GPRMC,114445.000,A,2509.4357,N,05513.8472,E,0.03,91.50,210715,,,D*54
$GPGGA,114446.000,2509.4357,N,05513.8472,E,2,8,1.06,3.8,M,-26.7,M,0000,0000*77
$GPGSA,A,3,31,12,24,25,05,02,29,21,,,,,1.88,1.06,1.55*0A
$GPRMC,114446.000,A,2509.4357,N,05513.8472,E,0.04,91.50,210715,,,D*50
$GPGGA,114447.000,2509.4357,N,05513.8472,E,2,8,1.06,3.8,M,-26.7,M,0000,0000*76
$GPGSA,A,3,31,12,24,25,05,02,29,21,,,,,1.88,1.06,1.55*0A
$GPGSV,3,1,11,12,74,132,17,25,63,321,37,05,51,094,21,39,45,233,38*76
$GPGSV,3,2,11,20,40,176,20,29,36,317,47,02,35,037,17,21,22,243,48*78
$GPGSV,3,3,11,24,17,195,13,31,07,313,27,15,01,165,19*48
$GPRMC,114447.000,A,2509.4357,N,05513.8472,E,0.03,91.50,210715,,,D*56
$GPGGA,114448.000,2509.4357,N,05513.8472,E,2,8,1.06,3.8,M,-26.7,M,0000,0000*79
$GPGSA,A,3,31,12,24,25,05,02,29,21,,,,,1.88,1.06,1.55*0A
$GPRMC,114448.000,A,2509.4357,N,05513.8472,E,0.03,91.50,210715,,,D*59

$GPGGA,114449.000,2509.4357,N,05513.8472,E,2,8,1.06,3.8,M,-26.7,M,0000,0000*78
$GPGSA,A,3,31,12,24,25,05,02,29,21,,,,,1.88,1.06,1.55*0A
$GPRMC,114449.000,A,2509.4357,N,05513.8472,E,0.03,91.50,210715,,,D*58
$GPGGA,114450.000,2509.4357,N,05513.8472,E,2,8,1.06,3.8,M,-26.7,M,0000,0000*70
$GPGSA,A,3,31,12,24,25,05,02,29,21,,,,,1.88,1.06,1.55*0A
$GPRMC,114450.000,A,2509.4357,N,05513.8472,E,0.03,91.50,210715,,,D*50
$GPGGA,114451.000,2509.4357,N,05513.8472,E,2,8,1.06,3.8,M,-26.7,M,0000,0000*71
$GPGSA,A,3,31,12,24,25,05,02,29,21,,,,,1.88,1.06,1.55*0A
$GPRMC,114451.000,A,2509.4357,N,05513.8472,E,0.02,91.50,210715,,,D*50
$GPGGA,114452.000,2509.4357,N,05513.8472,E,2,8,1.06,3.8,M,-26.7,M,0000,0000*72
$GPGSA,A,3,31,12,24,25,05,02,29,21,,,,,1.88,1.06,1.55*0A
$GPGSV,3,1,11,12,74,132,17,25,63,321,37,05,51,094,23,39,45,233,38*74
$GPGSV,3,2,11,20,40,176,18,29,36,317,47,02,35,037,12,21,22,243,48*76
$GPGSV,3,3,11,24,17,195,13,31,07,313,28,15,01,165,19*47
$GPRMC,114452.000,A,2509.4357,N,05513.8472,E,0.02,91.50,210715,,,D*53
$GPGGA,114453.000,2509.4357,N,05513.8472,E,2,8,1.06,3.8,M,-26.7,M,0000,0000*73
$GPGSA,A,3,31,12,24,25,05,02,29,21,,,,,1.88,1.06,1.55*0A
$GPRMC,114453.000,A,2509.4357,N,05513.8472,E,0.01,91.50,210715,,,D*51
$GPGGA,114454.000,2509.4357,N,05513.8472,E,2,7,1.08,3.8,M,-26.7,M,0000,0000*75
$GPGSA,A,3,31,24,25,05,02,29,21,,,,,,2.09,1.08,1.80*05
$GPRMC,114454.000,A,2509.4357,N,05513.8472,E,0.01,91.50,210715,,,D*56
$GPGGA,114455.000,2509.4357,N,05513.8472,E,2,7,1.08,3.8,M,-26.7,M,0000,0000*74
$GPGSA,A,3,31,24,25,05,02,29,21,,,,,,2.09,1.08,1.80*05
$GPRMC,114455.000,A,2509.4357,N,05513.8472,E,0.01,91.50,210715,,,D*57
$GPGGA,114456.000,2509.4357,N,05513.8472,E,2,7,1.08,3.8,M,-26.7,M,0000,0000*77
$GPGSA,A,3,31,24,25,05,02,29,21,,,,,,2.09,1.08,1.80*05
$GPRMC,114456.000,A,2509.4357,N,05513.8472,E,0.01,91.50,210715,,,D*54
$GPGGA,114457.000,2509.4357,N,05513.8472,E,2,8,1.06,3.8,M,-26.7,M,0000,0000*77
$GPGSA,A,3,31,12,24,25,05,02,29,21,,,,,1.88,1.06,1.55*0A
$GPGSV,3,1,11,12,74,132,15,25,63,321,37,05,51,094,21,39,45,233,38*74
$GPGSV,3,2,11,20,40,176,15,29,36,317,47,02,35,037,11,21,22,243,48*78
$GPGSV,3,3,11,24,17,195,16,31,07,313,28,15,01,165,19*42
1437479096-GSM_CMD : DAABFE7481229CDB668EA6D5ECEBFBE7DB759BA152122696B2E407735
8119C9F36B306D262D605933D7D26F7BB87A150
$GPRMC,114457.000,A,2509.4357,N,05513.8472,E,0.00,91.50,210715,,,D*54
1437479096-GSM_CMD : 6EE374611BF17D6A601AB84CF02DCB2B
1437479096-GSM_CMD : 8FBC5E681E6612795151A2185DFB312E880026AF1206FE9C4DCCBA1B2
ECB7AA0
1437479096-GSM_CMD : 89AEF8759BEC683D378C919BD0F63020
1437479096-GSM_CMD : 82626DAA07F7E8CC3D8841A5C229E5345E59DF42BC8833040F0F3FAA1
095290D
1437479096-GSM_CMD : 4FC9642A6C9F2589BEE9F4C5D515558F9C371193F4DEFB2527833ED65
CAC591242C00188CC77A1047B107B5786BEE355747F604E47808CEB0733012F10E166A8931B12978
4CF3E2C56580D28C1BFC0F7
1437479096-GSM_CMD : BC1C651674B144227E85373B232FA407C2EFC820E8109E87659C52296
50BCC60B25021AC57E7392A65BD0AFB9AC63FC67776FA9BEEB4472782719253951B230E08A6662EE
32D721199AF5A6EECDFF11AF0D49D9BCF8C3DEBD8643A8ACD41F652
1437479096-GSM_CMD : 0AABCEE99F9442C73551A7334B9B472A6BE233373A5B3967938042689
E24634AB271E05EF76C5FCED5CD57CCE0BC68A366BE1848495A5DEF5DA87169573305BF
1437479096-GSM_CMD : 905FDE24D504CF86E94A1EE47EB7DDA881990FBA1E42826BD24A2D68C
3CFD7876CF81B1637460FE0DDED19BA372AC13236DFD3C4B2D5DE5C60E97DDC27A78F0F
1437479096-GSM_CMD : 76FFDD92002BF9E2C19BDE811EC200429454AE04F6F793F87C9DDC076
65AD6D478A7085E59F87B5A8871ACB2E5042D07022B8521B3099CD542858D28966BFA61
1437479096-GSM_CMD : 85CD5CC4CF99163925B27CDF2195C5A4BFD1845285D61003133515887
FEFAE43D69662EEB9FEAA97BD15E7234A641FDA1AC431AA4997B1A9F440323810916036
1437479096-GSM_CMD : 63619F5DD4A40FF47540BDCCFD4410F09F2CED046FBF07D0447BB516E
F9193650F453258EF8EC3ACB33B8F7C59491E544493957208647AFAD336A45687BF0105
1437479096-GSM_CMD : E2036F957ABDED363964D12446DE1EBC9AA0C2A3B351CE550CC72E4FF
9BC39CDBA433DB6F0F70F1A235C1179363F1CAAB575325C94FAF2CCF0B8106D9BCE2845
1437479096-GSM_CMD : 55D9AEC36FB9FB31A1F1526C85B589BB

$GPGGA,114458.000,2509.4357,N,05513.8472,E,2,7,1.08,3.8,M,-26.7,M,0000,0000*79
$GPGSA,A,3,31,24,25,05,02,29,21,,,,,,2.09,1.08,1.79*03
$GPRMC,114458.000,A,2509.4357,N,05513.8472,E,0.01,91.50,210715,,,D*5A
$GPGGA,114459.000,2509.4357,N,05513.8472,E,2,8,1.06,3.8,M,-26.7,M,0000,0000*79
$GPGSA,A,3,31,12,24,25,05,02,29,21,,,,,1.88,1.06,1.55*0A
$GPRMC,114459.000,A,2509.4357,N,05513.8472,E,0.00,91.50,210715,,,D*5A
$GPGGA,114500.000,2509.4357,N,05513.8473,E,2,8,1.06,3.8,M,-26.7,M,0000,0000*75
$GPGSA,A,3,31,12,24,25,05,02,29,21,,,,,1.88,1.06,1.55*0A
$GPRMC,114500.000,A,2509.4357,N,05513.8473,E,0.01,91.50,210715,,,D*57
$GPGGA,114501.000,2509.4357,N,05513.8473,E,2,8,1.06,3.8,M,-26.7,M,0000,0000*74
$GPGSA,A,3,31,12,24,25,05,02,29,21,,,,,1.88,1.06,1.55*0A
$GPRMC,114501.000,A,2509.4357,N,05513.8473,E,0.02,91.50,210715,,,D*55
$GPGGA,114502.000,2509.4357,N,05513.8473,E,2,8,1.06,3.8,M,-26.7,M,0000,0000*77
$GPGSA,A,3,31,12,24,25,05,02,29,21,,,,,1.88,1.06,1.55*0A
1437479101-TRAC
: Add TRAC_GPRS = 1
@P,B5C3,103,0,359551037902474,1437479101,1437479101,1437479101,55230793,25157261
,0,2,707,10,0,0,0,0,,-196,2000,
$GPGSV,3,1,11,12,74,132,17,25,63,321,37,05,51,094,19,39,45,233,38*7D
$GPGSV,3,2,11,20,40,176,19,29,36,317,47,02,34,037,14,21,22,243,48*70
$GPGSV,3,3,11,24,17,195,14,31,07,313,28,15,01,165,19*40
$GPRMC,114502.000,A,2509.4357,N,05513.8473,E,0.02,91.50,210715,,,D*56
1437479101-GSM_CMD : 2D887E11A09BCE0DBD48B471B4CD4607
$GPGGA,114503.000,2509.4357,N,05513.8473,E,2,7,1.08,3.8,M,-26.7,M,0000,0000*77
1437479101-GSM_DATA : Send GPRS Data => 40509E1A00330B29000147027FE48E8A55AE30B
D55AE30BD55AE30BD034AC149017FDE8D000002000002C3000A00000000000000FF3C07D000
$GPGSA,A,3,31,24,25,05,02,29,21,,,,,,2.09,1.08,1.80*05
1437479101-GSM_CMD : 55D9AEC36FB9FB31A1F1526C85B589BB
$GPRMC,114503.000,A,2509.4357,N,05513.8473,E,0.02,91.50,210715,,,D*57
1437479102-GSM_CMD : 4BF2B0ED6A317BBF34FDFB8875080138
$GPGGA,114504.000,2509.4357,N,05513.8473,E,2,8,0.98,3.8,M,-26.7,M,0000,0000*77
$GPGSA,A,3,31,12,24,25,05,02,29,21,,,,,1.29,0.98,0.84*0A
$GPRMC,114504.000,A,2509.4357,N,05513.8473,E,0.01,91.50,210715,,,D*53
1437479103-GSM_CMD : 2081E4CDDC0EF27579842436C458D089
1437479103-GSM_CMD : F71EF9C7DDB536A9DE13A1994276C72D
1437479103-GSM_CMD : 1F57346402FE53B1D7D8DD2F6EEB91AE56036B58C7EFA178D36AD0AF1
16A75C0
1437479103-GSM_DATA : Receive GPRS Data => 0x[FE02000147027FE48E8A0B29]
1437479103-OUTGOING : [REPORT_QUEUEID] => receive SeqID=>2857
1437479103-GSM_CMD : 55D9AEC36FB9FB31A1F1526C85B589BB
$GPGGA,114505.000,2509.4357,N,05513.8473,E,2,7,1.00,3.8,M,-26.7,M,0000,0000*79
$GPGSA,A,3,31,24,25,05,02,29,21,,,,,,1.33,1.00,0.87*01
$GPRMC,114505.000,A,2509.4357,N,05513.8473,E,0.02,91.50,210715,,,D*51
$GPGGA,114506.000,2509.4357,N,05513.8473,E,2,7,1.00,3.9,M,-26.7,M,0000,0000*7B
$GPGSA,A,3,31,24,25,05,02,29,21,,,,,,1.33,1.00,0.87*01
$GPRMC,114506.000,A,2509.4357,N,05513.8473,E,0.02,91.50,210715,,,D*52
$GPGGA,114507.000,2509.4357,N,05513.8473,E,2,7,1.00,3.9,M,-26.7,M,0000,0000*7A
$GPGSA,A,3,31,24,25,05,02,29,21,,,,,,1.33,1.00,0.87*01
$GPGSV,3,1,11,12,74,132,15,25,63,321,37,05,51,094,17,39,45,233,38*71
$GPGSV,3,2,11,20,40,176,15,29,36,317,47,02,34,037,14,21,22,243,48*7C
$GPGSV,3,3,11,24,17,195,14,31,07,313,28,15,01,165,19*40
$GPRMC,114507.000,A,2509.4357,N,05513.8473,E,0.01,91.50,210715,,,D*50
$GPGGA,114508.000,2509.4357,N,05513.8473,E,2,7,1.00,3.9,M,-26.7,M,0000,0000*75
$GPGSA,A,3,31,24,25,05,02,29,21,,,,,,1.33,1.00,0.87*01
$GPRMC,114508.000,A,2509.4357,N,05513.8473,E,0.02,91.50,210715,,,D*5C
$GPGGA,114509.000,2509.4357,N,05513.8473,E,2,7,1.08,3.9,M,-26.7,M,0000,0000*7C
$GPGSA,A,3,31,24,25,05,02,29,21,,,,,,2.09,1.08,1.79*03
$GPRMC,114509.000,A,2509.4357,N,05513.8473,E,0.01,91.50,210715,,,D*5E
$GPGGA,114510.000,2509.4357,N,05513.8473,E,2,7,1.00,3.9,M,-26.7,M,0000,0000*7C
$GPGSA,A,3,31,24,25,05,02,29,21,,,,,,1.33,1.00,0.87*01
$GPRMC,114510.000,A,2509.4357,N,05513.8473,E,0.03,91.50,210715,,,D*54

$GPGGA,114511.000,2509.4357,N,05513.8473,E,2,7,1.00,3.9,M,-26.7,M,0000,0000*7D
$GPGSA,A,3,31,24,25,05,02,29,21,,,,,,1.33,1.00,0.87*01
$GPRMC,114511.000,A,2509.4357,N,05513.8473,E,0.02,91.50,210715,,,D*54
$GPGGA,114512.000,2509.4357,N,05513.8473,E,2,7,1.00,3.9,M,-26.7,M,0000,0000*7E
$GPGSA,A,3,31,24,25,05,02,29,21,,,,,,1.33,1.00,0.87*01
$GPGSV,3,1,11,12,74,133,17,25,63,321,37,05,51,094,14,39,45,233,38*71
$GPGSV,3,2,11,20,40,176,16,29,36,317,47,02,34,037,17,21,22,243,48*7C
$GPGSV,3,3,11,24,17,195,16,31,07,313,28,15,01,165,19*42
$GPRMC,114512.000,A,2509.4357,N,05513.8473,E,0.02,91.50,210715,,,D*57
$GPGGA,114513.000,2509.4357,N,05513.8473,E,2,7,1.08,3.9,M,-26.7,M,0000,0000*77
$GPGSA,A,3,31,24,25,05,02,29,21,,,,,,2.09,1.08,1.79*03
$GPRMC,114513.000,A,2509.4357,N,05513.8473,E,0.02,91.50,210715,,,D*56
$GPGGA,114514.000,2509.4357,N,05513.8473,E,2,7,1.08,3.9,M,-26.7,M,0000,0000*70
$GPGSA,A,3,31,24,25,05,02,29,21,,,,,,2.09,1.08,1.79*03
$GPRMC,114514.000,A,2509.4357,N,05513.8473,E,0.01,91.50,210715,,,D*52
$GPGGA,114515.000,2509.4357,N,05513.8473,E,2,7,1.08,3.9,M,-26.7,M,0000,0000*71
$GPGSA,A,3,31,24,25,05,02,29,21,,,,,,2.09,1.08,1.79*03
$GPRMC,114515.000,A,2509.4357,N,05513.8473,E,0.01,91.50,210715,,,D*53
$GPGGA,114516.000,2509.4357,N,05513.8473,E,2,7,1.08,3.9,M,-26.7,M,0000,0000*72
$GPGSA,A,3,31,24,25,05,02,29,21,,,,,,2.09,1.08,1.79*03
$GPRMC,114516.000,A,2509.4357,N,05513.8473,E,0.02,91.50,210715,,,D*53
$GPGGA,114517.000,2509.4357,N,05513.8473,E,2,7,1.08,3.9,M,-26.7,M,0000,0000*73
$GPGSA,A,3,31,24,25,05,02,29,21,,,,,,2.09,1.08,1.79*03
$GPGSV,3,1,11,12,74,133,17,25,63,321,37,05,51,094,17,39,45,233,38*72
$GPGSV,3,2,11,20,41,176,19,29,36,317,47,02,34,037,17,21,22,243,48*72
$GPGSV,3,3,11,24,17,195,17,31,07,313,28,15,01,165,19*43
$GPRMC,114517.000,A,2509.4357,N,05513.8473,E,0.02,91.50,210715,,,D*52
$GPGGA,114518.000,2509.4357,N,05513.8473,E,2,7,1.08,3.9,M,-26.7,M,0000,0000*7C
$GPGSA,A,3,31,24,25,05,02,29,21,,,,,,2.09,1.08,1.79*03
$GPRMC,114518.000,A,2509.4357,N,05513.8473,E,0.02,91.50,210715,,,D*5D
$GPGGA,114519.000,2509.4357,N,05513.8473,E,2,7,1.08,3.9,M,-26.7,M,0000,0000*7D
$GPGSA,A,3,31,24,25,05,02,29,21,,,,,,2.09,1.08,1.79*03
$GPRMC,114519.000,A,2509.4357,N,05513.8473,E,0.02,91.50,210715,,,D*5C
$GPGGA,114520.000,2509.4357,N,05513.8473,E,2,8,1.06,3.9,M,-26.7,M,0000,0000*76
$GPGSA,A,3,31,12,24,25,05,02,29,21,,,,,1.87,1.06,1.55*05
$GPRMC,114520.000,A,2509.4357,N,05513.8473,E,0.02,91.50,210715,,,D*56
$GPGGA,114521.000,2509.4357,N,05513.8473,E,2,8,1.06,3.9,M,-26.7,M,0000,0000*77
$GPGSA,A,3,31,12,24,25,05,02,29,21,,,,,1.87,1.06,1.54*04
$GPRMC,114521.000,A,2509.4357,N,05513.8473,E,0.03,91.50,210715,,,D*56
$GPGGA,114522.000,2509.4357,N,05513.8473,E,2,8,1.06,3.9,M,-26.7,M,0000,0000*74
$GPGSA,A,3,31,12,24,25,05,02,29,21,,,,,1.87,1.06,1.54*04
$GPGSV,3,1,11,12,74,133,19,25,63,321,37,05,51,094,23,39,45,233,38*7B
$GPGSV,3,2,11,20,41,176,15,29,36,317,47,02,34,037,19,21,22,243,48*70
$GPGSV,3,3,11,24,16,195,17,31,07,313,28,15,01,165,19*42
$GPRMC,114522.000,A,2509.4357,N,05513.8473,E,0.01,91.50,210715,,,D*57
$GPGGA,114523.000,2509.4357,N,05513.8473,E,2,8,1.06,3.9,M,-26.7,M,0000,0000*75
$GPGSA,A,3,31,12,24,25,05,02,29,21,,,,,1.87,1.06,1.55*05
$GPRMC,114523.000,A,2509.4357,N,05513.8473,E,0.01,91.50,210715,,,D*56
$GPGGA,114524.000,2509.4357,N,05513.8473,E,2,7,1.08,3.9,M,-26.7,M,0000,0000*73
$GPGSA,A,3,31,24,25,05,02,29,21,,,,,,2.09,1.08,1.79*03
$GPRMC,114524.000,A,2509.4357,N,05513.8473,E,0.00,91.50,210715,,,D*50
$GPGGA,114525.000,2509.4357,N,05513.8473,E,2,8,1.06,3.9,M,-26.7,M,0000,0000*73
$GPGSA,A,3,31,12,24,25,05,02,29,21,,,,,1.87,1.06,1.55*05
$GPRMC,114525.000,A,2509.4357,N,05513.8473,E,0.01,91.50,210715,,,D*50
$GPGGA,114526.000,2509.4357,N,05513.8473,E,2,8,1.06,3.9,M,-26.7,M,0000,0000*70
$GPGSA,A,3,31,12,24,25,05,02,29,21,,,,,1.87,1.06,1.54*04
$GPRMC,114526.000,A,2509.4357,N,05513.8473,E,0.03,91.50,210715,,,D*51
$GPGGA,114527.000,2509.4357,N,05513.8473,E,2,7,1.08,4.0,M,-26.7,M,0000,0000*7E
$GPGSA,A,3,31,24,25,05,02,29,21,,,,,,2.09,1.08,1.79*03
$GPGSV,3,1,11,12,74,133,21,25,63,321,37,05,51,094,23,39,45,233,38*70

$GPGSV,3,2,11,20,41,176,17,29,36,317,47,02,34,037,19,21,22,243,48*72
$GPGSV,3,3,11,24,16,195,17,31,07,313,28,15,01,165,19*42
$GPRMC,114527.000,A,2509.4357,N,05513.8473,E,0.01,91.50,210715,,,D*52
1437479126-GSM_CMD : DAABFE7481229CDB668EA6D5ECEBFBE7DB759BA152122696B2E407735
8119C9F36B306D262D605933D7D26F7BB87A150
1437479126-GSM_CMD : 6EE374611BF17D6A601AB84CF02DCB2B
1437479126-GSM_CMD : 8FBC5E681E6612795151A2185DFB312E880026AF1206FE9C4DCCBA1B2
ECB7AA0
1437479126-GSM_CMD : 89AEF8759BEC683D378C919BD0F63020
1437479126-GSM_CMD : 82626DAA07F7E8CC3D8841A5C229E5345E59DF42BC8833040F0F3FAA1
095290D
1437479126-GSM_CMD : 4FC9642A6C9F2589BEE9F4C5D515558F9C371193F4DEFB2527833ED65
CAC591242C00188CC77A1047B107B5786BEE355747F604E47808CEB0733012F10E166A8931B12978
4CF3E2C56580D28C1BFC0F7
1437479126-GSM_CMD : BC1C651674B144227E85373B232FA407C2EFC820E8109E87659C52296
50BCC60B25021AC57E7392A65BD0AFB9AC63FC68F1EE1F1642900BC9FC355B4F354EB9608A6662EE
32D721199AF5A6EECDFF11AF0D49D9BCF8C3DEBD8643A8ACD41F652
1437479126-GSM_CMD : 0AABCEE99F9442C73551A7334B9B472A6BE233373A5B3967938042689
E24634AD9CDF4BC232AE5C7C99377F470D8D11B8D5259F66895D305CD86941273DB02D6
1437479126-GSM_CMD : 905FDE24D504CF86E94A1EE47EB7DDA881990FBA1E42826BD24A2D68C
3CFD7876CF81B1637460FE0DDED19BA372AC13236DFD3C4B2D5DE5C60E97DDC27A78F0F
1437479126-GSM_CMD : 76FFDD92002BF9E2C19BDE811EC200429454AE04F6F793F87C9DDC076
65AD6D47C3C4F379368825BF642B818A9F3723A6305FFBA70CDC57D08384936CA69E4BC
1437479126-GSM_CMD : 85CD5CC4CF99163925B27CDF2195C5A4BFD1845285D61003133515887
FEFAE43D69662EEB9FEAA97BD15E7234A641FDA1AC431AA4997B1A9F440323810916036
1437479126-GSM_CMD : 63619F5DD4A40FF47540BDCCFD4410F09F2CED046FBF07D0447BB516E
F9193650F453258EF8EC3ACB33B8F7C59491E544493957208647AFAD336A45687BF0105
1437479126-GSM_CMD : E2036F957ABDED363964D12446DE1EBC9AA0C2A3B351CE550CC72E4FF
9BC39CD092B70E5A71CE1B87AC1C0803EE713D914BAC4FE9818FF787DEC0D245B7E6BBC
1437479126-GSM_CMD : 55D9AEC36FB9FB31A1F1526C85B589BB
$GPGGA,114528.000,2509.4357,N,05513.8473,E,2,7,1.08,4.0,M,-26.7,M,0000,0000*71
$GPGSA,A,3,31,24,25,05,02,29,21,,,,,,2.09,1.08,1.79*03
$GPRMC,114528.000,A,2509.4357,N,05513.8473,E,0.01,91.50,210715,,,D*5D
$GPGGA,114529.000,2509.4357,N,05513.8473,E,2,7,1.08,4.0,M,-26.7,M,0000,0000*70
$GPGSA,A,3,31,24,25,05,02,29,21,,,,,,2.08,1.08,1.79*02
$GPRMC,114529.000,A,2509.4357,N,05513.8473,E,0.01,91.50,210715,,,D*5C
$GPGGA,114530.000,2509.4357,N,05513.8473,E,2,7,1.07,4.0,M,-26.7,M,0000,0000*77
$GPGSA,A,3,31,24,25,05,02,29,21,,,,,,2.09,1.07,1.79*0C
$GPRMC,114530.000,A,2509.4357,N,05513.8473,E,0.01,91.50,210715,,,D*54
$GPGGA,114531.000,2509.4357,N,05513.8473,E,2,7,1.08,4.0,M,-26.7,M,0000,0000*79
$GPGSA,A,3,31,24,25,05,02,29,21,,,,,,2.08,1.08,1.79*02
$GPRMC,114531.000,A,2509.4357,N,05513.8473,E,0.01,91.50,210715,,,D*55
$GPGGA,114532.000,2509.4357,N,05513.8473,E,2,8,1.06,4.0,M,-26.7,M,0000,0000*7B
$GPGSA,A,3,31,12,24,25,05,02,29,21,,,,,1.87,1.06,1.54*04
1437479131-TRAC
: Add TRAC_GPRS = 1
@P,3788,103,0,359551037902474,1437479131,1437479131,1437479131,55230793,25157261
,0,2,707,10,0,0,0,0,,-195,2000,
$GPGSV,3,1,11,12,74,133,23,25,63,321,38,05,51,094,21,39,45,233,38*7F
$GPGSV,3,2,11,20,41,176,14,29,36,317,47,02,34,037,18,21,22,243,48*70
$GPGSV,3,3,11,24,16,195,16,31,07,313,28,15,01,165,19*43
$GPRMC,114532.000,A,2509.4357,N,05513.8473,E,0.01,91.50,210715,,,D*56
1437479131-GSM_CMD : 2D887E11A09BCE0DBD48B471B4CD4607
$GPGGA,114533.000,2509.4357,N,05513.8473,E,2,8,1.06,4.0,M,-26.7,M,0000,0000*7A
1437479131-GSM_DATA : Send GPRS Data => 4050091300330B2A000147027FE48E8A55AE30D
B55AE30DB55AE30DB034AC149017FDE8D000002000002C3000A00000000000000FF3D07D000
$GPGSA,A,3,31,12,24,25,05,02,29,21,,,,,1.87,1.06,1.54*04
1437479131-GSM_CMD : 55D9AEC36FB9FB31A1F1526C85B589BB
$GPRMC,114533.000,A,2509.4357,N,05513.8473,E,0.01,91.50,210715,,,D*57
1437479132-GSM_CMD : 4BF2B0ED6A317BBF34FDFB8875080138
$GPGGA,114534.000,2509.4357,N,05513.8473,E,2,8,1.06,4.0,M,-26.7,M,0000,0000*7D

$GPGSA,A,3,31,12,24,25,05,02,29,21,,,,,1.87,1.06,1.54*04
$GPRMC,114534.000,A,2509.4357,N,05513.8473,E,0.03,91.50,210715,,,D*52
1437479133-GSM_CMD : 2081E4CDDC0EF27579842436C458D089
1437479133-GSM_CMD : F71EF9C7DDB536A9DE13A1994276C72D
1437479133-GSM_CMD : 1F57346402FE53B1D7D8DD2F6EEB91AEA55E7F976AFA59D45BD526B59
19100B5
1437479133-GSM_DATA : Receive GPRS Data => 0x[FE02000147027FE48E8A0B2A]
1437479133-OUTGOING : [REPORT_QUEUEID] => receive SeqID=>2858
1437479133-GSM_CMD : 55D9AEC36FB9FB31A1F1526C85B589BB
$GPGGA,114535.000,2509.4357,N,05513.8473,E,2,8,1.06,4.0,M,-26.7,M,0000,0000*7C
$GPGSA,A,3,31,12,24,25,05,02,29,21,,,,,1.87,1.06,1.54*04
$GPRMC,114535.000,A,2509.4357,N,05513.8473,E,0.01,91.50,210715,,,D*51
$GPGGA,114536.000,2509.4357,N,05513.8473,E,2,8,1.06,4.0,M,-26.7,M,0000,0000*7F
$GPGSA,A,3,31,12,24,25,05,02,29,21,,,,,1.87,1.06,1.54*04
$GPRMC,114536.000,A,2509.4357,N,05513.8473,E,0.02,91.50,210715,,,D*51
$GPGGA,114537.000,2509.4357,N,05513.8473,E,2,8,1.06,4.0,M,-26.7,M,0000,0000*7E
$GPGSA,A,3,31,12,24,25,05,02,29,21,,,,,1.87,1.06,1.54*04
$GPGSV,3,1,11,12,74,133,26,25,63,321,38,05,51,093,21,39,45,233,38*7D
$GPGSV,3,2,11,20,41,176,15,29,36,317,47,02,34,037,18,21,22,243,48*71
$GPGSV,3,3,11,24,16,195,16,31,07,313,28,15,01,165,19*43
$GPRMC,114537.000,A,2509.4357,N,05513.8473,E,0.04,91.50,210715,,,D*56
$GPGGA,114538.000,2509.4357,N,05513.8473,E,2,8,1.06,4.0,M,-26.7,M,0000,0000*71
$GPGSA,A,3,31,12,24,25,05,02,29,21,,,,,1.87,1.06,1.54*04
$GPRMC,114538.000,A,2509.4357,N,05513.8473,E,0.01,91.50,210715,,,D*5C
$GPGGA,114539.000,2509.4357,N,05513.8473,E,2,8,1.06,4.0,M,-26.7,M,0000,0000*70
$GPGSA,A,3,31,12,24,25,05,02,29,21,,,,,1.87,1.06,1.54*04
$GPRMC,114539.000,A,2509.4357,N,05513.8473,E,0.02,91.50,210715,,,D*5E
$GPGGA,114540.000,2509.4357,N,05513.8473,E,2,8,1.06,4.0,M,-26.7,M,0000,0000*7E
$GPGSA,A,3,31,12,24,25,05,02,29,21,,,,,1.87,1.06,1.54*04
$GPRMC,114540.000,A,2509.4357,N,05513.8473,E,0.02,91.50,210715,,,D*50
$GPGGA,114541.000,2509.4357,N,05513.8473,E,2,8,1.06,4.0,M,-26.7,M,0000,0000*7F
$GPGSA,A,3,31,12,24,25,05,02,29,21,,,,,1.87,1.06,1.54*04
$GPRMC,114541.000,A,2509.4357,N,05513.8473,E,0.01,91.50,210715,,,D*52
$GPGGA,114542.000,2509.4357,N,05513.8473,E,2,8,1.06,4.0,M,-26.7,M,0000,0000*7C
$GPGSA,A,3,31,12,24,25,05,02,29,21,,,,,1.87,1.06,1.54*04
$GPGSV,3,1,11,12,74,133,26,25,63,321,39,05,51,093,17,39,45,233,38*79
$GPGSV,3,2,11,20,41,176,,29,36,317,47,02,34,037,19,21,22,243,48*74
$GPGSV,3,3,11,24,16,195,15,31,07,313,27,15,01,165,19*4F
$GPRMC,114542.000,A,2509.4357,N,05513.8473,E,0.02,91.50,210715,,,D*52
$GPGGA,114543.000,2509.4357,N,05513.8473,E,2,8,1.06,4.0,M,-26.7,M,0000,0000*7D
$GPGSA,A,3,31,12,24,25,05,02,29,21,,,,,1.87,1.06,1.54*04
$GPRMC,114543.000,A,2509.4357,N,05513.8473,E,0.00,91.50,210715,,,D*51
$GPGGA,114544.000,2509.4357,N,05513.8473,E,2,8,1.06,4.0,M,-26.7,M,0000,0000*7A
$GPGSA,A,3,31,12,24,25,05,02,29,21,,,,,1.87,1.06,1.54*04
$GPRMC,114544.000,A,2509.4357,N,05513.8473,E,0.02,91.50,210715,,,D*54
$GPGGA,114545.000,2509.4357,N,05513.8473,E,2,8,1.06,4.0,M,-26.7,M,0000,0000*7B
$GPGSA,A,3,31,12,24,25,05,02,29,21,,,,,1.87,1.06,1.54*04
$GPRMC,114545.000,A,2509.4357,N,05513.8473,E,0.01,91.50,210715,,,D*56
$GPGGA,114546.000,2509.4357,N,05513.8473,E,2,8,1.06,4.0,M,-26.7,M,0000,0000*78
$GPGSA,A,3,31,12,24,25,05,02,29,21,,,,,1.87,1.06,1.54*04
$GPRMC,114546.000,A,2509.4357,N,05513.8473,E,0.00,91.50,210715,,,D*54
$GPGGA,114547.000,2509.4357,N,05513.8473,E,2,8,1.06,4.0,M,-26.7,M,0000,0000*79
$GPGSA,A,3,31,12,24,25,05,02,29,21,,,,,1.87,1.06,1.54*04
$GPGSV,3,1,11,12,74,134,26,25,63,321,39,05,51,093,17,39,45,233,38*7E
$GPGSV,3,2,11,20,41,176,,29,36,317,47,02,34,037,22,21,22,243,48*7C
$GPGSV,3,3,11,24,16,195,14,31,07,313,27,15,01,165,19*4E
$GPRMC,114547.000,A,2509.4357,N,05513.8473,E,0.01,91.50,210715,,,D*54
$GPGGA,114548.000,2509.4357,N,05513.8473,E,2,8,1.06,4.0,M,-26.7,M,0000,0000*76
$GPGSA,A,3,31,12,24,25,05,02,29,21,,,,,1.87,1.06,1.54*04
$GPRMC,114548.000,A,2509.4357,N,05513.8473,E,0.01,91.50,210715,,,D*5B

$GPGGA,114549.000,2509.4357,N,05513.8473,E,2,8,1.06,4.0,M,-26.7,M,0000,0000*77
$GPGSA,A,3,31,12,24,25,05,02,29,21,,,,,1.87,1.06,1.54*04
$GPRMC,114549.000,A,2509.4357,N,05513.8473,E,0.01,91.50,210715,,,D*5A
$GPGGA,114550.000,2509.4357,N,05513.8473,E,2,8,1.06,4.0,M,-26.7,M,0000,0000*7F
$GPGSA,A,3,31,12,24,25,05,02,29,21,,,,,1.87,1.06,1.54*04
$GPRMC,114550.000,A,2509.4357,N,05513.8473,E,0.01,91.50,210715,,,D*52
$GPGGA,114551.000,2509.4357,N,05513.8473,E,2,8,1.06,4.0,M,-26.7,M,0000,0000*7E
$GPGSA,A,3,31,12,24,25,05,02,29,21,,,,,1.87,1.06,1.54*04
$GPRMC,114551.000,A,2509.4357,N,05513.8473,E,0.00,91.50,210715,,,D*52
$GPGGA,114552.000,2509.4357,N,05513.8473,E,2,8,1.06,4.0,M,-26.7,M,0000,0000*7D
$GPGSA,A,3,31,12,24,25,05,02,29,21,,,,,1.87,1.06,1.54*04
$GPGSV,3,1,11,12,74,134,25,25,63,321,40,05,51,093,18,39,45,233,38*7C
$GPGSV,3,2,11,20,41,175,,29,36,317,47,02,34,037,22,21,22,243,47*70
$GPGSV,3,3,11,24,16,195,12,31,07,313,27,15,01,165,18*49
$GPRMC,114552.000,A,2509.4357,N,05513.8473,E,0.01,91.50,210715,,,D*50
$GPGGA,114553.000,2509.4357,N,05513.8472,E,2,9,1.01,4.1,M,-26.7,M,0000,0000*7A
$GPGSA,A,3,31,12,24,25,05,02,20,29,21,,,,1.84,1.01,1.54*02
$GPRMC,114553.000,A,2509.4357,N,05513.8472,E,0.01,91.50,210715,,,D*50
$GPGGA,114554.000,2509.4357,N,05513.8471,E,2,9,1.01,4.2,M,-26.7,M,0000,0000*7D
$GPGSA,A,3,31,12,24,25,05,02,20,29,21,,,,1.84,1.01,1.54*02
$GPRMC,114554.000,A,2509.4357,N,05513.8471,E,0.01,91.50,210715,,,D*54
$GPGGA,114555.000,2509.4357,N,05513.8471,E,2,9,1.01,4.3,M,-26.7,M,0000,0000*7D
$GPGSA,A,3,31,12,24,25,05,02,20,29,21,,,,1.84,1.01,1.54*02
$GPRMC,114555.000,A,2509.4357,N,05513.8471,E,0.01,91.50,210715,,,D*55
$GPGGA,114556.000,2509.4358,N,05513.8469,E,2,8,1.02,4.3,M,-26.7,M,0000,0000*7A
$GPGSA,A,3,31,24,25,05,02,20,29,21,,,,,2.02,1.02,1.75*0C
$GPRMC,114556.000,A,2509.4358,N,05513.8469,E,0.02,91.50,210715,,,D*53
$GPGGA,114557.000,2509.4358,N,05513.8469,E,2,9,1.01,4.3,M,-26.7,M,0000,0000*79
$GPGSA,A,3,31,12,24,25,05,02,20,29,21,,,,1.84,1.01,1.54*02
$GPGSV,3,1,11,12,74,134,24,25,63,321,40,05,51,093,18,39,45,233,38*7D
$GPGSV,3,2,11,20,41,175,25,29,36,317,47,02,34,037,21,21,23,243,47*75
$GPGSV,3,3,11,24,16,194,13,31,07,313,27,15,01,165,19*48
$GPRMC,114557.000,A,2509.4358,N,05513.8469,E,0.01,91.50,210715,,,D*51
1437479156-GSM_CMD : DAABFE7481229CDB668EA6D5ECEBFBE7DB759BA152122696B2E407735
8119C9F36B306D262D605933D7D26F7BB87A150
1437479156-GSM_CMD : 6EE374611BF17D6A601AB84CF02DCB2B
1437479156-GSM_CMD : 8FBC5E681E6612795151A2185DFB312E880026AF1206FE9C4DCCBA1B2
ECB7AA0
1437479156-GSM_CMD : 89AEF8759BEC683D378C919BD0F63020
1437479156-GSM_CMD : 82626DAA07F7E8CC3D8841A5C229E5345E59DF42BC8833040F0F3FAA1
095290D
1437479156-GSM_CMD : 4FC9642A6C9F2589BEE9F4C5D515558F9C371193F4DEFB2527833ED65
CAC591242C00188CC77A1047B107B5786BEE355747F604E47808CEB0733012F10E166A8931B12978
4CF3E2C56580D28C1BFC0F7
1437479156-GSM_CMD : BC1C651674B144227E85373B232FA407C2EFC820E8109E87659C52296
50BCC60770ACDCC6C86EB4C4F7DFDE81EACF5E927071049DE3269464219D0F789C3E91808A6662EE
32D721199AF5A6EECDFF11AF0D49D9BCF8C3DEBD8643A8ACD41F652
$GPGGA,114558.000,2509.4358,N,05513.8469,E,2,8,1.02,4.3,M,-26.7,M,0000,0000*74
1437479156-GSM_CMD : 101986B3F4167C35541DE10177E5C57081990FBA1E42826BD24A2D68C
3CFD7875F3F4C1816F1FE99A213FB0C9DD3937766BE1848495A5DEF5DA87169573305BF
1437479156-GSM_CMD : 0A2241D8C540D921172F7EF41B5395CA6BE233373A5B3967938042689
E24634AD9CDF4BC232AE5C7C99377F470D8D11B8D5259F66895D305CD86941273DB02D6
1437479156-GSM_CMD : 76FFDD92002BF9E2C19BDE811EC200429454AE04F6F793F87C9DDC076
65AD6D47C3C4F379368825BF642B818A9F3723A6305FFBA70CDC57D08384936CA69E4BC
1437479156-GSM_CMD : 85CD5CC4CF99163925B27CDF2195C5A4BFD1845285D61003133515887
FEFAE4366A51072FEA9C760CEEF6E8C516DE07E022B8521B3099CD542858D28966BFA61
1437479156-GSM_CMD : 63619F5DD4A40FF47540BDCCFD4410F09F2CED046FBF07D0447BB516E
F9193650F453258EF8EC3ACB33B8F7C59491E544493957208647AFAD336A45687BF0105
$GPGSA,A,3,31,24,25,05,02,20,29,21,,,,,2.02,1.02,1.75*0C
1437479156-GSM_CMD : E2036F957ABDED363964D12446DE1EBC9AA0C2A3B351CE550CC72E4FF

9BC39CD3F5FECBD49F66407BCAA6F9E73C1BC37203A80A29939E3BB2A16A805BBA3FC76
1437479156-GSM_CMD : 55D9AEC36FB9FB31A1F1526C85B589BB
$GPRMC,114558.000,A,2509.4358,N,05513.8469,E,0.00,91.50,210715,,,D*5F
$GPGGA,114559.000,2509.4358,N,05513.8469,E,2,9,1.01,4.3,M,-26.7,M,0000,0000*77
$GPGSA,A,3,31,12,24,25,05,02,20,29,21,,,,1.84,1.01,1.54*02
$GPRMC,114559.000,A,2509.4358,N,05513.8469,E,0.01,91.50,210715,,,D*5F
$GPGGA,114600.000,2509.4358,N,05513.8469,E,2,9,1.01,4.3,M,-26.7,M,0000,0000*78
$GPGSA,A,3,31,12,24,25,05,02,20,29,21,,,,1.84,1.01,1.54*02
$GPRMC,114600.000,A,2509.4358,N,05513.8469,E,0.02,91.50,210715,,,D*53
$GPGGA,114601.000,2509.4358,N,05513.8469,E,2,9,1.01,4.3,M,-26.7,M,0000,0000*79
$GPGSA,A,3,31,12,24,25,05,02,20,29,21,,,,1.84,1.01,1.54*02
$GPRMC,114601.000,A,2509.4358,N,05513.8469,E,0.02,91.50,210715,,,D*52
$GPGGA,114602.000,2509.4358,N,05513.8469,E,2,9,1.01,4.3,M,-26.7,M,0000,0000*7A
1437479161-TRAC
: Add TRAC_GPRS = 1
@P,1DFF,103,0,359551037902474,1437479161,1437479161,1437479161,55230781,25157263
,0,2,707,10,0,0,0,0,,-196,2000,
$GPGSA,A,3,31,12,24,25,05,02,20,29,21,,,,1.84,1.01,1.54*02
$GPGSV,3,1,11,12,74,134,24,25,63,321,40,05,51,093,20,39,45,233,38*76
$GPGSV,3,2,11,20,41,175,26,29,36,318,47,02,34,037,20,21,23,243,47*78
$GPGSV,3,3,11,24,16,194,14,31,07,313,27,15,01,165,*47
$GPRMC,114602.000,A,2509.4358,N,05513.8469,E,0.03,91.50,210715,,,D*50
1437479161-GSM_CMD : 2D887E11A09BCE0DBD48B471B4CD4607
$GPGGA,114603.000,2509.4358,N,05513.8468,E,2,9,1.01,4.3,M,-26.7,M,0000,0000*7A
1437479161-GSM_DATA : Send GPRS Data => 40508B4700330B2B000147027FE48E8A55AE30F
955AE30F955AE30F9034AC13D017FDE8F000002000002C3000A00000000000000FF3C07D000
1437479161-GSM_CMD : 55D9AEC36FB9FB31A1F1526C85B589BB
$GPGSA,A,3,31,12,24,25,05,02,20,29,21,,,,1.84,1.01,1.54*02
$GPRMC,114603.000,A,2509.4358,N,05513.8468,E,0.01,91.50,210715,,,D*52
1437479162-GSM_CMD : 4BF2B0ED6A317BBF34FDFB8875080138
$GPGGA,114604.000,2509.4358,N,05513.8468,E,2,9,1.01,4.3,M,-26.7,M,0000,0000*7D
$GPGSA,A,3,31,12,24,25,05,02,20,29,21,,,,1.84,1.01,1.54*02
$GPRMC,114604.000,A,2509.4358,N,05513.8468,E,0.01,91.50,210715,,,D*55
1437479163-GSM_CMD : 2081E4CDDC0EF27579842436C458D089
1437479163-GSM_CMD : F71EF9C7DDB536A9DE13A1994276C72D
1437479163-GSM_CMD : 1F57346402FE53B1D7D8DD2F6EEB91AEFE9DB3A0CA9F3070E95B95EE9
AE11E5B
1437479163-GSM_DATA : Receive GPRS Data => 0x[FE02000147027FE48E8A0B2B]
1437479163-OUTGOING : [REPORT_QUEUEID] => receive SeqID=>2859
1437479163-GSM_CMD : 55D9AEC36FB9FB31A1F1526C85B589BB
$GPGGA,114605.000,2509.4358,N,05513.8468,E,2,9,1.01,4.3,M,-26.7,M,0000,0000*7C
$GPGSA,A,3,31,12,24,25,05,02,20,29,21,,,,1.84,1.01,1.54*02
$GPRMC,114605.000,A,2509.4358,N,05513.8468,E,0.02,91.50,210715,,,D*57
$GPGGA,114606.000,2509.4358,N,05513.8468,E,2,8,1.02,4.3,M,-26.7,M,0000,0000*7D
$GPGSA,A,3,31,24,25,05,02,20,29,21,,,,,2.02,1.02,1.74*0D
$GPRMC,114606.000,A,2509.4358,N,05513.8468,E,0.03,91.50,210715,,,D*55
$GPGGA,114607.000,2509.4358,N,05513.8469,E,2,9,1.01,4.3,M,-26.7,M,0000,0000*7F
$GPGSA,A,3,31,12,24,25,05,02,20,29,21,,,,1.84,1.01,1.54*02
$GPGSV,3,1,11,12,74,134,24,25,63,321,41,05,51,093,20,39,45,233,38*77
$GPGSV,3,2,11,20,41,175,26,29,36,318,47,02,34,037,22,21,23,243,47*7A
$GPGSV,3,3,11,24,16,194,17,31,07,313,27,15,01,165,*44
$GPRMC,114607.000,A,2509.4358,N,05513.8469,E,0.03,91.50,210715,,,D*55
$GPGGA,114608.000,2509.4358,N,05513.8468,E,2,9,1.01,4.4,M,-26.7,M,0000,0000*76
$GPGSA,A,3,31,12,24,25,05,02,20,29,21,,,,1.84,1.01,1.54*02
$GPRMC,114608.000,A,2509.4358,N,05513.8468,E,0.02,91.50,210715,,,D*5A
$GPGGA,114609.000,2509.4358,N,05513.8468,E,2,9,1.01,4.4,M,-26.7,M,0000,0000*77
$GPGSA,A,3,31,12,24,25,05,02,20,29,21,,,,1.84,1.01,1.54*02
$GPRMC,114609.000,A,2509.4358,N,05513.8468,E,0.01,91.50,210715,,,D*58
$GPGGA,114610.000,2509.4358,N,05513.8468,E,2,9,1.01,4.4,M,-26.7,M,0000,0000*7F
$GPGSA,A,3,31,12,24,25,05,02,20,29,21,,,,1.84,1.01,1.53*05
$GPRMC,114610.000,A,2509.4358,N,05513.8468,E,0.05,91.50,210715,,,D*54

$GPGGA,114611.000,2509.4358,N,05513.8468,E,2,9,1.01,4.4,M,-26.7,M,0000,0000*7E
$GPGSA,A,3,31,12,24,25,05,02,20,29,21,,,,1.84,1.01,1.53*05
$GPRMC,114611.000,A,2509.4358,N,05513.8468,E,0.03,91.50,210715,,,D*53
$GPGGA,114612.000,2509.4358,N,05513.8468,E,2,9,1.01,4.4,M,-26.7,M,0000,0000*7D
$GPGSA,A,3,31,12,24,25,05,02,20,29,21,,,,1.84,1.01,1.53*05
$GPGSV,3,1,11,12,74,134,26,25,63,321,41,05,51,093,19,39,45,233,38*7F
$GPGSV,3,2,11,20,41,175,27,29,36,318,47,02,34,037,24,21,23,243,47*7D
$GPGSV,3,3,11,24,16,194,16,31,07,313,28,15,01,165,*4A
$GPRMC,114612.000,A,2509.4358,N,05513.8468,E,0.02,91.50,210715,,,D*51
$GPGGA,114613.000,2509.4358,N,05513.8468,E,2,9,1.01,4.4,M,-26.7,M,0000,0000*7C
$GPGSA,A,3,31,12,24,25,05,02,20,29,21,,,,1.84,1.01,1.53*05
$GPRMC,114613.000,A,2509.4358,N,05513.8468,E,0.02,91.50,210715,,,D*50
$GPGGA,114614.000,2509.4358,N,05513.8468,E,2,9,1.01,4.4,M,-26.7,M,0000,0000*7B
$GPGSA,A,3,31,12,24,25,05,02,20,29,21,,,,1.84,1.01,1.53*05
$GPRMC,114614.000,A,2509.4358,N,05513.8468,E,0.01,91.50,210715,,,D*54
$GPGGA,114615.000,2509.4358,N,05513.8468,E,2,9,1.01,4.4,M,-26.7,M,0000,0000*7A
$GPGSA,A,3,31,12,24,25,05,02,20,29,21,,,,1.84,1.01,1.53*05
$GPRMC,114615.000,A,2509.4358,N,05513.8468,E,0.01,91.50,210715,,,D*55
$GPGGA,114616.000,2509.4358,N,05513.8468,E,2,9,1.01,4.4,M,-26.7,M,0000,0000*79
$GPGSA,A,3,31,12,24,25,05,02,20,29,21,,,,1.84,1.01,1.53*05
$GPRMC,114616.000,A,2509.4358,N,05513.8468,E,0.02,91.50,210715,,,D*55
$GPGGA,114617.000,2509.4358,N,05513.8468,E,2,9,1.01,4.4,M,-26.7,M,0000,0000*78
$GPGSA,A,3,31,12,24,25,05,02,20,29,21,,,,1.84,1.01,1.53*05
$GPGSV,3,1,11,12,74,134,26,25,63,321,41,05,51,093,16,39,45,233,38*70
$GPGSV,3,2,11,20,41,175,26,29,36,318,47,02,34,037,24,21,23,243,47*7C
$GPGSV,3,3,11,24,16,194,16,31,07,313,28,15,01,165,*4A
$GPRMC,114617.000,A,2509.4358,N,05513.8468,E,0.01,91.50,210715,,,D*57
$GPGGA,114618.000,2509.4358,N,05513.8468,E,2,8,1.02,4.4,M,-26.7,M,0000,0000*75
$GPGSA,A,3,31,24,25,05,02,20,29,21,,,,,2.01,1.02,1.74*0E
$GPRMC,114618.000,A,2509.4358,N,05513.8468,E,0.02,91.50,210715,,,D*5B
$GPGGA,114619.000,2509.4358,N,05513.8468,E,2,8,1.02,4.4,M,-26.7,M,0000,0000*74
$GPGSA,A,3,31,24,25,05,02,20,29,21,,,,,2.01,1.02,1.74*0E
$GPRMC,114619.000,A,2509.4358,N,05513.8468,E,0.03,91.50,210715,,,D*5B
$GPGGA,114620.000,2509.4358,N,05513.8468,E,2,8,1.02,4.4,M,-26.7,M,0000,0000*7E
$GPGSA,A,3,31,24,25,05,02,20,29,21,,,,,2.01,1.02,1.74*0E
$GPRMC,114620.000,A,2509.4358,N,05513.8468,E,0.01,91.50,210715,,,D*53
$GPGGA,114621.000,2509.4358,N,05513.8468,E,2,8,1.02,4.4,M,-26.7,M,0000,0000*7F
$GPGSA,A,3,31,24,25,05,02,20,29,21,,,,,2.01,1.02,1.74*0E
$GPRMC,114621.000,A,2509.4358,N,05513.8468,E,0.01,91.50,210715,,,D*52
$GPGGA,114622.000,2509.4358,N,05513.8468,E,2,7,1.07,4.4,M,-26.7,M,0000,0000*76
$GPGSA,A,3,31,24,25,05,02,29,21,,,,,,2.07,1.07,1.77*0C
$GPGSV,3,1,11,12,74,134,23,25,63,321,41,05,51,093,16,39,45,233,38*75
$GPGSV,3,2,11,20,41,175,24,29,36,318,47,02,34,037,22,21,23,243,47*78
$GPGSV,3,3,11,24,16,194,19,31,07,313,28,15,01,165,*45
$GPRMC,114622.000,A,2509.4358,N,05513.8468,E,0.01,91.50,210715,,,D*51
$GPGGA,114623.000,2509.4358,N,05513.8468,E,2,7,1.07,4.5,M,-26.7,M,0000,0000*76
$GPGSA,A,3,31,24,25,05,02,29,21,,,,,,2.07,1.07,1.77*0C
$GPRMC,114623.000,A,2509.4358,N,05513.8468,E,0.01,91.50,210715,,,D*50
$GPGGA,114624.000,2509.4358,N,05513.8468,E,2,7,1.07,4.5,M,-26.7,M,0000,0000*71
$GPGSA,A,3,31,24,25,05,02,29,21,,,,,,2.07,1.07,1.77*0C
$GPRMC,114624.000,A,2509.4358,N,05513.8468,E,0.01,91.50,210715,,,D*57
$GPGGA,114625.000,2509.4358,N,05513.8468,E,2,7,1.07,4.5,M,-26.7,M,0000,0000*70
$GPGSA,A,3,31,24,25,05,02,29,21,,,,,,2.07,1.07,1.77*0C
$GPRMC,114625.000,A,2509.4358,N,05513.8468,E,0.01,91.50,210715,,,D*56
$GPGGA,114626.000,2509.4358,N,05513.8468,E,2,7,1.07,4.5,M,-26.7,M,0000,0000*73
$GPGSA,A,3,31,24,25,05,02,29,21,,,,,,2.07,1.07,1.77*0C
$GPRMC,114626.000,A,2509.4358,N,05513.8468,E,0.02,91.50,210715,,,D*56
$GPGGA,114627.000,2509.4358,N,05513.8468,E,2,7,1.07,4.5,M,-26.7,M,0000,0000*72
$GPGSA,A,3,31,24,25,05,02,29,21,,,,,,2.07,1.07,1.77*0C
$GPGSV,3,1,11,12,74,134,16,25,63,321,42,05,51,093,16,39,45,233,38*70

$GPGSV,3,2,11,20,41,175,21,29,36,318,47,02,34,037,21,21,23,243,47*7E
$GPGSV,3,3,11,24,16,194,20,31,07,313,29,15,01,165,*4E
$GPRMC,114627.000,A,2509.4358,N,05513.8468,E,0.02,91.50,210715,,,D*57
$GPGGA,114628.000,2509.4358,N,05513.8468,E,2,7,1.07,4.5,M,-26.7,M,0000,0000*7D
1437479186-GSM_CMD : DAABFE7481229CDB668EA6D5ECEBFBE7DB759BA152122696B2E407735
8119C9F36B306D262D605933D7D26F7BB87A150
1437479186-GSM_CMD : 6EE374611BF17D6A601AB84CF02DCB2B
1437479186-GSM_CMD : 8FBC5E681E6612795151A2185DFB312E880026AF1206FE9C4DCCBA1B2
ECB7AA0
1437479186-GSM_CMD : 89AEF8759BEC683D378C919BD0F63020
1437479186-GSM_CMD : 82626DAA07F7E8CC3D8841A5C229E5345E59DF42BC8833040F0F3FAA1
095290D
1437479186-GSM_CMD : 4FC9642A6C9F2589BEE9F4C5D515558F9C371193F4DEFB2527833ED65
CAC591242C00188CC77A1047B107B5786BEE355747F604E47808CEB0733012F10E166A8931B12978
4CF3E2C56580D28C1BFC0F7
$GPGSA,A,3,31,24,25,05,02,29,21,,,,,,2.07,1.07,1.77*0C
1437479186-GSM_CMD : BC1C651674B144227E85373B232FA407C2EFC820E8109E87659C52296
50BCC60770ACDCC6C86EB4C4F7DFDE81EACF5E90AE0DB6E5CE4F0CA7A3F54EEF2A982A508A6662EE
32D721199AF5A6EECDFF11AF0D49D9BCF8C3DEBD8643A8ACD41F652
1437479186-GSM_CMD : 0AABCEE99F9442C73551A7334B9B472A6BE233373A5B3967938042689
E24634AD9CDF4BC232AE5C7C99377F470D8D11B8D5259F66895D305CD86941273DB02D6
1437479186-GSM_CMD : 905FDE24D504CF86E94A1EE47EB7DDA881990FBA1E42826BD24A2D68C
3CFD78703D1832007DE2A1D562AF8E693A6AC5D2FBFB3CAC26392850E7FF8702415D1C1
1437479186-GSM_CMD : 76FFDD92002BF9E2C19BDE811EC200429454AE04F6F793F87C9DDC076
65AD6D4D65B14239BB67AC738ABF4C1B111C8CF0C98A41B21DC79389D9C8ADF5E01D423
1437479187-GSM_CMD : 85CD5CC4CF99163925B27CDF2195C5A4620E6D1758C4B3133DE74CC6F
526B68DD69662EEB9FEAA97BD15E7234A641FDA1AC431AA4997B1A9F440323810916036
1437479187-GSM_CMD : 63619F5DD4A40FF47540BDCCFD4410F09F2CED046FBF07D0447BB516E
F9193650F453258EF8EC3ACB33B8F7C59491E544493957208647AFAD336A45687BF0105
$GPRMC,114628.000,A,2509.4358,N,05513.8468,E,0.01,91.50,210715,,,D*5B
1437479187-GSM_CMD : E2036F957ABDED363964D12446DE1EBC9AA0C2A3B351CE550CC72E4FF
9BC39CD3F5FECBD49F66407BCAA6F9E73C1BC37203A80A29939E3BB2A16A805BBA3FC76
1437479187-GSM_CMD : 55D9AEC36FB9FB31A1F1526C85B589BB
$GPGGA,114629.000,2509.4358,N,05513.8468,E,2,7,1.07,4.5,M,-26.7,M,0000,0000*7C
$GPGSA,A,3,31,24,25,05,02,29,21,,,,,,2.07,1.07,1.77*0C
$GPRMC,114629.000,A,2509.4358,N,05513.8468,E,0.01,91.50,210715,,,D*5A
$GPGGA,114630.000,2509.4358,N,05513.8468,E,2,7,1.07,4.5,M,-26.7,M,0000,0000*74
$GPGSA,A,3,31,24,25,05,02,29,21,,,,,,2.07,1.07,1.77*0C
$GPRMC,114630.000,A,2509.4358,N,05513.8468,E,0.02,91.50,210715,,,D*51